<?xml version="1.0" encoding="UTF-8" standalone="no" ?>
<gpx xmlns="http://www.topografix.com/GPX/1/1" xmlns:xsi="http://www.w3.org/2001/XMLSchema-instance" xsi:schemaLocation="http://www.topografix.com/GPX/1/1 http://www.topografix.com/GPX/1/1/gpx.xsd" version="1.1" creator="VisuGPX - https://www.visugpx.com">
  <metadata>
    <name>31 mai 2020 09:16:30</name>
  </metadata>
  <trk>
    <name><![CDATA[31 mai 2020 09:16:30]]></name>
    <trkseg>
      <trkpt lat="42.91297" lon="0.77204">
        <ele>1485.28</ele>
        <time>2020-05-31T07:16:32.999Z</time>
      </trkpt>
      <trkpt lat="42.91289" lon="0.77211">
        <ele>1485.83</ele>
        <time>2020-05-31T07:20:32.999Z</time>
      </trkpt>
      <trkpt lat="42.9128" lon="0.77217">
        <ele>1485.48</ele>
        <time>2020-05-31T07:20:42.999Z</time>
      </trkpt>
      <trkpt lat="42.91273" lon="0.77226">
        <ele>1485.49</ele>
        <time>2020-05-31T07:20:51.999Z</time>
      </trkpt>
      <trkpt lat="42.91264" lon="0.77232">
        <ele>1485.53</ele>
        <time>2020-05-31T07:21:00.999Z</time>
      </trkpt>
      <trkpt lat="42.91256" lon="0.77238">
        <ele>1485.2</ele>
        <time>2020-05-31T07:21:08.999Z</time>
      </trkpt>
      <trkpt lat="42.91248" lon="0.77245">
        <ele>1484.64</ele>
        <time>2020-05-31T07:21:18.999Z</time>
      </trkpt>
      <trkpt lat="42.91239" lon="0.77242">
        <ele>1484.37</ele>
        <time>2020-05-31T07:21:28.999Z</time>
      </trkpt>
      <trkpt lat="42.9123" lon="0.77238">
        <ele>1485.62</ele>
        <time>2020-05-31T07:21:39.999Z</time>
      </trkpt>
      <trkpt lat="42.91221" lon="0.77234">
        <ele>1486.22</ele>
        <time>2020-05-31T07:21:50.999Z</time>
      </trkpt>
      <trkpt lat="42.91213" lon="0.77226">
        <ele>1488.57</ele>
        <time>2020-05-31T07:22:08.999Z</time>
      </trkpt>
      <trkpt lat="42.91205" lon="0.77219">
        <ele>1491.04</ele>
        <time>2020-05-31T07:22:18.999Z</time>
      </trkpt>
      <trkpt lat="42.91195" lon="0.77215">
        <ele>1492.07</ele>
        <time>2020-05-31T07:22:27.999Z</time>
      </trkpt>
      <trkpt lat="42.91186" lon="0.77208">
        <ele>1493.17</ele>
        <time>2020-05-31T07:22:37.999Z</time>
      </trkpt>
      <trkpt lat="42.91177" lon="0.77205">
        <ele>1494.19</ele>
        <time>2020-05-31T07:22:45.999Z</time>
      </trkpt>
      <trkpt lat="42.91167" lon="0.77203">
        <ele>1494.84</ele>
        <time>2020-05-31T07:22:54.999Z</time>
      </trkpt>
      <trkpt lat="42.91158" lon="0.77202">
        <ele>1495.13</ele>
        <time>2020-05-31T07:23:04.999Z</time>
      </trkpt>
      <trkpt lat="42.91165" lon="0.77211">
        <ele>1495.11</ele>
        <time>2020-05-31T07:24:11.999Z</time>
      </trkpt>
      <trkpt lat="42.91169" lon="0.77222">
        <ele>1495.16</ele>
        <time>2020-05-31T07:24:18.999Z</time>
      </trkpt>
      <trkpt lat="42.91165" lon="0.77235">
        <ele>1495.46</ele>
        <time>2020-05-31T07:24:30.999Z</time>
      </trkpt>
      <trkpt lat="42.91159" lon="0.77245">
        <ele>1495.43</ele>
        <time>2020-05-31T07:24:38.999Z</time>
      </trkpt>
      <trkpt lat="42.91151" lon="0.77252">
        <ele>1495.19</ele>
        <time>2020-05-31T07:24:45.999Z</time>
      </trkpt>
      <trkpt lat="42.91142" lon="0.77258">
        <ele>1495.13</ele>
        <time>2020-05-31T07:24:54.999Z</time>
      </trkpt>
      <trkpt lat="42.91134" lon="0.77265">
        <ele>1495.16</ele>
        <time>2020-05-31T07:25:02.999Z</time>
      </trkpt>
      <trkpt lat="42.91124" lon="0.77266">
        <ele>1495.29</ele>
        <time>2020-05-31T07:25:10.999Z</time>
      </trkpt>
      <trkpt lat="42.91115" lon="0.77267">
        <ele>1495.12</ele>
        <time>2020-05-31T07:25:19.999Z</time>
      </trkpt>
      <trkpt lat="42.91106" lon="0.77269">
        <ele>1494.58</ele>
        <time>2020-05-31T07:25:26.999Z</time>
      </trkpt>
      <trkpt lat="42.91097" lon="0.77271">
        <ele>1493.48</ele>
        <time>2020-05-31T07:25:36.999Z</time>
      </trkpt>
      <trkpt lat="42.91087" lon="0.77275">
        <ele>1492.45</ele>
        <time>2020-05-31T07:25:45.999Z</time>
      </trkpt>
      <trkpt lat="42.9108" lon="0.77282">
        <ele>1490.62</ele>
        <time>2020-05-31T07:25:55.999Z</time>
      </trkpt>
      <trkpt lat="42.91075" lon="0.77294">
        <ele>1487.88</ele>
        <time>2020-05-31T07:26:05.999Z</time>
      </trkpt>
      <trkpt lat="42.91067" lon="0.77301">
        <ele>1485.37</ele>
        <time>2020-05-31T07:26:14.999Z</time>
      </trkpt>
      <trkpt lat="42.91061" lon="0.7731">
        <ele>1482.6</ele>
        <time>2020-05-31T07:26:24.999Z</time>
      </trkpt>
      <trkpt lat="42.91056" lon="0.77321">
        <ele>1480.21</ele>
        <time>2020-05-31T07:26:33.999Z</time>
      </trkpt>
      <trkpt lat="42.91051" lon="0.77333">
        <ele>1478.17</ele>
        <time>2020-05-31T07:26:41.999Z</time>
      </trkpt>
      <trkpt lat="42.91046" lon="0.77344">
        <ele>1476.21</ele>
        <time>2020-05-31T07:26:50.999Z</time>
      </trkpt>
      <trkpt lat="42.91041" lon="0.77356">
        <ele>1474.48</ele>
        <time>2020-05-31T07:26:59.999Z</time>
      </trkpt>
      <trkpt lat="42.91037" lon="0.77367">
        <ele>1472.76</ele>
        <time>2020-05-31T07:27:08.999Z</time>
      </trkpt>
      <trkpt lat="42.91033" lon="0.77378">
        <ele>1470.96</ele>
        <time>2020-05-31T07:27:17.999Z</time>
      </trkpt>
      <trkpt lat="42.91029" lon="0.7739">
        <ele>1468.82</ele>
        <time>2020-05-31T07:27:28.999Z</time>
      </trkpt>
      <trkpt lat="42.91023" lon="0.77401">
        <ele>1467.17</ele>
        <time>2020-05-31T07:27:37.999Z</time>
      </trkpt>
      <trkpt lat="42.91016" lon="0.7741">
        <ele>1465.91</ele>
        <time>2020-05-31T07:27:44.999Z</time>
      </trkpt>
      <trkpt lat="42.91009" lon="0.77419">
        <ele>1464.15</ele>
        <time>2020-05-31T07:27:54.999Z</time>
      </trkpt>
      <trkpt lat="42.91003" lon="0.77429">
        <ele>1462.69</ele>
        <time>2020-05-31T07:28:02.999Z</time>
      </trkpt>
      <trkpt lat="42.90994" lon="0.77434">
        <ele>1461.22</ele>
        <time>2020-05-31T07:28:10.999Z</time>
      </trkpt>
      <trkpt lat="42.90987" lon="0.77441">
        <ele>1459.8</ele>
        <time>2020-05-31T07:28:18.999Z</time>
      </trkpt>
      <trkpt lat="42.90979" lon="0.77449">
        <ele>1458.5</ele>
        <time>2020-05-31T07:28:25.999Z</time>
      </trkpt>
      <trkpt lat="42.90973" lon="0.77458">
        <ele>1456.97</ele>
        <time>2020-05-31T07:28:33.999Z</time>
      </trkpt>
      <trkpt lat="42.90964" lon="0.77462">
        <ele>1455.63</ele>
        <time>2020-05-31T07:28:42.999Z</time>
      </trkpt>
      <trkpt lat="42.90956" lon="0.77468">
        <ele>1454.82</ele>
        <time>2020-05-31T07:28:50.999Z</time>
      </trkpt>
      <trkpt lat="42.90948" lon="0.77474">
        <ele>1454.2</ele>
        <time>2020-05-31T07:28:58.999Z</time>
      </trkpt>
      <trkpt lat="42.90938" lon="0.77472">
        <ele>1453.65</ele>
        <time>2020-05-31T07:29:08.999Z</time>
      </trkpt>
      <trkpt lat="42.90929" lon="0.77473">
        <ele>1453.59</ele>
        <time>2020-05-31T07:29:19.999Z</time>
      </trkpt>
      <trkpt lat="42.9092" lon="0.77467">
        <ele>1454.43</ele>
        <time>2020-05-31T07:29:32.999Z</time>
      </trkpt>
      <trkpt lat="42.90912" lon="0.77461">
        <ele>1455.27</ele>
        <time>2020-05-31T07:29:42.999Z</time>
      </trkpt>
      <trkpt lat="42.90902" lon="0.77458">
        <ele>1455.98</ele>
        <time>2020-05-31T07:29:53.999Z</time>
      </trkpt>
      <trkpt lat="42.90893" lon="0.77453">
        <ele>1456.67</ele>
        <time>2020-05-31T07:30:03.999Z</time>
      </trkpt>
      <trkpt lat="42.90888" lon="0.77444">
        <ele>1457.53</ele>
        <time>2020-05-31T07:30:15.999Z</time>
      </trkpt>
      <trkpt lat="42.90886" lon="0.77431">
        <ele>1458.61</ele>
        <time>2020-05-31T07:30:25.999Z</time>
      </trkpt>
      <trkpt lat="42.90878" lon="0.77425">
        <ele>1459.66</ele>
        <time>2020-05-31T07:30:35.999Z</time>
      </trkpt>
      <trkpt lat="42.90871" lon="0.77416">
        <ele>1460.65</ele>
        <time>2020-05-31T07:30:46.999Z</time>
      </trkpt>
      <trkpt lat="42.90862" lon="0.7741">
        <ele>1461.6</ele>
        <time>2020-05-31T07:30:57.999Z</time>
      </trkpt>
      <trkpt lat="42.90853" lon="0.77414">
        <ele>1462.64</ele>
        <time>2020-05-31T07:31:10.999Z</time>
      </trkpt>
      <trkpt lat="42.90845" lon="0.7742">
        <ele>1463.58</ele>
        <time>2020-05-31T07:31:21.999Z</time>
      </trkpt>
      <trkpt lat="42.90837" lon="0.77428">
        <ele>1464.9</ele>
        <time>2020-05-31T07:31:33.999Z</time>
      </trkpt>
      <trkpt lat="42.9083" lon="0.77437">
        <ele>1466</ele>
        <time>2020-05-31T07:31:43.999Z</time>
      </trkpt>
      <trkpt lat="42.90822" lon="0.77446">
        <ele>1467.23</ele>
        <time>2020-05-31T07:31:54.999Z</time>
      </trkpt>
      <trkpt lat="42.90816" lon="0.77455">
        <ele>1468.58</ele>
        <time>2020-05-31T07:32:05.999Z</time>
      </trkpt>
      <trkpt lat="42.90809" lon="0.77464">
        <ele>1470.94</ele>
        <time>2020-05-31T07:32:22.999Z</time>
      </trkpt>
      <trkpt lat="42.90804" lon="0.77475">
        <ele>1473.13</ele>
        <time>2020-05-31T07:32:35.999Z</time>
      </trkpt>
      <trkpt lat="42.90798" lon="0.77485">
        <ele>1474.6</ele>
        <time>2020-05-31T07:32:44.999Z</time>
      </trkpt>
      <trkpt lat="42.9079" lon="0.77494">
        <ele>1476.37</ele>
        <time>2020-05-31T07:32:56.999Z</time>
      </trkpt>
      <trkpt lat="42.90787" lon="0.77506">
        <ele>1477.38</ele>
        <time>2020-05-31T07:33:07.999Z</time>
      </trkpt>
      <trkpt lat="42.90784" lon="0.77518">
        <ele>1477.8</ele>
        <time>2020-05-31T07:33:15.999Z</time>
      </trkpt>
      <trkpt lat="42.90782" lon="0.7753">
        <ele>1477.98</ele>
        <time>2020-05-31T07:33:26.999Z</time>
      </trkpt>
      <trkpt lat="42.9078" lon="0.77542">
        <ele>1478.1</ele>
        <time>2020-05-31T07:33:36.999Z</time>
      </trkpt>
      <trkpt lat="42.90776" lon="0.77554">
        <ele>1478.1</ele>
        <time>2020-05-31T07:33:46.999Z</time>
      </trkpt>
      <trkpt lat="42.90771" lon="0.77565">
        <ele>1477.88</ele>
        <time>2020-05-31T07:33:56.999Z</time>
      </trkpt>
      <trkpt lat="42.90769" lon="0.77578">
        <ele>1478.13</ele>
        <time>2020-05-31T07:34:06.999Z</time>
      </trkpt>
      <trkpt lat="42.90766" lon="0.77591">
        <ele>1479.01</ele>
        <time>2020-05-31T07:34:17.999Z</time>
      </trkpt>
      <trkpt lat="42.90763" lon="0.77604">
        <ele>1480.48</ele>
        <time>2020-05-31T07:34:28.999Z</time>
      </trkpt>
      <trkpt lat="42.90758" lon="0.77613">
        <ele>1481.64</ele>
        <time>2020-05-31T07:34:37.999Z</time>
      </trkpt>
      <trkpt lat="42.90755" lon="0.77626">
        <ele>1482.63</ele>
        <time>2020-05-31T07:34:46.999Z</time>
      </trkpt>
      <trkpt lat="42.90753" lon="0.77638">
        <ele>1484.57</ele>
        <time>2020-05-31T07:35:02.999Z</time>
      </trkpt>
      <trkpt lat="42.90755" lon="0.77651">
        <ele>1486.88</ele>
        <time>2020-05-31T07:35:19.999Z</time>
      </trkpt>
      <trkpt lat="42.90754" lon="0.77664">
        <ele>1489.33</ele>
        <time>2020-05-31T07:35:35.999Z</time>
      </trkpt>
      <trkpt lat="42.90757" lon="0.77675">
        <ele>1491.33</ele>
        <time>2020-05-31T07:35:48.999Z</time>
      </trkpt>
      <trkpt lat="42.90756" lon="0.77688">
        <ele>1495.53</ele>
        <time>2020-05-31T07:36:10.999Z</time>
      </trkpt>
      <trkpt lat="42.90752" lon="0.777">
        <ele>1498.53</ele>
        <time>2020-05-31T07:36:25.999Z</time>
      </trkpt>
      <trkpt lat="42.90753" lon="0.77713">
        <ele>1501.47</ele>
        <time>2020-05-31T07:36:41.999Z</time>
      </trkpt>
      <trkpt lat="42.90748" lon="0.77724">
        <ele>1503.73</ele>
        <time>2020-05-31T07:36:56.999Z</time>
      </trkpt>
      <trkpt lat="42.90743" lon="0.77735">
        <ele>1508.15</ele>
        <time>2020-05-31T07:37:14.999Z</time>
      </trkpt>
      <trkpt lat="42.90733" lon="0.77736">
        <ele>1511.28</ele>
        <time>2020-05-31T07:37:32.999Z</time>
      </trkpt>
      <trkpt lat="42.90729" lon="0.77748">
        <ele>1514.74</ele>
        <time>2020-05-31T07:37:50.999Z</time>
      </trkpt>
      <trkpt lat="42.90721" lon="0.77753">
        <ele>1516.72</ele>
        <time>2020-05-31T07:37:58.999Z</time>
      </trkpt>
      <trkpt lat="42.90718" lon="0.77765">
        <ele>1522.18</ele>
        <time>2020-05-31T07:38:29.999Z</time>
      </trkpt>
      <trkpt lat="42.90722" lon="0.77778">
        <ele>1525.05</ele>
        <time>2020-05-31T07:38:44.999Z</time>
      </trkpt>
      <trkpt lat="42.90728" lon="0.77788">
        <ele>1526.63</ele>
        <time>2020-05-31T07:38:55.999Z</time>
      </trkpt>
      <trkpt lat="42.90738" lon="0.77788">
        <ele>1527.97</ele>
        <time>2020-05-31T07:39:01.999Z</time>
      </trkpt>
      <trkpt lat="42.90733" lon="0.778">
        <ele>1531.43</ele>
        <time>2020-05-31T07:39:14.999Z</time>
      </trkpt>
      <trkpt lat="42.90739" lon="0.77808">
        <ele>1534.82</ele>
        <time>2020-05-31T07:39:29.999Z</time>
      </trkpt>
      <trkpt lat="42.90743" lon="0.7782">
        <ele>1537.21</ele>
        <time>2020-05-31T07:39:42.999Z</time>
      </trkpt>
      <trkpt lat="42.90744" lon="0.77833">
        <ele>1539.2</ele>
        <time>2020-05-31T07:39:57.999Z</time>
      </trkpt>
      <trkpt lat="42.9075" lon="0.77843">
        <ele>1541.19</ele>
        <time>2020-05-31T07:40:11.999Z</time>
      </trkpt>
      <trkpt lat="42.90753" lon="0.77855">
        <ele>1544.26</ele>
        <time>2020-05-31T07:40:27.999Z</time>
      </trkpt>
      <trkpt lat="42.90758" lon="0.77866">
        <ele>1547.14</ele>
        <time>2020-05-31T07:40:47.999Z</time>
      </trkpt>
      <trkpt lat="42.9076" lon="0.77877">
        <ele>1549.71</ele>
        <time>2020-05-31T07:40:59.999Z</time>
      </trkpt>
      <trkpt lat="42.90762" lon="0.7789">
        <ele>1552.22</ele>
        <time>2020-05-31T07:41:10.999Z</time>
      </trkpt>
      <trkpt lat="42.90765" lon="0.77903">
        <ele>1555.16</ele>
        <time>2020-05-31T07:41:23.999Z</time>
      </trkpt>
      <trkpt lat="42.90766" lon="0.77915">
        <ele>1557.64</ele>
        <time>2020-05-31T07:41:38.999Z</time>
      </trkpt>
      <trkpt lat="42.90765" lon="0.77929">
        <ele>1559.22</ele>
        <time>2020-05-31T07:41:50.999Z</time>
      </trkpt>
      <trkpt lat="42.90763" lon="0.77941">
        <ele>1560.88</ele>
        <time>2020-05-31T07:42:02.999Z</time>
      </trkpt>
      <trkpt lat="42.9076" lon="0.77953">
        <ele>1563.06</ele>
        <time>2020-05-31T07:42:15.999Z</time>
      </trkpt>
      <trkpt lat="42.90753" lon="0.77961">
        <ele>1564.98</ele>
        <time>2020-05-31T07:42:26.999Z</time>
      </trkpt>
      <trkpt lat="42.90746" lon="0.77968">
        <ele>1567.16</ele>
        <time>2020-05-31T07:42:41.999Z</time>
      </trkpt>
      <trkpt lat="42.90742" lon="0.77979">
        <ele>1569.7</ele>
        <time>2020-05-31T07:42:55.999Z</time>
      </trkpt>
      <trkpt lat="42.90734" lon="0.77986">
        <ele>1571.83</ele>
        <time>2020-05-31T07:43:07.999Z</time>
      </trkpt>
      <trkpt lat="42.90728" lon="0.77996">
        <ele>1574.15</ele>
        <time>2020-05-31T07:43:20.999Z</time>
      </trkpt>
      <trkpt lat="42.90722" lon="0.78006">
        <ele>1576.86</ele>
        <time>2020-05-31T07:43:34.999Z</time>
      </trkpt>
      <trkpt lat="42.90716" lon="0.78017">
        <ele>1583.59</ele>
        <time>2020-05-31T07:46:31.999Z</time>
      </trkpt>
      <trkpt lat="42.90712" lon="0.78027">
        <ele>1586.27</ele>
        <time>2020-05-31T07:46:50.999Z</time>
      </trkpt>
      <trkpt lat="42.90708" lon="0.7804">
        <ele>1588.54</ele>
        <time>2020-05-31T07:47:05.999Z</time>
      </trkpt>
      <trkpt lat="42.90706" lon="0.78052">
        <ele>1588.76</ele>
        <time>2020-05-31T07:47:16.999Z</time>
      </trkpt>
      <trkpt lat="42.90702" lon="0.78064">
        <ele>1588.67</ele>
        <time>2020-05-31T07:47:25.999Z</time>
      </trkpt>
      <trkpt lat="42.90701" lon="0.78077">
        <ele>1588.75</ele>
        <time>2020-05-31T07:47:43.999Z</time>
      </trkpt>
      <trkpt lat="42.90696" lon="0.78088">
        <ele>1588.35</ele>
        <time>2020-05-31T07:48:05.999Z</time>
      </trkpt>
      <trkpt lat="42.90689" lon="0.78096">
        <ele>1587.62</ele>
        <time>2020-05-31T07:48:17.999Z</time>
      </trkpt>
      <trkpt lat="42.90686" lon="0.7811">
        <ele>1586.91</ele>
        <time>2020-05-31T07:48:27.999Z</time>
      </trkpt>
      <trkpt lat="42.90683" lon="0.78122">
        <ele>1585.68</ele>
        <time>2020-05-31T07:48:38.999Z</time>
      </trkpt>
      <trkpt lat="42.90676" lon="0.7813">
        <ele>1584.93</ele>
        <time>2020-05-31T07:48:46.999Z</time>
      </trkpt>
      <trkpt lat="42.90677" lon="0.78142">
        <ele>1584.72</ele>
        <time>2020-05-31T07:49:07.999Z</time>
      </trkpt>
      <trkpt lat="42.90676" lon="0.78155">
        <ele>1583.81</ele>
        <time>2020-05-31T07:49:30.999Z</time>
      </trkpt>
      <trkpt lat="42.90669" lon="0.78163">
        <ele>1584.75</ele>
        <time>2020-05-31T07:49:43.999Z</time>
      </trkpt>
      <trkpt lat="42.90664" lon="0.78173">
        <ele>1585.21</ele>
        <time>2020-05-31T07:49:56.999Z</time>
      </trkpt>
      <trkpt lat="42.90657" lon="0.78182">
        <ele>1584.75</ele>
        <time>2020-05-31T07:50:08.999Z</time>
      </trkpt>
      <trkpt lat="42.90657" lon="0.78195">
        <ele>1584.53</ele>
        <time>2020-05-31T07:50:18.999Z</time>
      </trkpt>
      <trkpt lat="42.90657" lon="0.78211">
        <ele>1582.95</ele>
        <time>2020-05-31T07:50:37.999Z</time>
      </trkpt>
      <trkpt lat="42.90651" lon="0.78219">
        <ele>1582.5</ele>
        <time>2020-05-31T07:50:48.999Z</time>
      </trkpt>
      <trkpt lat="42.90645" lon="0.7823">
        <ele>1582.51</ele>
        <time>2020-05-31T07:50:56.999Z</time>
      </trkpt>
      <trkpt lat="42.90642" lon="0.78242">
        <ele>1582.33</ele>
        <time>2020-05-31T07:51:06.999Z</time>
      </trkpt>
      <trkpt lat="42.9064" lon="0.78255">
        <ele>1582</ele>
        <time>2020-05-31T07:51:14.999Z</time>
      </trkpt>
      <trkpt lat="42.90637" lon="0.78267">
        <ele>1581.75</ele>
        <time>2020-05-31T07:51:21.999Z</time>
      </trkpt>
      <trkpt lat="42.90634" lon="0.78278">
        <ele>1581.4</ele>
        <time>2020-05-31T07:51:28.999Z</time>
      </trkpt>
      <trkpt lat="42.90628" lon="0.78289">
        <ele>1581.48</ele>
        <time>2020-05-31T07:51:38.999Z</time>
      </trkpt>
      <trkpt lat="42.90622" lon="0.783">
        <ele>1581.43</ele>
        <time>2020-05-31T07:51:46.999Z</time>
      </trkpt>
      <trkpt lat="42.90618" lon="0.78314">
        <ele>1580.82</ele>
        <time>2020-05-31T07:51:54.999Z</time>
      </trkpt>
      <trkpt lat="42.90617" lon="0.78327">
        <ele>1580</ele>
        <time>2020-05-31T07:52:01.999Z</time>
      </trkpt>
      <trkpt lat="42.90615" lon="0.78339">
        <ele>1579.47</ele>
        <time>2020-05-31T07:52:07.999Z</time>
      </trkpt>
      <trkpt lat="42.9061" lon="0.7835">
        <ele>1578.68</ele>
        <time>2020-05-31T07:52:16.999Z</time>
      </trkpt>
      <trkpt lat="42.90606" lon="0.78361">
        <ele>1577.94</ele>
        <time>2020-05-31T07:52:24.999Z</time>
      </trkpt>
      <trkpt lat="42.90602" lon="0.78373">
        <ele>1576.95</ele>
        <time>2020-05-31T07:52:33.999Z</time>
      </trkpt>
      <trkpt lat="42.90598" lon="0.78385">
        <ele>1576.53</ele>
        <time>2020-05-31T07:52:42.999Z</time>
      </trkpt>
      <trkpt lat="42.90596" lon="0.78398">
        <ele>1575.79</ele>
        <time>2020-05-31T07:52:50.999Z</time>
      </trkpt>
      <trkpt lat="42.90595" lon="0.78412">
        <ele>1575.15</ele>
        <time>2020-05-31T07:53:00.999Z</time>
      </trkpt>
      <trkpt lat="42.90594" lon="0.78426">
        <ele>1574.65</ele>
        <time>2020-05-31T07:53:07.999Z</time>
      </trkpt>
      <trkpt lat="42.90595" lon="0.78439">
        <ele>1574.79</ele>
        <time>2020-05-31T07:53:13.999Z</time>
      </trkpt>
      <trkpt lat="42.90595" lon="0.78452">
        <ele>1574.56</ele>
        <time>2020-05-31T07:53:22.999Z</time>
      </trkpt>
      <trkpt lat="42.90594" lon="0.78466">
        <ele>1574.61</ele>
        <time>2020-05-31T07:53:28.999Z</time>
      </trkpt>
      <trkpt lat="42.90593" lon="0.78478">
        <ele>1575.08</ele>
        <time>2020-05-31T07:53:38.999Z</time>
      </trkpt>
      <trkpt lat="42.90595" lon="0.78491">
        <ele>1575.22</ele>
        <time>2020-05-31T07:53:48.999Z</time>
      </trkpt>
      <trkpt lat="42.90599" lon="0.78503">
        <ele>1575.93</ele>
        <time>2020-05-31T07:53:59.999Z</time>
      </trkpt>
      <trkpt lat="42.90602" lon="0.78515">
        <ele>1575.92</ele>
        <time>2020-05-31T07:54:09.999Z</time>
      </trkpt>
      <trkpt lat="42.90604" lon="0.78527">
        <ele>1575.33</ele>
        <time>2020-05-31T07:54:18.999Z</time>
      </trkpt>
      <trkpt lat="42.90609" lon="0.78539">
        <ele>1573.51</ele>
        <time>2020-05-31T07:54:27.999Z</time>
      </trkpt>
      <trkpt lat="42.90611" lon="0.78552">
        <ele>1572.2</ele>
        <time>2020-05-31T07:54:36.999Z</time>
      </trkpt>
      <trkpt lat="42.90612" lon="0.78565">
        <ele>1570.91</ele>
        <time>2020-05-31T07:54:45.999Z</time>
      </trkpt>
      <trkpt lat="42.9061" lon="0.78577">
        <ele>1570.32</ele>
        <time>2020-05-31T07:54:50.999Z</time>
      </trkpt>
      <trkpt lat="42.90608" lon="0.7859">
        <ele>1569.82</ele>
        <time>2020-05-31T07:54:57.999Z</time>
      </trkpt>
      <trkpt lat="42.90611" lon="0.78602">
        <ele>1568.33</ele>
        <time>2020-05-31T07:55:13.999Z</time>
      </trkpt>
      <trkpt lat="42.90615" lon="0.78614">
        <ele>1566.9</ele>
        <time>2020-05-31T07:55:23.999Z</time>
      </trkpt>
      <trkpt lat="42.9062" lon="0.78625">
        <ele>1565.39</ele>
        <time>2020-05-31T07:55:31.999Z</time>
      </trkpt>
      <trkpt lat="42.90627" lon="0.78635">
        <ele>1563.99</ele>
        <time>2020-05-31T07:55:38.999Z</time>
      </trkpt>
      <trkpt lat="42.90632" lon="0.78645">
        <ele>1561.42</ele>
        <time>2020-05-31T07:55:49.999Z</time>
      </trkpt>
      <trkpt lat="42.90635" lon="0.78657">
        <ele>1559.59</ele>
        <time>2020-05-31T07:55:58.999Z</time>
      </trkpt>
      <trkpt lat="42.90644" lon="0.78666">
        <ele>1558.87</ele>
        <time>2020-05-31T07:56:06.999Z</time>
      </trkpt>
      <trkpt lat="42.90648" lon="0.78677">
        <ele>1557.13</ele>
        <time>2020-05-31T07:56:22.999Z</time>
      </trkpt>
      <trkpt lat="42.90653" lon="0.78688">
        <ele>1554.86</ele>
        <time>2020-05-31T07:56:34.999Z</time>
      </trkpt>
      <trkpt lat="42.90654" lon="0.78702">
        <ele>1553.1</ele>
        <time>2020-05-31T07:56:42.999Z</time>
      </trkpt>
      <trkpt lat="42.90654" lon="0.78714">
        <ele>1551.48</ele>
        <time>2020-05-31T07:56:48.999Z</time>
      </trkpt>
      <trkpt lat="42.90654" lon="0.78727">
        <ele>1549.73</ele>
        <time>2020-05-31T07:56:56.000Z</time>
      </trkpt>
      <trkpt lat="42.90649" lon="0.78739">
        <ele>1546.66</ele>
        <time>2020-05-31T07:57:06.000Z</time>
      </trkpt>
      <trkpt lat="42.90643" lon="0.78749">
        <ele>1545.03</ele>
        <time>2020-05-31T07:57:13.000Z</time>
      </trkpt>
      <trkpt lat="42.90636" lon="0.78758">
        <ele>1544.04</ele>
        <time>2020-05-31T07:57:22.000Z</time>
      </trkpt>
      <trkpt lat="42.90631" lon="0.78769">
        <ele>1543.3</ele>
        <time>2020-05-31T07:57:33.000Z</time>
      </trkpt>
      <trkpt lat="42.90622" lon="0.78772">
        <ele>1542.77</ele>
        <time>2020-05-31T07:57:40.000Z</time>
      </trkpt>
      <trkpt lat="42.90612" lon="0.78771">
        <ele>1541.73</ele>
        <time>2020-05-31T07:57:47.000Z</time>
      </trkpt>
      <trkpt lat="42.90606" lon="0.78781">
        <ele>1540.43</ele>
        <time>2020-05-31T07:57:57.000Z</time>
      </trkpt>
      <trkpt lat="42.90598" lon="0.78791">
        <ele>1539.98</ele>
        <time>2020-05-31T07:58:05.000Z</time>
      </trkpt>
      <trkpt lat="42.9059" lon="0.78797">
        <ele>1539.37</ele>
        <time>2020-05-31T07:58:12.000Z</time>
      </trkpt>
      <trkpt lat="42.90584" lon="0.78806">
        <ele>1538.18</ele>
        <time>2020-05-31T07:58:22.000Z</time>
      </trkpt>
      <trkpt lat="42.90575" lon="0.78813">
        <ele>1537.32</ele>
        <time>2020-05-31T07:58:31.000Z</time>
      </trkpt>
      <trkpt lat="42.90566" lon="0.78817">
        <ele>1536.73</ele>
        <time>2020-05-31T07:58:40.000Z</time>
      </trkpt>
      <trkpt lat="42.9056" lon="0.78828">
        <ele>1536.03</ele>
        <time>2020-05-31T07:58:49.000Z</time>
      </trkpt>
      <trkpt lat="42.90552" lon="0.78835">
        <ele>1535.42</ele>
        <time>2020-05-31T07:59:02.000Z</time>
      </trkpt>
      <trkpt lat="42.90545" lon="0.78844">
        <ele>1534.16</ele>
        <time>2020-05-31T07:59:12.000Z</time>
      </trkpt>
      <trkpt lat="42.90538" lon="0.78853">
        <ele>1532.61</ele>
        <time>2020-05-31T07:59:21.000Z</time>
      </trkpt>
      <trkpt lat="42.90531" lon="0.78863">
        <ele>1531.03</ele>
        <time>2020-05-31T07:59:29.000Z</time>
      </trkpt>
      <trkpt lat="42.90526" lon="0.78874">
        <ele>1529.82</ele>
        <time>2020-05-31T07:59:37.000Z</time>
      </trkpt>
      <trkpt lat="42.90517" lon="0.78879">
        <ele>1526.72</ele>
        <time>2020-05-31T07:59:59.000Z</time>
      </trkpt>
      <trkpt lat="42.90508" lon="0.78886">
        <ele>1525.47</ele>
        <time>2020-05-31T08:00:07.000Z</time>
      </trkpt>
      <trkpt lat="42.90498" lon="0.78886">
        <ele>1524.09</ele>
        <time>2020-05-31T08:00:17.000Z</time>
      </trkpt>
      <trkpt lat="42.90489" lon="0.78881">
        <ele>1522.03</ele>
        <time>2020-05-31T08:00:27.000Z</time>
      </trkpt>
      <trkpt lat="42.90481" lon="0.78876">
        <ele>1520.25</ele>
        <time>2020-05-31T08:00:35.000Z</time>
      </trkpt>
      <trkpt lat="42.90473" lon="0.7887">
        <ele>1518.79</ele>
        <time>2020-05-31T08:00:43.000Z</time>
      </trkpt>
      <trkpt lat="42.90464" lon="0.78868">
        <ele>1516.39</ele>
        <time>2020-05-31T08:00:55.000Z</time>
      </trkpt>
      <trkpt lat="42.90454" lon="0.78864">
        <ele>1514.17</ele>
        <time>2020-05-31T08:01:09.000Z</time>
      </trkpt>
      <trkpt lat="42.90446" lon="0.7886">
        <ele>1513.28</ele>
        <time>2020-05-31T08:01:17.000Z</time>
      </trkpt>
      <trkpt lat="42.90438" lon="0.78852">
        <ele>1511.88</ele>
        <time>2020-05-31T08:01:24.000Z</time>
      </trkpt>
      <trkpt lat="42.90428" lon="0.78853">
        <ele>1510.16</ele>
        <time>2020-05-31T08:01:33.000Z</time>
      </trkpt>
      <trkpt lat="42.90418" lon="0.78852">
        <ele>1508.52</ele>
        <time>2020-05-31T08:01:43.000Z</time>
      </trkpt>
      <trkpt lat="42.90411" lon="0.78843">
        <ele>1507.11</ele>
        <time>2020-05-31T08:01:51.000Z</time>
      </trkpt>
      <trkpt lat="42.90402" lon="0.78838">
        <ele>1505.68</ele>
        <time>2020-05-31T08:01:59.000Z</time>
      </trkpt>
      <trkpt lat="42.90393" lon="0.78837">
        <ele>1503.58</ele>
        <time>2020-05-31T08:02:09.000Z</time>
      </trkpt>
      <trkpt lat="42.90384" lon="0.78839">
        <ele>1501.8</ele>
        <time>2020-05-31T08:02:17.000Z</time>
      </trkpt>
      <trkpt lat="42.90375" lon="0.7884">
        <ele>1500.5</ele>
        <time>2020-05-31T08:02:24.000Z</time>
      </trkpt>
      <trkpt lat="42.90366" lon="0.78836">
        <ele>1499.46</ele>
        <time>2020-05-31T08:02:31.000Z</time>
      </trkpt>
      <trkpt lat="42.90356" lon="0.78835">
        <ele>1497.87</ele>
        <time>2020-05-31T08:02:41.000Z</time>
      </trkpt>
      <trkpt lat="42.90349" lon="0.78843">
        <ele>1496.56</ele>
        <time>2020-05-31T08:02:48.000Z</time>
      </trkpt>
      <trkpt lat="42.90342" lon="0.78851">
        <ele>1494.66</ele>
        <time>2020-05-31T08:03:01.000Z</time>
      </trkpt>
      <trkpt lat="42.90333" lon="0.78853">
        <ele>1493.64</ele>
        <time>2020-05-31T08:03:13.000Z</time>
      </trkpt>
      <trkpt lat="42.90324" lon="0.7885">
        <ele>1492.67</ele>
        <time>2020-05-31T08:03:32.000Z</time>
      </trkpt>
      <trkpt lat="42.90315" lon="0.7885">
        <ele>1492.16</ele>
        <time>2020-05-31T08:03:41.000Z</time>
      </trkpt>
      <trkpt lat="42.90321" lon="0.78862">
        <ele>1488.71</ele>
        <time>2020-05-31T08:04:36.000Z</time>
      </trkpt>
      <trkpt lat="42.9033" lon="0.78862">
        <ele>1486.18</ele>
        <time>2020-05-31T08:04:48.000Z</time>
      </trkpt>
      <trkpt lat="42.90329" lon="0.78875">
        <ele>1483.67</ele>
        <time>2020-05-31T08:05:07.000Z</time>
      </trkpt>
      <trkpt lat="42.90327" lon="0.78887">
        <ele>1492.05</ele>
        <time>2020-05-31T08:07:18.000Z</time>
      </trkpt>
      <trkpt lat="42.90328" lon="0.789">
        <ele>1490.21</ele>
        <time>2020-05-31T08:07:34.000Z</time>
      </trkpt>
      <trkpt lat="42.90334" lon="0.7891">
        <ele>1487.43</ele>
        <time>2020-05-31T08:07:46.000Z</time>
      </trkpt>
      <trkpt lat="42.90331" lon="0.78922">
        <ele>1483.96</ele>
        <time>2020-05-31T08:07:57.000Z</time>
      </trkpt>
      <trkpt lat="42.90322" lon="0.78926">
        <ele>1481.63</ele>
        <time>2020-05-31T08:08:06.000Z</time>
      </trkpt>
      <trkpt lat="42.90312" lon="0.78922">
        <ele>1478.99</ele>
        <time>2020-05-31T08:08:15.000Z</time>
      </trkpt>
      <trkpt lat="42.90304" lon="0.78916">
        <ele>1476.81</ele>
        <time>2020-05-31T08:08:23.000Z</time>
      </trkpt>
      <trkpt lat="42.90296" lon="0.78909">
        <ele>1473.78</ele>
        <time>2020-05-31T08:08:34.000Z</time>
      </trkpt>
      <trkpt lat="42.9029" lon="0.78899">
        <ele>1471.28</ele>
        <time>2020-05-31T08:08:47.000Z</time>
      </trkpt>
      <trkpt lat="42.90284" lon="0.7889">
        <ele>1469.23</ele>
        <time>2020-05-31T08:08:57.000Z</time>
      </trkpt>
      <trkpt lat="42.90277" lon="0.7888">
        <ele>1467.16</ele>
        <time>2020-05-31T08:09:04.000Z</time>
      </trkpt>
      <trkpt lat="42.90269" lon="0.78874">
        <ele>1466.37</ele>
        <time>2020-05-31T08:09:07.000Z</time>
      </trkpt>
      <trkpt lat="42.90262" lon="0.78866">
        <ele>1463.2</ele>
        <time>2020-05-31T08:09:18.000Z</time>
      </trkpt>
      <trkpt lat="42.90255" lon="0.78857">
        <ele>1460.82</ele>
        <time>2020-05-31T08:09:27.000Z</time>
      </trkpt>
      <trkpt lat="42.9025" lon="0.78847">
        <ele>1458.91</ele>
        <time>2020-05-31T08:09:35.000Z</time>
      </trkpt>
      <trkpt lat="42.90247" lon="0.78834">
        <ele>1457.17</ele>
        <time>2020-05-31T08:09:43.000Z</time>
      </trkpt>
      <trkpt lat="42.90246" lon="0.78821">
        <ele>1456.07</ele>
        <time>2020-05-31T08:09:54.000Z</time>
      </trkpt>
      <trkpt lat="42.90242" lon="0.7881">
        <ele>1455.21</ele>
        <time>2020-05-31T08:10:07.000Z</time>
      </trkpt>
      <trkpt lat="42.90238" lon="0.78797">
        <ele>1454.69</ele>
        <time>2020-05-31T08:10:16.000Z</time>
      </trkpt>
      <trkpt lat="42.90233" lon="0.78787">
        <ele>1454.36</ele>
        <time>2020-05-31T08:10:24.000Z</time>
      </trkpt>
      <trkpt lat="42.90232" lon="0.78774">
        <ele>1454.23</ele>
        <time>2020-05-31T08:10:32.000Z</time>
      </trkpt>
      <trkpt lat="42.90233" lon="0.78761">
        <ele>1453.98</ele>
        <time>2020-05-31T08:10:42.000Z</time>
      </trkpt>
      <trkpt lat="42.9023" lon="0.78749">
        <ele>1453.62</ele>
        <time>2020-05-31T08:10:50.000Z</time>
      </trkpt>
      <trkpt lat="42.90226" lon="0.78737">
        <ele>1453.36</ele>
        <time>2020-05-31T08:10:58.000Z</time>
      </trkpt>
      <trkpt lat="42.90222" lon="0.78724">
        <ele>1453.09</ele>
        <time>2020-05-31T08:11:07.000Z</time>
      </trkpt>
      <trkpt lat="42.90217" lon="0.78713">
        <ele>1452.45</ele>
        <time>2020-05-31T08:11:17.000Z</time>
      </trkpt>
      <trkpt lat="42.9021" lon="0.78704">
        <ele>1451.58</ele>
        <time>2020-05-31T08:11:28.000Z</time>
      </trkpt>
      <trkpt lat="42.90201" lon="0.78697">
        <ele>1450.49</ele>
        <time>2020-05-31T08:11:37.000Z</time>
      </trkpt>
      <trkpt lat="42.90192" lon="0.78692">
        <ele>1449.2</ele>
        <time>2020-05-31T08:11:46.000Z</time>
      </trkpt>
      <trkpt lat="42.90184" lon="0.78685">
        <ele>1447.8</ele>
        <time>2020-05-31T08:11:55.000Z</time>
      </trkpt>
      <trkpt lat="42.90176" lon="0.78678">
        <ele>1446.37</ele>
        <time>2020-05-31T08:12:04.000Z</time>
      </trkpt>
      <trkpt lat="42.9017" lon="0.78669">
        <ele>1444.82</ele>
        <time>2020-05-31T08:12:14.000Z</time>
      </trkpt>
      <trkpt lat="42.90164" lon="0.78659">
        <ele>1444.11</ele>
        <time>2020-05-31T08:12:20.000Z</time>
      </trkpt>
      <trkpt lat="42.90156" lon="0.78652">
        <ele>1443.71</ele>
        <time>2020-05-31T08:12:29.000Z</time>
      </trkpt>
      <trkpt lat="42.90147" lon="0.78646">
        <ele>1442.66</ele>
        <time>2020-05-31T08:12:38.000Z</time>
      </trkpt>
      <trkpt lat="42.90139" lon="0.78636">
        <ele>1441.1</ele>
        <time>2020-05-31T08:12:46.000Z</time>
      </trkpt>
      <trkpt lat="42.90132" lon="0.78628">
        <ele>1439.61</ele>
        <time>2020-05-31T08:12:57.000Z</time>
      </trkpt>
      <trkpt lat="42.90128" lon="0.78617">
        <ele>1437.8</ele>
        <time>2020-05-31T08:13:05.000Z</time>
      </trkpt>
      <trkpt lat="42.90126" lon="0.78604">
        <ele>1435.94</ele>
        <time>2020-05-31T08:13:18.000Z</time>
      </trkpt>
      <trkpt lat="42.90122" lon="0.78593">
        <ele>1434.8</ele>
        <time>2020-05-31T08:13:29.000Z</time>
      </trkpt>
      <trkpt lat="42.90119" lon="0.7858">
        <ele>1433.93</ele>
        <time>2020-05-31T08:13:37.000Z</time>
      </trkpt>
      <trkpt lat="42.90112" lon="0.78573">
        <ele>1432.61</ele>
        <time>2020-05-31T08:13:49.000Z</time>
      </trkpt>
      <trkpt lat="42.90112" lon="0.7856">
        <ele>1432.31</ele>
        <time>2020-05-31T08:13:58.000Z</time>
      </trkpt>
      <trkpt lat="42.90106" lon="0.78549">
        <ele>1431.28</ele>
        <time>2020-05-31T08:14:08.000Z</time>
      </trkpt>
      <trkpt lat="42.90103" lon="0.78537">
        <ele>1429.05</ele>
        <time>2020-05-31T08:14:17.000Z</time>
      </trkpt>
      <trkpt lat="42.90097" lon="0.78526">
        <ele>1426.81</ele>
        <time>2020-05-31T08:14:27.000Z</time>
      </trkpt>
      <trkpt lat="42.90092" lon="0.78514">
        <ele>1425.18</ele>
        <time>2020-05-31T08:14:36.000Z</time>
      </trkpt>
      <trkpt lat="42.90087" lon="0.78503">
        <ele>1424.28</ele>
        <time>2020-05-31T08:14:41.000Z</time>
      </trkpt>
      <trkpt lat="42.90084" lon="0.78491">
        <ele>1423.1</ele>
        <time>2020-05-31T08:14:48.000Z</time>
      </trkpt>
      <trkpt lat="42.90079" lon="0.78502">
        <ele>1420.57</ele>
        <time>2020-05-31T08:15:15.000Z</time>
      </trkpt>
      <trkpt lat="42.90076" lon="0.78514">
        <ele>1418.48</ele>
        <time>2020-05-31T08:15:26.000Z</time>
      </trkpt>
      <trkpt lat="42.90073" lon="0.78527">
        <ele>1415.81</ele>
        <time>2020-05-31T08:15:37.000Z</time>
      </trkpt>
      <trkpt lat="42.90068" lon="0.78537">
        <ele>1413.8</ele>
        <time>2020-05-31T08:15:45.000Z</time>
      </trkpt>
      <trkpt lat="42.90063" lon="0.78547">
        <ele>1411.51</ele>
        <time>2020-05-31T08:15:55.000Z</time>
      </trkpt>
      <trkpt lat="42.90055" lon="0.78555">
        <ele>1409.57</ele>
        <time>2020-05-31T08:16:04.000Z</time>
      </trkpt>
      <trkpt lat="42.90048" lon="0.78565">
        <ele>1408.21</ele>
        <time>2020-05-31T08:16:11.000Z</time>
      </trkpt>
      <trkpt lat="42.90043" lon="0.78575">
        <ele>1407.17</ele>
        <time>2020-05-31T08:16:20.000Z</time>
      </trkpt>
      <trkpt lat="42.90034" lon="0.78581">
        <ele>1406.35</ele>
        <time>2020-05-31T08:16:31.000Z</time>
      </trkpt>
      <trkpt lat="42.90026" lon="0.78587">
        <ele>1406.1</ele>
        <time>2020-05-31T08:16:39.000Z</time>
      </trkpt>
      <trkpt lat="42.90018" lon="0.78594">
        <ele>1406.04</ele>
        <time>2020-05-31T08:16:48.000Z</time>
      </trkpt>
      <trkpt lat="42.90013" lon="0.78605">
        <ele>1406.39</ele>
        <time>2020-05-31T08:16:57.000Z</time>
      </trkpt>
      <trkpt lat="42.90008" lon="0.78616">
        <ele>1406.62</ele>
        <time>2020-05-31T08:17:07.000Z</time>
      </trkpt>
      <trkpt lat="42.90002" lon="0.78627">
        <ele>1406.02</ele>
        <time>2020-05-31T08:17:16.000Z</time>
      </trkpt>
      <trkpt lat="42.89995" lon="0.78634">
        <ele>1405.23</ele>
        <time>2020-05-31T08:17:24.000Z</time>
      </trkpt>
      <trkpt lat="42.89986" lon="0.78641">
        <ele>1404.83</ele>
        <time>2020-05-31T08:17:32.000Z</time>
      </trkpt>
      <trkpt lat="42.89977" lon="0.78646">
        <ele>1404.41</ele>
        <time>2020-05-31T08:17:41.000Z</time>
      </trkpt>
      <trkpt lat="42.89968" lon="0.78643">
        <ele>1403.47</ele>
        <time>2020-05-31T08:17:49.000Z</time>
      </trkpt>
      <trkpt lat="42.89959" lon="0.78639">
        <ele>1402.23</ele>
        <time>2020-05-31T08:17:55.000Z</time>
      </trkpt>
      <trkpt lat="42.8995" lon="0.78632">
        <ele>1399.92</ele>
        <time>2020-05-31T08:18:05.000Z</time>
      </trkpt>
      <trkpt lat="42.89941" lon="0.78631">
        <ele>1397.19</ele>
        <time>2020-05-31T08:18:19.000Z</time>
      </trkpt>
      <trkpt lat="42.89936" lon="0.78642">
        <ele>1388.97</ele>
        <time>2020-05-31T08:18:54.000Z</time>
      </trkpt>
      <trkpt lat="42.89931" lon="0.78653">
        <ele>1385.45</ele>
        <time>2020-05-31T08:19:08.000Z</time>
      </trkpt>
      <trkpt lat="42.89927" lon="0.78665">
        <ele>1383.44</ele>
        <time>2020-05-31T08:19:20.000Z</time>
      </trkpt>
      <trkpt lat="42.89929" lon="0.78678">
        <ele>1382.69</ele>
        <time>2020-05-31T08:19:38.000Z</time>
      </trkpt>
      <trkpt lat="42.89926" lon="0.7869">
        <ele>1382.53</ele>
        <time>2020-05-31T08:19:46.000Z</time>
      </trkpt>
      <trkpt lat="42.89923" lon="0.78702">
        <ele>1382.14</ele>
        <time>2020-05-31T08:19:54.000Z</time>
      </trkpt>
      <trkpt lat="42.89919" lon="0.78714">
        <ele>1381.98</ele>
        <time>2020-05-31T08:20:01.000Z</time>
      </trkpt>
      <trkpt lat="42.89915" lon="0.78726">
        <ele>1382.15</ele>
        <time>2020-05-31T08:20:09.000Z</time>
      </trkpt>
      <trkpt lat="42.89913" lon="0.7874">
        <ele>1382.38</ele>
        <time>2020-05-31T08:20:17.000Z</time>
      </trkpt>
      <trkpt lat="42.89912" lon="0.78753">
        <ele>1382.53</ele>
        <time>2020-05-31T08:20:24.000Z</time>
      </trkpt>
      <trkpt lat="42.89913" lon="0.78767">
        <ele>1382.82</ele>
        <time>2020-05-31T08:20:34.000Z</time>
      </trkpt>
      <trkpt lat="42.89909" lon="0.78778">
        <ele>1382.96</ele>
        <time>2020-05-31T08:20:39.000Z</time>
      </trkpt>
      <trkpt lat="42.89906" lon="0.78791">
        <ele>1383.13</ele>
        <time>2020-05-31T08:20:48.000Z</time>
      </trkpt>
      <trkpt lat="42.89901" lon="0.78802">
        <ele>1383.16</ele>
        <time>2020-05-31T08:20:55.000Z</time>
      </trkpt>
      <trkpt lat="42.89898" lon="0.78813">
        <ele>1383.03</ele>
        <time>2020-05-31T08:21:03.000Z</time>
      </trkpt>
      <trkpt lat="42.89892" lon="0.78823">
        <ele>1382.9</ele>
        <time>2020-05-31T08:21:11.000Z</time>
      </trkpt>
      <trkpt lat="42.89888" lon="0.78836">
        <ele>1382.48</ele>
        <time>2020-05-31T08:21:19.000Z</time>
      </trkpt>
      <trkpt lat="42.89883" lon="0.78848">
        <ele>1381.84</ele>
        <time>2020-05-31T08:21:27.000Z</time>
      </trkpt>
      <trkpt lat="42.89883" lon="0.7886">
        <ele>1381.09</ele>
        <time>2020-05-31T08:21:34.000Z</time>
      </trkpt>
      <trkpt lat="42.89876" lon="0.78869">
        <ele>1380.36</ele>
        <time>2020-05-31T08:21:41.000Z</time>
      </trkpt>
      <trkpt lat="42.89875" lon="0.78883">
        <ele>1380.33</ele>
        <time>2020-05-31T08:21:51.000Z</time>
      </trkpt>
      <trkpt lat="42.89872" lon="0.78894">
        <ele>1380.69</ele>
        <time>2020-05-31T08:22:01.000Z</time>
      </trkpt>
      <trkpt lat="42.89874" lon="0.78907">
        <ele>1380.65</ele>
        <time>2020-05-31T08:22:10.000Z</time>
      </trkpt>
      <trkpt lat="42.89871" lon="0.78919">
        <ele>1379.97</ele>
        <time>2020-05-31T08:22:25.000Z</time>
      </trkpt>
      <trkpt lat="42.89866" lon="0.7893">
        <ele>1379.68</ele>
        <time>2020-05-31T08:22:30.000Z</time>
      </trkpt>
      <trkpt lat="42.8986" lon="0.7894">
        <ele>1379.38</ele>
        <time>2020-05-31T08:22:35.000Z</time>
      </trkpt>
      <trkpt lat="42.89854" lon="0.7895">
        <ele>1379.11</ele>
        <time>2020-05-31T08:22:45.000Z</time>
      </trkpt>
      <trkpt lat="42.89846" lon="0.78958">
        <ele>1378.85</ele>
        <time>2020-05-31T08:22:53.000Z</time>
      </trkpt>
      <trkpt lat="42.89839" lon="0.78967">
        <ele>1378.76</ele>
        <time>2020-05-31T08:23:00.000Z</time>
      </trkpt>
      <trkpt lat="42.8983" lon="0.78973">
        <ele>1378.54</ele>
        <time>2020-05-31T08:23:06.000Z</time>
      </trkpt>
      <trkpt lat="42.89825" lon="0.78983">
        <ele>1378.4</ele>
        <time>2020-05-31T08:23:14.000Z</time>
      </trkpt>
      <trkpt lat="42.89818" lon="0.78991">
        <ele>1377.46</ele>
        <time>2020-05-31T08:23:24.000Z</time>
      </trkpt>
      <trkpt lat="42.89814" lon="0.79002">
        <ele>1377.05</ele>
        <time>2020-05-31T08:23:30.000Z</time>
      </trkpt>
      <trkpt lat="42.89808" lon="0.79012">
        <ele>1377.06</ele>
        <time>2020-05-31T08:23:39.000Z</time>
      </trkpt>
      <trkpt lat="42.898" lon="0.7902">
        <ele>1377.44</ele>
        <time>2020-05-31T08:23:45.000Z</time>
      </trkpt>
      <trkpt lat="42.89794" lon="0.7903">
        <ele>1377.94</ele>
        <time>2020-05-31T08:23:54.000Z</time>
      </trkpt>
      <trkpt lat="42.89788" lon="0.7904">
        <ele>1377.78</ele>
        <time>2020-05-31T08:24:09.000Z</time>
      </trkpt>
      <trkpt lat="42.89781" lon="0.79049">
        <ele>1377.15</ele>
        <time>2020-05-31T08:24:16.000Z</time>
      </trkpt>
      <trkpt lat="42.89776" lon="0.7906">
        <ele>1375.65</ele>
        <time>2020-05-31T08:24:27.000Z</time>
      </trkpt>
      <trkpt lat="42.89774" lon="0.79073">
        <ele>1374.47</ele>
        <time>2020-05-31T08:24:44.000Z</time>
      </trkpt>
      <trkpt lat="42.89772" lon="0.79085">
        <ele>1373.81</ele>
        <time>2020-05-31T08:24:51.000Z</time>
      </trkpt>
      <trkpt lat="42.89768" lon="0.79098">
        <ele>1373.25</ele>
        <time>2020-05-31T08:25:00.000Z</time>
      </trkpt>
      <trkpt lat="42.89765" lon="0.7911">
        <ele>1372.85</ele>
        <time>2020-05-31T08:25:09.000Z</time>
      </trkpt>
      <trkpt lat="42.89761" lon="0.79123">
        <ele>1372.29</ele>
        <time>2020-05-31T08:25:16.000Z</time>
      </trkpt>
      <trkpt lat="42.89758" lon="0.79135">
        <ele>1371.93</ele>
        <time>2020-05-31T08:25:24.000Z</time>
      </trkpt>
      <trkpt lat="42.89752" lon="0.79144">
        <ele>1371.7</ele>
        <time>2020-05-31T08:25:30.000Z</time>
      </trkpt>
      <trkpt lat="42.89748" lon="0.79155">
        <ele>1371.62</ele>
        <time>2020-05-31T08:25:41.000Z</time>
      </trkpt>
      <trkpt lat="42.89743" lon="0.79166">
        <ele>1371.89</ele>
        <time>2020-05-31T08:25:48.000Z</time>
      </trkpt>
      <trkpt lat="42.89736" lon="0.79175">
        <ele>1371.67</ele>
        <time>2020-05-31T08:25:55.000Z</time>
      </trkpt>
      <trkpt lat="42.89732" lon="0.79188">
        <ele>1371.22</ele>
        <time>2020-05-31T08:26:03.000Z</time>
      </trkpt>
      <trkpt lat="42.89728" lon="0.792">
        <ele>1370.79</ele>
        <time>2020-05-31T08:26:10.000Z</time>
      </trkpt>
      <trkpt lat="42.89722" lon="0.7921">
        <ele>1371.11</ele>
        <time>2020-05-31T08:26:23.000Z</time>
      </trkpt>
      <trkpt lat="42.89717" lon="0.79221">
        <ele>1370.8</ele>
        <time>2020-05-31T08:26:30.000Z</time>
      </trkpt>
      <trkpt lat="42.89716" lon="0.79234">
        <ele>1370.38</ele>
        <time>2020-05-31T08:26:52.000Z</time>
      </trkpt>
      <trkpt lat="42.89711" lon="0.79246">
        <ele>1370.73</ele>
        <time>2020-05-31T08:27:01.000Z</time>
      </trkpt>
      <trkpt lat="42.89704" lon="0.79255">
        <ele>1371.01</ele>
        <time>2020-05-31T08:27:08.000Z</time>
      </trkpt>
      <trkpt lat="42.89697" lon="0.79264">
        <ele>1371.49</ele>
        <time>2020-05-31T08:27:13.000Z</time>
      </trkpt>
      <trkpt lat="42.89697" lon="0.79278">
        <ele>1373.03</ele>
        <time>2020-05-31T08:27:28.000Z</time>
      </trkpt>
      <trkpt lat="42.89698" lon="0.79291">
        <ele>1373.92</ele>
        <time>2020-05-31T08:27:39.000Z</time>
      </trkpt>
      <trkpt lat="42.89696" lon="0.79304">
        <ele>1375.25</ele>
        <time>2020-05-31T08:27:48.000Z</time>
      </trkpt>
      <trkpt lat="42.89697" lon="0.79317">
        <ele>1376.1</ele>
        <time>2020-05-31T08:27:57.000Z</time>
      </trkpt>
      <trkpt lat="42.89693" lon="0.79329">
        <ele>1376.97</ele>
        <time>2020-05-31T08:28:08.000Z</time>
      </trkpt>
      <trkpt lat="42.8969" lon="0.79341">
        <ele>1377.73</ele>
        <time>2020-05-31T08:28:16.000Z</time>
      </trkpt>
      <trkpt lat="42.89689" lon="0.79354">
        <ele>1378.46</ele>
        <time>2020-05-31T08:28:26.000Z</time>
      </trkpt>
      <trkpt lat="42.89685" lon="0.79366">
        <ele>1378.71</ele>
        <time>2020-05-31T08:28:32.000Z</time>
      </trkpt>
      <trkpt lat="42.8968" lon="0.79377">
        <ele>1379.02</ele>
        <time>2020-05-31T08:28:40.000Z</time>
      </trkpt>
      <trkpt lat="42.89679" lon="0.79389">
        <ele>1379.57</ele>
        <time>2020-05-31T08:28:46.000Z</time>
      </trkpt>
      <trkpt lat="42.89675" lon="0.79402">
        <ele>1381.14</ele>
        <time>2020-05-31T08:28:58.000Z</time>
      </trkpt>
      <trkpt lat="42.8967" lon="0.79414">
        <ele>1381.04</ele>
        <time>2020-05-31T08:29:05.000Z</time>
      </trkpt>
      <trkpt lat="42.8967" lon="0.79426">
        <ele>1381.58</ele>
        <time>2020-05-31T08:29:16.000Z</time>
      </trkpt>
      <trkpt lat="42.89665" lon="0.79437">
        <ele>1381.94</ele>
        <time>2020-05-31T08:29:22.000Z</time>
      </trkpt>
      <trkpt lat="42.89657" lon="0.79442">
        <ele>1381.97</ele>
        <time>2020-05-31T08:29:32.000Z</time>
      </trkpt>
      <trkpt lat="42.89653" lon="0.79454">
        <ele>1380.34</ele>
        <time>2020-05-31T08:29:49.000Z</time>
      </trkpt>
      <trkpt lat="42.89647" lon="0.79465">
        <ele>1379.37</ele>
        <time>2020-05-31T08:30:00.000Z</time>
      </trkpt>
      <trkpt lat="42.89643" lon="0.79476">
        <ele>1379.29</ele>
        <time>2020-05-31T08:30:12.000Z</time>
      </trkpt>
      <trkpt lat="42.89636" lon="0.79485">
        <ele>1379.92</ele>
        <time>2020-05-31T08:30:33.000Z</time>
      </trkpt>
      <trkpt lat="42.89627" lon="0.79484">
        <ele>1379.68</ele>
        <time>2020-05-31T08:30:45.000Z</time>
      </trkpt>
      <trkpt lat="42.89617" lon="0.7948">
        <ele>1379.1</ele>
        <time>2020-05-31T08:30:53.000Z</time>
      </trkpt>
      <trkpt lat="42.89607" lon="0.79475">
        <ele>1378.29</ele>
        <time>2020-05-31T08:31:01.000Z</time>
      </trkpt>
      <trkpt lat="42.89599" lon="0.79467">
        <ele>1377.44</ele>
        <time>2020-05-31T08:31:09.000Z</time>
      </trkpt>
      <trkpt lat="42.8959" lon="0.79461">
        <ele>1376.17</ele>
        <time>2020-05-31T08:31:17.000Z</time>
      </trkpt>
      <trkpt lat="42.89582" lon="0.79455">
        <ele>1375.47</ele>
        <time>2020-05-31T08:31:23.000Z</time>
      </trkpt>
      <trkpt lat="42.89576" lon="0.79445">
        <ele>1374.76</ele>
        <time>2020-05-31T08:31:33.000Z</time>
      </trkpt>
      <trkpt lat="42.89569" lon="0.79436">
        <ele>1374.42</ele>
        <time>2020-05-31T08:31:41.000Z</time>
      </trkpt>
      <trkpt lat="42.89565" lon="0.79425">
        <ele>1373.94</ele>
        <time>2020-05-31T08:31:50.000Z</time>
      </trkpt>
      <trkpt lat="42.89559" lon="0.79414">
        <ele>1373.21</ele>
        <time>2020-05-31T08:31:59.000Z</time>
      </trkpt>
      <trkpt lat="42.89551" lon="0.79405">
        <ele>1372.37</ele>
        <time>2020-05-31T08:32:07.000Z</time>
      </trkpt>
      <trkpt lat="42.89543" lon="0.79397">
        <ele>1371.45</ele>
        <time>2020-05-31T08:32:16.000Z</time>
      </trkpt>
      <trkpt lat="42.89535" lon="0.79391">
        <ele>1370.99</ele>
        <time>2020-05-31T08:32:25.000Z</time>
      </trkpt>
      <trkpt lat="42.89529" lon="0.79381">
        <ele>1370.94</ele>
        <time>2020-05-31T08:32:32.000Z</time>
      </trkpt>
      <trkpt lat="42.89519" lon="0.79377">
        <ele>1370.91</ele>
        <time>2020-05-31T08:32:41.000Z</time>
      </trkpt>
      <trkpt lat="42.89509" lon="0.79375">
        <ele>1371.59</ele>
        <time>2020-05-31T08:32:49.000Z</time>
      </trkpt>
      <trkpt lat="42.895" lon="0.79373">
        <ele>1372.47</ele>
        <time>2020-05-31T08:32:56.000Z</time>
      </trkpt>
      <trkpt lat="42.89492" lon="0.79367">
        <ele>1373.39</ele>
        <time>2020-05-31T08:33:04.000Z</time>
      </trkpt>
      <trkpt lat="42.89484" lon="0.79362">
        <ele>1374.3</ele>
        <time>2020-05-31T08:33:13.000Z</time>
      </trkpt>
      <trkpt lat="42.89475" lon="0.79358">
        <ele>1374.62</ele>
        <time>2020-05-31T08:33:21.000Z</time>
      </trkpt>
      <trkpt lat="42.89465" lon="0.79355">
        <ele>1374.71</ele>
        <time>2020-05-31T08:33:29.000Z</time>
      </trkpt>
      <trkpt lat="42.89458" lon="0.79349">
        <ele>1375.26</ele>
        <time>2020-05-31T08:33:37.000Z</time>
      </trkpt>
      <trkpt lat="42.8945" lon="0.79341">
        <ele>1376.31</ele>
        <time>2020-05-31T08:33:46.000Z</time>
      </trkpt>
      <trkpt lat="42.89445" lon="0.79329">
        <ele>1377.26</ele>
        <time>2020-05-31T08:33:54.000Z</time>
      </trkpt>
      <trkpt lat="42.89438" lon="0.79319">
        <ele>1377.54</ele>
        <time>2020-05-31T08:34:02.000Z</time>
      </trkpt>
      <trkpt lat="42.89435" lon="0.79307">
        <ele>1377.6</ele>
        <time>2020-05-31T08:34:12.000Z</time>
      </trkpt>
      <trkpt lat="42.8943" lon="0.79296">
        <ele>1377.4</ele>
        <time>2020-05-31T08:34:21.000Z</time>
      </trkpt>
      <trkpt lat="42.89422" lon="0.79289">
        <ele>1377.14</ele>
        <time>2020-05-31T08:34:30.000Z</time>
      </trkpt>
      <trkpt lat="42.89416" lon="0.79279">
        <ele>1376.64</ele>
        <time>2020-05-31T08:34:38.000Z</time>
      </trkpt>
      <trkpt lat="42.89408" lon="0.7927">
        <ele>1375.79</ele>
        <time>2020-05-31T08:34:48.000Z</time>
      </trkpt>
      <trkpt lat="42.894" lon="0.79263">
        <ele>1375.46</ele>
        <time>2020-05-31T08:34:56.000Z</time>
      </trkpt>
      <trkpt lat="42.89391" lon="0.79256">
        <ele>1374.67</ele>
        <time>2020-05-31T08:35:06.000Z</time>
      </trkpt>
      <trkpt lat="42.89381" lon="0.79252">
        <ele>1374.18</ele>
        <time>2020-05-31T08:35:14.000Z</time>
      </trkpt>
      <trkpt lat="42.8937" lon="0.79248">
        <ele>1374.09</ele>
        <time>2020-05-31T08:35:23.000Z</time>
      </trkpt>
      <trkpt lat="42.89361" lon="0.79243">
        <ele>1374.09</ele>
        <time>2020-05-31T08:35:31.000Z</time>
      </trkpt>
      <trkpt lat="42.89354" lon="0.79235">
        <ele>1374.14</ele>
        <time>2020-05-31T08:35:39.000Z</time>
      </trkpt>
      <trkpt lat="42.89346" lon="0.79226">
        <ele>1374.16</ele>
        <time>2020-05-31T08:35:47.000Z</time>
      </trkpt>
      <trkpt lat="42.8934" lon="0.79217">
        <ele>1373.85</ele>
        <time>2020-05-31T08:35:54.000Z</time>
      </trkpt>
      <trkpt lat="42.89332" lon="0.79209">
        <ele>1373.03</ele>
        <time>2020-05-31T08:36:03.000Z</time>
      </trkpt>
      <trkpt lat="42.89324" lon="0.79202">
        <ele>1371.97</ele>
        <time>2020-05-31T08:36:12.000Z</time>
      </trkpt>
      <trkpt lat="42.89315" lon="0.79197">
        <ele>1371.15</ele>
        <time>2020-05-31T08:36:20.000Z</time>
      </trkpt>
      <trkpt lat="42.89307" lon="0.79194">
        <ele>1370.79</ele>
        <time>2020-05-31T08:36:27.000Z</time>
      </trkpt>
      <trkpt lat="42.89297" lon="0.79191">
        <ele>1370.88</ele>
        <time>2020-05-31T08:36:34.000Z</time>
      </trkpt>
      <trkpt lat="42.89288" lon="0.79186">
        <ele>1371.54</ele>
        <time>2020-05-31T08:36:43.000Z</time>
      </trkpt>
      <trkpt lat="42.89279" lon="0.79184">
        <ele>1372.18</ele>
        <time>2020-05-31T08:36:51.000Z</time>
      </trkpt>
      <trkpt lat="42.89271" lon="0.79176">
        <ele>1372.89</ele>
        <time>2020-05-31T08:36:59.000Z</time>
      </trkpt>
      <trkpt lat="42.89264" lon="0.79168">
        <ele>1373.61</ele>
        <time>2020-05-31T08:37:08.000Z</time>
      </trkpt>
      <trkpt lat="42.89257" lon="0.79157">
        <ele>1374.33</ele>
        <time>2020-05-31T08:37:17.000Z</time>
      </trkpt>
      <trkpt lat="42.89252" lon="0.79146">
        <ele>1374.87</ele>
        <time>2020-05-31T08:37:24.000Z</time>
      </trkpt>
      <trkpt lat="42.89244" lon="0.79139">
        <ele>1375.14</ele>
        <time>2020-05-31T08:37:32.000Z</time>
      </trkpt>
      <trkpt lat="42.89236" lon="0.79133">
        <ele>1375.55</ele>
        <time>2020-05-31T08:37:40.000Z</time>
      </trkpt>
      <trkpt lat="42.89227" lon="0.79127">
        <ele>1376.33</ele>
        <time>2020-05-31T08:37:48.000Z</time>
      </trkpt>
      <trkpt lat="42.89219" lon="0.79119">
        <ele>1377.63</ele>
        <time>2020-05-31T08:37:57.000Z</time>
      </trkpt>
      <trkpt lat="42.8921" lon="0.79113">
        <ele>1378.69</ele>
        <time>2020-05-31T08:38:04.000Z</time>
      </trkpt>
      <trkpt lat="42.89203" lon="0.79103">
        <ele>1379.59</ele>
        <time>2020-05-31T08:38:11.000Z</time>
      </trkpt>
      <trkpt lat="42.89196" lon="0.79095">
        <ele>1381.25</ele>
        <time>2020-05-31T08:38:20.000Z</time>
      </trkpt>
      <trkpt lat="42.89188" lon="0.79085">
        <ele>1382.75</ele>
        <time>2020-05-31T08:38:28.000Z</time>
      </trkpt>
      <trkpt lat="42.89183" lon="0.79073">
        <ele>1384.49</ele>
        <time>2020-05-31T08:38:37.000Z</time>
      </trkpt>
      <trkpt lat="42.89176" lon="0.79062">
        <ele>1385.71</ele>
        <time>2020-05-31T08:38:46.000Z</time>
      </trkpt>
      <trkpt lat="42.89171" lon="0.79052">
        <ele>1386.52</ele>
        <time>2020-05-31T08:38:55.000Z</time>
      </trkpt>
      <trkpt lat="42.89166" lon="0.79042">
        <ele>1386.91</ele>
        <time>2020-05-31T08:39:02.000Z</time>
      </trkpt>
      <trkpt lat="42.89162" lon="0.7903">
        <ele>1386.97</ele>
        <time>2020-05-31T08:39:08.000Z</time>
      </trkpt>
      <trkpt lat="42.89158" lon="0.79019">
        <ele>1386.66</ele>
        <time>2020-05-31T08:39:15.000Z</time>
      </trkpt>
      <trkpt lat="42.89153" lon="0.79008">
        <ele>1386.56</ele>
        <time>2020-05-31T08:39:25.000Z</time>
      </trkpt>
      <trkpt lat="42.89145" lon="0.78999">
        <ele>1386.99</ele>
        <time>2020-05-31T08:39:35.000Z</time>
      </trkpt>
      <trkpt lat="42.89139" lon="0.78988">
        <ele>1387.29</ele>
        <time>2020-05-31T08:39:43.000Z</time>
      </trkpt>
      <trkpt lat="42.89133" lon="0.78978">
        <ele>1387.37</ele>
        <time>2020-05-31T08:39:51.000Z</time>
      </trkpt>
      <trkpt lat="42.89126" lon="0.7897">
        <ele>1387.18</ele>
        <time>2020-05-31T08:39:58.000Z</time>
      </trkpt>
      <trkpt lat="42.89117" lon="0.78963">
        <ele>1387.03</ele>
        <time>2020-05-31T08:40:06.000Z</time>
      </trkpt>
      <trkpt lat="42.8911" lon="0.78956">
        <ele>1387.19</ele>
        <time>2020-05-31T08:40:13.000Z</time>
      </trkpt>
      <trkpt lat="42.89102" lon="0.78946">
        <ele>1387.5</ele>
        <time>2020-05-31T08:40:21.000Z</time>
      </trkpt>
      <trkpt lat="42.89094" lon="0.78942">
        <ele>1387.92</ele>
        <time>2020-05-31T08:40:29.000Z</time>
      </trkpt>
      <trkpt lat="42.89084" lon="0.78938">
        <ele>1388.38</ele>
        <time>2020-05-31T08:40:37.000Z</time>
      </trkpt>
      <trkpt lat="42.89075" lon="0.78936">
        <ele>1388.83</ele>
        <time>2020-05-31T08:40:46.000Z</time>
      </trkpt>
      <trkpt lat="42.89065" lon="0.78935">
        <ele>1389.27</ele>
        <time>2020-05-31T08:40:55.000Z</time>
      </trkpt>
      <trkpt lat="42.89056" lon="0.78931">
        <ele>1389.78</ele>
        <time>2020-05-31T08:41:04.000Z</time>
      </trkpt>
      <trkpt lat="42.89049" lon="0.78923">
        <ele>1390.38</ele>
        <time>2020-05-31T08:41:13.000Z</time>
      </trkpt>
      <trkpt lat="42.89042" lon="0.78916">
        <ele>1391.1</ele>
        <time>2020-05-31T08:41:21.000Z</time>
      </trkpt>
      <trkpt lat="42.89034" lon="0.78907">
        <ele>1392.1</ele>
        <time>2020-05-31T08:41:29.000Z</time>
      </trkpt>
      <trkpt lat="42.89026" lon="0.78898">
        <ele>1393.44</ele>
        <time>2020-05-31T08:41:38.000Z</time>
      </trkpt>
      <trkpt lat="42.89018" lon="0.78892">
        <ele>1394.24</ele>
        <time>2020-05-31T08:41:46.000Z</time>
      </trkpt>
      <trkpt lat="42.8901" lon="0.78885">
        <ele>1394.71</ele>
        <time>2020-05-31T08:41:54.000Z</time>
      </trkpt>
      <trkpt lat="42.89002" lon="0.78878">
        <ele>1395.03</ele>
        <time>2020-05-31T08:42:02.000Z</time>
      </trkpt>
      <trkpt lat="42.88994" lon="0.78871">
        <ele>1395.29</ele>
        <time>2020-05-31T08:42:10.000Z</time>
      </trkpt>
      <trkpt lat="42.88986" lon="0.78864">
        <ele>1395.57</ele>
        <time>2020-05-31T08:42:18.000Z</time>
      </trkpt>
      <trkpt lat="42.88978" lon="0.78856">
        <ele>1395.64</ele>
        <time>2020-05-31T08:42:26.000Z</time>
      </trkpt>
      <trkpt lat="42.88971" lon="0.78848">
        <ele>1395.63</ele>
        <time>2020-05-31T08:42:33.000Z</time>
      </trkpt>
      <trkpt lat="42.88963" lon="0.78841">
        <ele>1395.88</ele>
        <time>2020-05-31T08:42:41.000Z</time>
      </trkpt>
      <trkpt lat="42.88954" lon="0.78835">
        <ele>1396.31</ele>
        <time>2020-05-31T08:42:49.000Z</time>
      </trkpt>
      <trkpt lat="42.88946" lon="0.78827">
        <ele>1396.6</ele>
        <time>2020-05-31T08:42:57.000Z</time>
      </trkpt>
      <trkpt lat="42.88937" lon="0.78821">
        <ele>1396.62</ele>
        <time>2020-05-31T08:43:05.000Z</time>
      </trkpt>
      <trkpt lat="42.88929" lon="0.78813">
        <ele>1396.54</ele>
        <time>2020-05-31T08:43:13.000Z</time>
      </trkpt>
      <trkpt lat="42.8892" lon="0.78808">
        <ele>1396.73</ele>
        <time>2020-05-31T08:43:21.000Z</time>
      </trkpt>
      <trkpt lat="42.88911" lon="0.788">
        <ele>1397.26</ele>
        <time>2020-05-31T08:43:29.000Z</time>
      </trkpt>
      <trkpt lat="42.88903" lon="0.78793">
        <ele>1397.64</ele>
        <time>2020-05-31T08:43:37.000Z</time>
      </trkpt>
      <trkpt lat="42.88896" lon="0.78785">
        <ele>1397.86</ele>
        <time>2020-05-31T08:43:45.000Z</time>
      </trkpt>
      <trkpt lat="42.8889" lon="0.78774">
        <ele>1397.89</ele>
        <time>2020-05-31T08:43:54.000Z</time>
      </trkpt>
      <trkpt lat="42.88892" lon="0.78762">
        <ele>1398.05</ele>
        <time>2020-05-31T08:45:09.000Z</time>
      </trkpt>
      <trkpt lat="42.889" lon="0.78757">
        <ele>1399.88</ele>
        <time>2020-05-31T08:45:43.000Z</time>
      </trkpt>
      <trkpt lat="42.88909" lon="0.78758">
        <ele>1401.25</ele>
        <time>2020-05-31T08:45:55.000Z</time>
      </trkpt>
      <trkpt lat="42.88918" lon="0.78754">
        <ele>1402.64</ele>
        <time>2020-05-31T08:46:08.000Z</time>
      </trkpt>
      <trkpt lat="42.88926" lon="0.7875">
        <ele>1405.04</ele>
        <time>2020-05-31T08:46:22.000Z</time>
      </trkpt>
      <trkpt lat="42.88935" lon="0.78744">
        <ele>1407.1</ele>
        <time>2020-05-31T08:46:32.000Z</time>
      </trkpt>
      <trkpt lat="42.88942" lon="0.78736">
        <ele>1409.38</ele>
        <time>2020-05-31T08:46:44.000Z</time>
      </trkpt>
      <trkpt lat="42.88951" lon="0.78734">
        <ele>1412.26</ele>
        <time>2020-05-31T08:47:05.000Z</time>
      </trkpt>
      <trkpt lat="42.8896" lon="0.7873">
        <ele>1414.66</ele>
        <time>2020-05-31T08:47:16.000Z</time>
      </trkpt>
      <trkpt lat="42.88969" lon="0.78724">
        <ele>1417.07</ele>
        <time>2020-05-31T08:47:27.000Z</time>
      </trkpt>
      <trkpt lat="42.88978" lon="0.78722">
        <ele>1419.74</ele>
        <time>2020-05-31T08:47:42.000Z</time>
      </trkpt>
      <trkpt lat="42.88986" lon="0.78713">
        <ele>1422.02</ele>
        <time>2020-05-31T08:48:00.000Z</time>
      </trkpt>
      <trkpt lat="42.88993" lon="0.78707">
        <ele>1423.73</ele>
        <time>2020-05-31T08:48:17.000Z</time>
      </trkpt>
      <trkpt lat="42.89002" lon="0.78701">
        <ele>1425.55</ele>
        <time>2020-05-31T08:48:32.000Z</time>
      </trkpt>
      <trkpt lat="42.89011" lon="0.78697">
        <ele>1428.44</ele>
        <time>2020-05-31T08:48:45.000Z</time>
      </trkpt>
      <trkpt lat="42.89021" lon="0.78695">
        <ele>1431.72</ele>
        <time>2020-05-31T08:48:59.000Z</time>
      </trkpt>
      <trkpt lat="42.89027" lon="0.78686">
        <ele>1436.53</ele>
        <time>2020-05-31T08:49:16.000Z</time>
      </trkpt>
      <trkpt lat="42.89033" lon="0.78676">
        <ele>1440.72</ele>
        <time>2020-05-31T08:49:30.000Z</time>
      </trkpt>
      <trkpt lat="42.89041" lon="0.78671">
        <ele>1445.05</ele>
        <time>2020-05-31T08:49:45.000Z</time>
      </trkpt>
      <trkpt lat="42.89034" lon="0.7868">
        <ele>1443.54</ele>
        <time>2020-05-31T08:50:57.000Z</time>
      </trkpt>
      <trkpt lat="42.89027" lon="0.78687">
        <ele>1441.74</ele>
        <time>2020-05-31T08:51:15.000Z</time>
      </trkpt>
      <trkpt lat="42.89033" lon="0.78679">
        <ele>1441.48</ele>
        <time>2020-05-31T08:52:11.000Z</time>
      </trkpt>
      <trkpt lat="42.8904" lon="0.78671">
        <ele>1443.68</ele>
        <time>2020-05-31T08:52:25.000Z</time>
      </trkpt>
      <trkpt lat="42.89048" lon="0.78664">
        <ele>1445.36</ele>
        <time>2020-05-31T08:52:36.000Z</time>
      </trkpt>
      <trkpt lat="42.89057" lon="0.78658">
        <ele>1447.33</ele>
        <time>2020-05-31T08:52:53.000Z</time>
      </trkpt>
      <trkpt lat="42.89063" lon="0.78649">
        <ele>1450.25</ele>
        <time>2020-05-31T08:53:07.000Z</time>
      </trkpt>
      <trkpt lat="42.89072" lon="0.78648">
        <ele>1453.81</ele>
        <time>2020-05-31T08:53:26.000Z</time>
      </trkpt>
      <trkpt lat="42.89081" lon="0.78646">
        <ele>1456.03</ele>
        <time>2020-05-31T08:53:42.000Z</time>
      </trkpt>
      <trkpt lat="42.89086" lon="0.78635">
        <ele>1457.71</ele>
        <time>2020-05-31T08:54:05.000Z</time>
      </trkpt>
      <trkpt lat="42.89091" lon="0.78624">
        <ele>1458.95</ele>
        <time>2020-05-31T08:54:18.000Z</time>
      </trkpt>
      <trkpt lat="42.89094" lon="0.78612">
        <ele>1460.99</ele>
        <time>2020-05-31T08:54:37.000Z</time>
      </trkpt>
      <trkpt lat="42.89096" lon="0.786">
        <ele>1464.19</ele>
        <time>2020-05-31T08:54:52.000Z</time>
      </trkpt>
      <trkpt lat="42.89099" lon="0.78588">
        <ele>1466.83</ele>
        <time>2020-05-31T08:55:13.000Z</time>
      </trkpt>
      <trkpt lat="42.89098" lon="0.78576">
        <ele>1467.34</ele>
        <time>2020-05-31T08:55:24.000Z</time>
      </trkpt>
      <trkpt lat="42.89098" lon="0.78562">
        <ele>1468.29</ele>
        <time>2020-05-31T08:55:40.000Z</time>
      </trkpt>
      <trkpt lat="42.89101" lon="0.7855">
        <ele>1469.63</ele>
        <time>2020-05-31T08:55:57.000Z</time>
      </trkpt>
      <trkpt lat="42.89106" lon="0.78539">
        <ele>1471.66</ele>
        <time>2020-05-31T08:56:09.000Z</time>
      </trkpt>
      <trkpt lat="42.89106" lon="0.78526">
        <ele>1474.61</ele>
        <time>2020-05-31T08:56:24.000Z</time>
      </trkpt>
      <trkpt lat="42.89109" lon="0.78514">
        <ele>1477.07</ele>
        <time>2020-05-31T08:56:35.000Z</time>
      </trkpt>
      <trkpt lat="42.8911" lon="0.78502">
        <ele>1480.01</ele>
        <time>2020-05-31T08:56:47.000Z</time>
      </trkpt>
      <trkpt lat="42.89109" lon="0.78489">
        <ele>1483.52</ele>
        <time>2020-05-31T08:57:02.000Z</time>
      </trkpt>
      <trkpt lat="42.8911" lon="0.78477">
        <ele>1486.3</ele>
        <time>2020-05-31T08:57:15.000Z</time>
      </trkpt>
      <trkpt lat="42.89109" lon="0.78464">
        <ele>1488.74</ele>
        <time>2020-05-31T08:57:29.000Z</time>
      </trkpt>
      <trkpt lat="42.89112" lon="0.78452">
        <ele>1492.66</ele>
        <time>2020-05-31T08:57:49.000Z</time>
      </trkpt>
      <trkpt lat="42.89117" lon="0.78442">
        <ele>1495</ele>
        <time>2020-05-31T08:57:58.000Z</time>
      </trkpt>
      <trkpt lat="42.89119" lon="0.78429">
        <ele>1497.57</ele>
        <time>2020-05-31T08:58:10.000Z</time>
      </trkpt>
      <trkpt lat="42.89118" lon="0.78416">
        <ele>1500.32</ele>
        <time>2020-05-31T08:58:21.000Z</time>
      </trkpt>
      <trkpt lat="42.89118" lon="0.78404">
        <ele>1502.89</ele>
        <time>2020-05-31T08:58:31.000Z</time>
      </trkpt>
      <trkpt lat="42.89118" lon="0.78392">
        <ele>1506.47</ele>
        <time>2020-05-31T08:58:46.000Z</time>
      </trkpt>
      <trkpt lat="42.89116" lon="0.7838">
        <ele>1508.36</ele>
        <time>2020-05-31T08:58:56.000Z</time>
      </trkpt>
      <trkpt lat="42.89116" lon="0.78366">
        <ele>1511.18</ele>
        <time>2020-05-31T08:59:12.000Z</time>
      </trkpt>
      <trkpt lat="42.89113" lon="0.78353">
        <ele>1513.07</ele>
        <time>2020-05-31T08:59:23.000Z</time>
      </trkpt>
      <trkpt lat="42.89109" lon="0.78341">
        <ele>1514.88</ele>
        <time>2020-05-31T08:59:34.000Z</time>
      </trkpt>
      <trkpt lat="42.89108" lon="0.78328">
        <ele>1516.57</ele>
        <time>2020-05-31T08:59:46.000Z</time>
      </trkpt>
      <trkpt lat="42.89106" lon="0.78316">
        <ele>1518.48</ele>
        <time>2020-05-31T08:59:58.000Z</time>
      </trkpt>
      <trkpt lat="42.89106" lon="0.78303">
        <ele>1521.29</ele>
        <time>2020-05-31T09:00:14.000Z</time>
      </trkpt>
      <trkpt lat="42.89108" lon="0.7829">
        <ele>1523.57</ele>
        <time>2020-05-31T09:00:26.000Z</time>
      </trkpt>
      <trkpt lat="42.89108" lon="0.78276">
        <ele>1526.76</ele>
        <time>2020-05-31T09:00:44.000Z</time>
      </trkpt>
      <trkpt lat="42.89111" lon="0.78264">
        <ele>1530.37</ele>
        <time>2020-05-31T09:01:01.000Z</time>
      </trkpt>
      <trkpt lat="42.89118" lon="0.78255">
        <ele>1533.64</ele>
        <time>2020-05-31T09:01:17.000Z</time>
      </trkpt>
      <trkpt lat="42.89122" lon="0.78244">
        <ele>1536.86</ele>
        <time>2020-05-31T09:01:32.000Z</time>
      </trkpt>
      <trkpt lat="42.89124" lon="0.78232">
        <ele>1540.04</ele>
        <time>2020-05-31T09:01:48.000Z</time>
      </trkpt>
      <trkpt lat="42.89123" lon="0.7822">
        <ele>1541.69</ele>
        <time>2020-05-31T09:01:59.000Z</time>
      </trkpt>
      <trkpt lat="42.89125" lon="0.78207">
        <ele>1544.17</ele>
        <time>2020-05-31T09:02:16.000Z</time>
      </trkpt>
      <trkpt lat="42.89124" lon="0.78194">
        <ele>1550.07</ele>
        <time>2020-05-31T09:03:08.000Z</time>
      </trkpt>
      <trkpt lat="42.89131" lon="0.78186">
        <ele>1550.57</ele>
        <time>2020-05-31T09:04:28.000Z</time>
      </trkpt>
      <trkpt lat="42.89137" lon="0.78176">
        <ele>1546.63</ele>
        <time>2020-05-31T09:04:58.000Z</time>
      </trkpt>
      <trkpt lat="42.89132" lon="0.78164">
        <ele>1543.7</ele>
        <time>2020-05-31T09:05:10.000Z</time>
      </trkpt>
      <trkpt lat="42.89123" lon="0.78165">
        <ele>1538.29</ele>
        <time>2020-05-31T09:05:22.000Z</time>
      </trkpt>
      <trkpt lat="42.89115" lon="0.7817">
        <ele>1530.9</ele>
        <time>2020-05-31T09:05:34.000Z</time>
      </trkpt>
      <trkpt lat="42.89107" lon="0.78178">
        <ele>1516.93</ele>
        <time>2020-05-31T09:06:10.000Z</time>
      </trkpt>
      <trkpt lat="42.891" lon="0.7817">
        <ele>1511.45</ele>
        <time>2020-05-31T09:06:22.000Z</time>
      </trkpt>
      <trkpt lat="42.89097" lon="0.78157">
        <ele>1502.62</ele>
        <time>2020-05-31T09:06:30.000Z</time>
      </trkpt>
      <trkpt lat="42.89087" lon="0.78152">
        <ele>1496.3</ele>
        <time>2020-05-31T09:06:41.000Z</time>
      </trkpt>
      <trkpt lat="42.89076" lon="0.78149">
        <ele>1478.04</ele>
        <time>2020-05-31T09:06:50.000Z</time>
      </trkpt>
      <trkpt lat="42.89067" lon="0.78144">
        <ele>1475.29</ele>
        <time>2020-05-31T09:06:55.000Z</time>
      </trkpt>
      <trkpt lat="42.89057" lon="0.78149">
        <ele>1473.15</ele>
        <time>2020-05-31T09:06:58.000Z</time>
      </trkpt>
      <trkpt lat="42.89046" lon="0.78153">
        <ele>1463.82</ele>
        <time>2020-05-31T09:07:02.000Z</time>
      </trkpt>
      <trkpt lat="42.89036" lon="0.78153">
        <ele>1450.29</ele>
        <time>2020-05-31T09:07:07.000Z</time>
      </trkpt>
      <trkpt lat="42.89026" lon="0.78156">
        <ele>1448.6</ele>
        <time>2020-05-31T09:07:10.000Z</time>
      </trkpt>
      <trkpt lat="42.89003" lon="0.78159">
        <ele>1424.56</ele>
        <time>2020-05-31T09:07:18.000Z</time>
      </trkpt>
      <trkpt lat="42.88993" lon="0.78159">
        <ele>1413.31</ele>
        <time>2020-05-31T09:07:23.000Z</time>
      </trkpt>
      <trkpt lat="42.88983" lon="0.78159">
        <ele>1407.52</ele>
        <time>2020-05-31T09:07:25.000Z</time>
      </trkpt>
      <trkpt lat="42.88969" lon="0.78165">
        <ele>1401.5</ele>
        <time>2020-05-31T09:07:27.000Z</time>
      </trkpt>
      <trkpt lat="42.88957" lon="0.78168">
        <ele>1378.84</ele>
        <time>2020-05-31T09:07:35.000Z</time>
      </trkpt>
      <trkpt lat="42.88951" lon="0.78156">
        <ele>1371.51</ele>
        <time>2020-05-31T09:07:39.000Z</time>
      </trkpt>
      <trkpt lat="42.8896" lon="0.78155">
        <ele>1360.23</ele>
        <time>2020-05-31T09:07:46.000Z</time>
      </trkpt>
      <trkpt lat="42.88971" lon="0.78152">
        <ele>1354.73</ele>
        <time>2020-05-31T09:07:50.000Z</time>
      </trkpt>
      <trkpt lat="42.88966" lon="0.78141">
        <ele>1044.44</ele>
        <time>2020-05-31T09:15:33.000Z</time>
      </trkpt>
      <trkpt lat="42.88962" lon="0.78126">
        <ele>1045.75</ele>
        <time>2020-05-31T09:15:35.000Z</time>
      </trkpt>
      <trkpt lat="42.88968" lon="0.78113">
        <ele>1060.83</ele>
        <time>2020-05-31T09:15:41.000Z</time>
      </trkpt>
      <trkpt lat="42.89375" lon="0.78628">
        <ele>1665.75</ele>
        <time>2020-05-31T09:15:41.999Z</time>
      </trkpt>
      <trkpt lat="42.89377" lon="0.78616">
        <ele>1665.06</ele>
        <time>2020-05-31T09:15:57.000Z</time>
      </trkpt>
      <trkpt lat="42.89381" lon="0.78604">
        <ele>1667.65</ele>
        <time>2020-05-31T09:16:10.000Z</time>
      </trkpt>
      <trkpt lat="42.89385" lon="0.78592">
        <ele>1668.06</ele>
        <time>2020-05-31T09:16:24.000Z</time>
      </trkpt>
      <trkpt lat="42.89388" lon="0.7858">
        <ele>1668.57</ele>
        <time>2020-05-31T09:16:35.000Z</time>
      </trkpt>
      <trkpt lat="42.89392" lon="0.78568">
        <ele>1669.46</ele>
        <time>2020-05-31T09:16:46.000Z</time>
      </trkpt>
      <trkpt lat="42.89395" lon="0.78556">
        <ele>1670.67</ele>
        <time>2020-05-31T09:16:57.000Z</time>
      </trkpt>
      <trkpt lat="42.89398" lon="0.78544">
        <ele>1671.9</ele>
        <time>2020-05-31T09:17:08.000Z</time>
      </trkpt>
      <trkpt lat="42.894" lon="0.78531">
        <ele>1673.03</ele>
        <time>2020-05-31T09:17:20.000Z</time>
      </trkpt>
      <trkpt lat="42.89402" lon="0.7852">
        <ele>1674.21</ele>
        <time>2020-05-31T09:17:33.000Z</time>
      </trkpt>
      <trkpt lat="42.89407" lon="0.78508">
        <ele>1675.69</ele>
        <time>2020-05-31T09:17:46.000Z</time>
      </trkpt>
      <trkpt lat="42.8941" lon="0.78495">
        <ele>1676.98</ele>
        <time>2020-05-31T09:17:58.000Z</time>
      </trkpt>
      <trkpt lat="42.89414" lon="0.78484">
        <ele>1677.94</ele>
        <time>2020-05-31T09:18:10.000Z</time>
      </trkpt>
      <trkpt lat="42.89416" lon="0.78471">
        <ele>1678.65</ele>
        <time>2020-05-31T09:18:20.000Z</time>
      </trkpt>
      <trkpt lat="42.89418" lon="0.78457">
        <ele>1679.78</ele>
        <time>2020-05-31T09:18:34.000Z</time>
      </trkpt>
      <trkpt lat="42.89419" lon="0.78444">
        <ele>1680.6</ele>
        <time>2020-05-31T09:18:46.000Z</time>
      </trkpt>
      <trkpt lat="42.89419" lon="0.78432">
        <ele>1681.48</ele>
        <time>2020-05-31T09:18:54.000Z</time>
      </trkpt>
      <trkpt lat="42.89418" lon="0.78419">
        <ele>1682.79</ele>
        <time>2020-05-31T09:19:01.000Z</time>
      </trkpt>
      <trkpt lat="42.89417" lon="0.78406">
        <ele>1685.09</ele>
        <time>2020-05-31T09:19:12.000Z</time>
      </trkpt>
      <trkpt lat="42.89416" lon="0.78393">
        <ele>1687.4</ele>
        <time>2020-05-31T09:19:23.000Z</time>
      </trkpt>
      <trkpt lat="42.89414" lon="0.78381">
        <ele>1690.64</ele>
        <time>2020-05-31T09:19:38.000Z</time>
      </trkpt>
      <trkpt lat="42.8941" lon="0.78369">
        <ele>1692.67</ele>
        <time>2020-05-31T09:19:48.000Z</time>
      </trkpt>
      <trkpt lat="42.89407" lon="0.78357">
        <ele>1695.26</ele>
        <time>2020-05-31T09:20:02.000Z</time>
      </trkpt>
      <trkpt lat="42.89406" lon="0.78344">
        <ele>1697.31</ele>
        <time>2020-05-31T09:20:14.000Z</time>
      </trkpt>
      <trkpt lat="42.89405" lon="0.78331">
        <ele>1699.17</ele>
        <time>2020-05-31T09:20:25.000Z</time>
      </trkpt>
      <trkpt lat="42.89404" lon="0.78319">
        <ele>1701.08</ele>
        <time>2020-05-31T09:20:37.000Z</time>
      </trkpt>
      <trkpt lat="42.89403" lon="0.78306">
        <ele>1703.46</ele>
        <time>2020-05-31T09:20:52.000Z</time>
      </trkpt>
      <trkpt lat="42.89401" lon="0.78294">
        <ele>1705.05</ele>
        <time>2020-05-31T09:21:05.000Z</time>
      </trkpt>
      <trkpt lat="42.89401" lon="0.78282">
        <ele>1706.79</ele>
        <time>2020-05-31T09:21:18.000Z</time>
      </trkpt>
      <trkpt lat="42.89402" lon="0.78269">
        <ele>1708.74</ele>
        <time>2020-05-31T09:21:34.000Z</time>
      </trkpt>
      <trkpt lat="42.89404" lon="0.78257">
        <ele>1710.94</ele>
        <time>2020-05-31T09:21:50.000Z</time>
      </trkpt>
      <trkpt lat="42.89406" lon="0.78244">
        <ele>1712.41</ele>
        <time>2020-05-31T09:22:01.000Z</time>
      </trkpt>
      <trkpt lat="42.89408" lon="0.78232">
        <ele>1715.64</ele>
        <time>2020-05-31T09:22:20.000Z</time>
      </trkpt>
      <trkpt lat="42.89417" lon="0.78235">
        <ele>1718.97</ele>
        <time>2020-05-31T09:23:16.000Z</time>
      </trkpt>
      <trkpt lat="42.89426" lon="0.78235">
        <ele>1720.45</ele>
        <time>2020-05-31T09:23:28.000Z</time>
      </trkpt>
      <trkpt lat="42.89436" lon="0.78236">
        <ele>1721.8</ele>
        <time>2020-05-31T09:23:41.000Z</time>
      </trkpt>
      <trkpt lat="42.89446" lon="0.78239">
        <ele>1723.24</ele>
        <time>2020-05-31T09:23:50.000Z</time>
      </trkpt>
      <trkpt lat="42.89456" lon="0.78239">
        <ele>1725.61</ele>
        <time>2020-05-31T09:24:03.000Z</time>
      </trkpt>
      <trkpt lat="42.89464" lon="0.78235">
        <ele>1727.79</ele>
        <time>2020-05-31T09:24:13.000Z</time>
      </trkpt>
      <trkpt lat="42.89469" lon="0.78223">
        <ele>1730.35</ele>
        <time>2020-05-31T09:24:25.000Z</time>
      </trkpt>
      <trkpt lat="42.89471" lon="0.78211">
        <ele>1733.02</ele>
        <time>2020-05-31T09:24:39.000Z</time>
      </trkpt>
      <trkpt lat="42.89467" lon="0.782">
        <ele>1736.19</ele>
        <time>2020-05-31T09:25:06.000Z</time>
      </trkpt>
      <trkpt lat="42.89461" lon="0.78191">
        <ele>1738.24</ele>
        <time>2020-05-31T09:25:17.000Z</time>
      </trkpt>
      <trkpt lat="42.89454" lon="0.78181">
        <ele>1740.97</ele>
        <time>2020-05-31T09:25:31.000Z</time>
      </trkpt>
      <trkpt lat="42.89448" lon="0.78171">
        <ele>1743.15</ele>
        <time>2020-05-31T09:25:42.000Z</time>
      </trkpt>
      <trkpt lat="42.89444" lon="0.7816">
        <ele>1745.63</ele>
        <time>2020-05-31T09:25:54.000Z</time>
      </trkpt>
      <trkpt lat="42.89438" lon="0.78151">
        <ele>1748.79</ele>
        <time>2020-05-31T09:26:08.000Z</time>
      </trkpt>
      <trkpt lat="42.89435" lon="0.78138">
        <ele>1751.02</ele>
        <time>2020-05-31T09:26:19.000Z</time>
      </trkpt>
      <trkpt lat="42.89433" lon="0.78125">
        <ele>1753.58</ele>
        <time>2020-05-31T09:26:33.000Z</time>
      </trkpt>
      <trkpt lat="42.89433" lon="0.78112">
        <ele>1756.53</ele>
        <time>2020-05-31T09:26:47.000Z</time>
      </trkpt>
      <trkpt lat="42.89432" lon="0.781">
        <ele>1758.86</ele>
        <time>2020-05-31T09:26:59.000Z</time>
      </trkpt>
      <trkpt lat="42.89442" lon="0.78099">
        <ele>1762.63</ele>
        <time>2020-05-31T09:27:25.000Z</time>
      </trkpt>
      <trkpt lat="42.8945" lon="0.78102">
        <ele>1764.23</ele>
        <time>2020-05-31T09:27:37.000Z</time>
      </trkpt>
      <trkpt lat="42.8946" lon="0.781">
        <ele>1767.35</ele>
        <time>2020-05-31T09:27:53.000Z</time>
      </trkpt>
      <trkpt lat="42.89469" lon="0.78097">
        <ele>1769.51</ele>
        <time>2020-05-31T09:28:03.000Z</time>
      </trkpt>
      <trkpt lat="42.89473" lon="0.78085">
        <ele>1772.57</ele>
        <time>2020-05-31T09:28:15.000Z</time>
      </trkpt>
      <trkpt lat="42.89477" lon="0.78073">
        <ele>1776.45</ele>
        <time>2020-05-31T09:28:33.000Z</time>
      </trkpt>
      <trkpt lat="42.89484" lon="0.78064">
        <ele>1779.37</ele>
        <time>2020-05-31T09:28:46.000Z</time>
      </trkpt>
      <trkpt lat="42.89488" lon="0.78053">
        <ele>1782.07</ele>
        <time>2020-05-31T09:28:57.000Z</time>
      </trkpt>
      <trkpt lat="42.89487" lon="0.7804">
        <ele>1785.37</ele>
        <time>2020-05-31T09:29:11.000Z</time>
      </trkpt>
      <trkpt lat="42.89482" lon="0.7803">
        <ele>1787.64</ele>
        <time>2020-05-31T09:29:23.000Z</time>
      </trkpt>
      <trkpt lat="42.89478" lon="0.78018">
        <ele>1789.81</ele>
        <time>2020-05-31T09:29:37.000Z</time>
      </trkpt>
      <trkpt lat="42.89475" lon="0.78006">
        <ele>1791.83</ele>
        <time>2020-05-31T09:29:48.000Z</time>
      </trkpt>
      <trkpt lat="42.89473" lon="0.77994">
        <ele>1793.73</ele>
        <time>2020-05-31T09:29:59.000Z</time>
      </trkpt>
      <trkpt lat="42.89471" lon="0.77981">
        <ele>1796.33</ele>
        <time>2020-05-31T09:30:10.000Z</time>
      </trkpt>
      <trkpt lat="42.89471" lon="0.77968">
        <ele>1799.91</ele>
        <time>2020-05-31T09:30:24.000Z</time>
      </trkpt>
      <trkpt lat="42.8947" lon="0.77955">
        <ele>1803.89</ele>
        <time>2020-05-31T09:30:41.000Z</time>
      </trkpt>
      <trkpt lat="42.8947" lon="0.77942">
        <ele>1805.88</ele>
        <time>2020-05-31T09:30:52.000Z</time>
      </trkpt>
      <trkpt lat="42.8947" lon="0.77928">
        <ele>1808.13</ele>
        <time>2020-05-31T09:31:04.000Z</time>
      </trkpt>
      <trkpt lat="42.8947" lon="0.77916">
        <ele>1810.22</ele>
        <time>2020-05-31T09:31:18.000Z</time>
      </trkpt>
      <trkpt lat="42.89471" lon="0.77903">
        <ele>1811.79</ele>
        <time>2020-05-31T09:31:30.000Z</time>
      </trkpt>
      <trkpt lat="42.89472" lon="0.7789">
        <ele>1814.14</ele>
        <time>2020-05-31T09:31:44.000Z</time>
      </trkpt>
      <trkpt lat="42.89474" lon="0.77878">
        <ele>1816.11</ele>
        <time>2020-05-31T09:32:00.000Z</time>
      </trkpt>
      <trkpt lat="42.89474" lon="0.77864">
        <ele>1818.92</ele>
        <time>2020-05-31T09:32:16.000Z</time>
      </trkpt>
      <trkpt lat="42.89475" lon="0.77852">
        <ele>1821.26</ele>
        <time>2020-05-31T09:32:30.000Z</time>
      </trkpt>
      <trkpt lat="42.89474" lon="0.77839">
        <ele>1823.79</ele>
        <time>2020-05-31T09:32:48.000Z</time>
      </trkpt>
      <trkpt lat="42.89472" lon="0.77827">
        <ele>1825.21</ele>
        <time>2020-05-31T09:33:00.000Z</time>
      </trkpt>
      <trkpt lat="42.89475" lon="0.77814">
        <ele>1828.39</ele>
        <time>2020-05-31T09:33:16.000Z</time>
      </trkpt>
      <trkpt lat="42.89478" lon="0.77803">
        <ele>1831.23</ele>
        <time>2020-05-31T09:33:29.000Z</time>
      </trkpt>
      <trkpt lat="42.89479" lon="0.7779">
        <ele>1834.64</ele>
        <time>2020-05-31T09:34:18.000Z</time>
      </trkpt>
      <trkpt lat="42.89481" lon="0.77778">
        <ele>1835.82</ele>
        <time>2020-05-31T09:34:28.000Z</time>
      </trkpt>
      <trkpt lat="42.89484" lon="0.77765">
        <ele>1836.95</ele>
        <time>2020-05-31T09:34:37.000Z</time>
      </trkpt>
      <trkpt lat="42.89486" lon="0.77752">
        <ele>1838.22</ele>
        <time>2020-05-31T09:34:54.000Z</time>
      </trkpt>
      <trkpt lat="42.89487" lon="0.7774">
        <ele>1838.53</ele>
        <time>2020-05-31T09:35:08.000Z</time>
      </trkpt>
      <trkpt lat="42.89489" lon="0.77728">
        <ele>1842.6</ele>
        <time>2020-05-31T09:43:11.000Z</time>
      </trkpt>
      <trkpt lat="42.8949" lon="0.77714">
        <ele>1843.01</ele>
        <time>2020-05-31T09:43:32.000Z</time>
      </trkpt>
      <trkpt lat="42.89491" lon="0.77701">
        <ele>1842.95</ele>
        <time>2020-05-31T09:43:43.000Z</time>
      </trkpt>
      <trkpt lat="42.89492" lon="0.77688">
        <ele>1842.65</ele>
        <time>2020-05-31T09:43:52.000Z</time>
      </trkpt>
      <trkpt lat="42.89496" lon="0.77677">
        <ele>1842.05</ele>
        <time>2020-05-31T09:44:01.000Z</time>
      </trkpt>
      <trkpt lat="42.895" lon="0.77666">
        <ele>1841.12</ele>
        <time>2020-05-31T09:44:13.000Z</time>
      </trkpt>
      <trkpt lat="42.89505" lon="0.77654">
        <ele>1840.16</ele>
        <time>2020-05-31T09:44:22.000Z</time>
      </trkpt>
      <trkpt lat="42.89508" lon="0.77642">
        <ele>1839.09</ele>
        <time>2020-05-31T09:44:31.000Z</time>
      </trkpt>
      <trkpt lat="42.89512" lon="0.7763">
        <ele>1838</ele>
        <time>2020-05-31T09:44:42.000Z</time>
      </trkpt>
      <trkpt lat="42.89516" lon="0.77618">
        <ele>1837.19</ele>
        <time>2020-05-31T09:44:51.000Z</time>
      </trkpt>
      <trkpt lat="42.89522" lon="0.77608">
        <ele>1836.73</ele>
        <time>2020-05-31T09:45:00.000Z</time>
      </trkpt>
      <trkpt lat="42.89527" lon="0.77597">
        <ele>1836.52</ele>
        <time>2020-05-31T09:45:08.000Z</time>
      </trkpt>
      <trkpt lat="42.89531" lon="0.77586">
        <ele>1836.51</ele>
        <time>2020-05-31T09:45:15.000Z</time>
      </trkpt>
      <trkpt lat="42.89534" lon="0.77574">
        <ele>1836.78</ele>
        <time>2020-05-31T09:45:24.000Z</time>
      </trkpt>
      <trkpt lat="42.89539" lon="0.77564">
        <ele>1837.19</ele>
        <time>2020-05-31T09:45:31.000Z</time>
      </trkpt>
      <trkpt lat="42.89544" lon="0.77554">
        <ele>1838.02</ele>
        <time>2020-05-31T09:45:41.000Z</time>
      </trkpt>
      <trkpt lat="42.89549" lon="0.77543">
        <ele>1838.83</ele>
        <time>2020-05-31T09:45:50.000Z</time>
      </trkpt>
      <trkpt lat="42.89557" lon="0.77535">
        <ele>1839.4</ele>
        <time>2020-05-31T09:45:58.000Z</time>
      </trkpt>
      <trkpt lat="42.89565" lon="0.77529">
        <ele>1839.79</ele>
        <time>2020-05-31T09:46:06.000Z</time>
      </trkpt>
      <trkpt lat="42.89573" lon="0.77521">
        <ele>1840</ele>
        <time>2020-05-31T09:46:15.000Z</time>
      </trkpt>
      <trkpt lat="42.89581" lon="0.77513">
        <ele>1840.04</ele>
        <time>2020-05-31T09:46:23.000Z</time>
      </trkpt>
      <trkpt lat="42.89588" lon="0.77505">
        <ele>1840.28</ele>
        <time>2020-05-31T09:46:31.000Z</time>
      </trkpt>
      <trkpt lat="42.89596" lon="0.77497">
        <ele>1840.41</ele>
        <time>2020-05-31T09:46:39.000Z</time>
      </trkpt>
      <trkpt lat="42.89604" lon="0.7749">
        <ele>1840.37</ele>
        <time>2020-05-31T09:46:47.000Z</time>
      </trkpt>
      <trkpt lat="42.89611" lon="0.77481">
        <ele>1840.44</ele>
        <time>2020-05-31T09:46:56.000Z</time>
      </trkpt>
      <trkpt lat="42.8962" lon="0.77474">
        <ele>1840.53</ele>
        <time>2020-05-31T09:47:05.000Z</time>
      </trkpt>
      <trkpt lat="42.89628" lon="0.77468">
        <ele>1840.47</ele>
        <time>2020-05-31T09:47:12.000Z</time>
      </trkpt>
      <trkpt lat="42.89636" lon="0.77462">
        <ele>1840.14</ele>
        <time>2020-05-31T09:47:21.000Z</time>
      </trkpt>
      <trkpt lat="42.89643" lon="0.77453">
        <ele>1839.43</ele>
        <time>2020-05-31T09:47:32.000Z</time>
      </trkpt>
      <trkpt lat="42.8965" lon="0.77446">
        <ele>1838.2</ele>
        <time>2020-05-31T09:47:45.000Z</time>
      </trkpt>
      <trkpt lat="42.89659" lon="0.77441">
        <ele>1836.93</ele>
        <time>2020-05-31T09:47:56.000Z</time>
      </trkpt>
      <trkpt lat="42.89667" lon="0.77436">
        <ele>1835.43</ele>
        <time>2020-05-31T09:48:05.000Z</time>
      </trkpt>
      <trkpt lat="42.89676" lon="0.7743">
        <ele>1833.41</ele>
        <time>2020-05-31T09:48:16.000Z</time>
      </trkpt>
      <trkpt lat="42.89685" lon="0.77425">
        <ele>1831.79</ele>
        <time>2020-05-31T09:48:26.000Z</time>
      </trkpt>
      <trkpt lat="42.89693" lon="0.77419">
        <ele>1830.23</ele>
        <time>2020-05-31T09:48:35.000Z</time>
      </trkpt>
      <trkpt lat="42.89703" lon="0.77416">
        <ele>1828.73</ele>
        <time>2020-05-31T09:48:43.000Z</time>
      </trkpt>
      <trkpt lat="42.89712" lon="0.77411">
        <ele>1826.62</ele>
        <time>2020-05-31T09:49:13.000Z</time>
      </trkpt>
      <trkpt lat="42.8972" lon="0.77408">
        <ele>1825.93</ele>
        <time>2020-05-31T09:49:19.000Z</time>
      </trkpt>
      <trkpt lat="42.89729" lon="0.77405">
        <ele>1825.35</ele>
        <time>2020-05-31T09:49:25.000Z</time>
      </trkpt>
      <trkpt lat="42.89739" lon="0.77404">
        <ele>1824.69</ele>
        <time>2020-05-31T09:49:35.000Z</time>
      </trkpt>
      <trkpt lat="42.89748" lon="0.77399">
        <ele>1824.26</ele>
        <time>2020-05-31T09:49:44.000Z</time>
      </trkpt>
      <trkpt lat="42.89756" lon="0.77393">
        <ele>1824.31</ele>
        <time>2020-05-31T09:49:52.000Z</time>
      </trkpt>
      <trkpt lat="42.89765" lon="0.77387">
        <ele>1824.39</ele>
        <time>2020-05-31T09:50:01.000Z</time>
      </trkpt>
      <trkpt lat="42.89774" lon="0.77385">
        <ele>1824.27</ele>
        <time>2020-05-31T09:50:10.000Z</time>
      </trkpt>
      <trkpt lat="42.89783" lon="0.77385">
        <ele>1823.93</ele>
        <time>2020-05-31T09:50:18.000Z</time>
      </trkpt>
      <trkpt lat="42.89792" lon="0.77385">
        <ele>1823.66</ele>
        <time>2020-05-31T09:50:26.000Z</time>
      </trkpt>
      <trkpt lat="42.89802" lon="0.77385">
        <ele>1823.41</ele>
        <time>2020-05-31T09:50:34.000Z</time>
      </trkpt>
      <trkpt lat="42.89812" lon="0.77385">
        <ele>1823.35</ele>
        <time>2020-05-31T09:50:42.000Z</time>
      </trkpt>
      <trkpt lat="42.89821" lon="0.77386">
        <ele>1823.51</ele>
        <time>2020-05-31T09:50:49.000Z</time>
      </trkpt>
      <trkpt lat="42.89831" lon="0.77387">
        <ele>1823.69</ele>
        <time>2020-05-31T09:50:57.000Z</time>
      </trkpt>
      <trkpt lat="42.89841" lon="0.77389">
        <ele>1823.82</ele>
        <time>2020-05-31T09:51:05.000Z</time>
      </trkpt>
      <trkpt lat="42.89851" lon="0.77389">
        <ele>1824.02</ele>
        <time>2020-05-31T09:51:14.000Z</time>
      </trkpt>
      <trkpt lat="42.89861" lon="0.77385">
        <ele>1823.96</ele>
        <time>2020-05-31T09:51:22.000Z</time>
      </trkpt>
      <trkpt lat="42.89871" lon="0.77385">
        <ele>1824.09</ele>
        <time>2020-05-31T09:51:30.000Z</time>
      </trkpt>
      <trkpt lat="42.8988" lon="0.77381">
        <ele>1824.35</ele>
        <time>2020-05-31T09:51:40.000Z</time>
      </trkpt>
      <trkpt lat="42.89889" lon="0.77378">
        <ele>1824.39</ele>
        <time>2020-05-31T09:51:47.000Z</time>
      </trkpt>
      <trkpt lat="42.89898" lon="0.77374">
        <ele>1824.63</ele>
        <time>2020-05-31T09:51:55.000Z</time>
      </trkpt>
      <trkpt lat="42.89909" lon="0.7737">
        <ele>1824.94</ele>
        <time>2020-05-31T09:52:02.000Z</time>
      </trkpt>
      <trkpt lat="42.89917" lon="0.77367">
        <ele>1825.2</ele>
        <time>2020-05-31T09:52:10.000Z</time>
      </trkpt>
      <trkpt lat="42.89927" lon="0.77364">
        <ele>1825.27</ele>
        <time>2020-05-31T09:52:18.000Z</time>
      </trkpt>
      <trkpt lat="42.89935" lon="0.77357">
        <ele>1825.31</ele>
        <time>2020-05-31T09:52:26.000Z</time>
      </trkpt>
      <trkpt lat="42.89943" lon="0.77352">
        <ele>1825.74</ele>
        <time>2020-05-31T09:52:33.000Z</time>
      </trkpt>
      <trkpt lat="42.89952" lon="0.77346">
        <ele>1826.22</ele>
        <time>2020-05-31T09:52:41.000Z</time>
      </trkpt>
      <trkpt lat="42.89958" lon="0.77338">
        <ele>1826.56</ele>
        <time>2020-05-31T09:52:48.000Z</time>
      </trkpt>
      <trkpt lat="42.89967" lon="0.77334">
        <ele>1826.98</ele>
        <time>2020-05-31T09:52:56.000Z</time>
      </trkpt>
      <trkpt lat="42.89974" lon="0.77325">
        <ele>1827.16</ele>
        <time>2020-05-31T09:53:03.000Z</time>
      </trkpt>
      <trkpt lat="42.89981" lon="0.77316">
        <ele>1827.86</ele>
        <time>2020-05-31T09:53:16.000Z</time>
      </trkpt>
      <trkpt lat="42.89989" lon="0.7731">
        <ele>1828.07</ele>
        <time>2020-05-31T09:53:23.000Z</time>
      </trkpt>
      <trkpt lat="42.89997" lon="0.77301">
        <ele>1828.18</ele>
        <time>2020-05-31T09:53:31.000Z</time>
      </trkpt>
      <trkpt lat="42.90001" lon="0.77288">
        <ele>1828.32</ele>
        <time>2020-05-31T09:53:38.000Z</time>
      </trkpt>
      <trkpt lat="42.90008" lon="0.77278">
        <ele>1828.72</ele>
        <time>2020-05-31T09:53:45.000Z</time>
      </trkpt>
      <trkpt lat="42.90013" lon="0.77267">
        <ele>1829.12</ele>
        <time>2020-05-31T09:53:52.000Z</time>
      </trkpt>
      <trkpt lat="42.90018" lon="0.77257">
        <ele>1829.39</ele>
        <time>2020-05-31T09:53:59.000Z</time>
      </trkpt>
      <trkpt lat="42.90022" lon="0.77246">
        <ele>1829.45</ele>
        <time>2020-05-31T09:54:06.000Z</time>
      </trkpt>
      <trkpt lat="42.90027" lon="0.77235">
        <ele>1829.87</ele>
        <time>2020-05-31T09:54:14.000Z</time>
      </trkpt>
      <trkpt lat="42.90031" lon="0.77222">
        <ele>1830.16</ele>
        <time>2020-05-31T09:54:23.000Z</time>
      </trkpt>
      <trkpt lat="42.90034" lon="0.77211">
        <ele>1830.25</ele>
        <time>2020-05-31T09:54:30.000Z</time>
      </trkpt>
      <trkpt lat="42.90039" lon="0.77199">
        <ele>1830.38</ele>
        <time>2020-05-31T09:54:38.000Z</time>
      </trkpt>
      <trkpt lat="42.90044" lon="0.77188">
        <ele>1830.33</ele>
        <time>2020-05-31T09:54:46.000Z</time>
      </trkpt>
      <trkpt lat="42.90049" lon="0.77176">
        <ele>1829.97</ele>
        <time>2020-05-31T09:54:58.000Z</time>
      </trkpt>
      <trkpt lat="42.90054" lon="0.77165">
        <ele>1829.56</ele>
        <time>2020-05-31T09:55:05.000Z</time>
      </trkpt>
      <trkpt lat="42.9006" lon="0.77155">
        <ele>1829.37</ele>
        <time>2020-05-31T09:55:13.000Z</time>
      </trkpt>
      <trkpt lat="42.90067" lon="0.77146">
        <ele>1829.26</ele>
        <time>2020-05-31T09:55:20.000Z</time>
      </trkpt>
      <trkpt lat="42.90074" lon="0.77136">
        <ele>1828.92</ele>
        <time>2020-05-31T09:55:27.000Z</time>
      </trkpt>
      <trkpt lat="42.90079" lon="0.77125">
        <ele>1828.78</ele>
        <time>2020-05-31T09:55:35.000Z</time>
      </trkpt>
      <trkpt lat="42.90085" lon="0.77116">
        <ele>1828.23</ele>
        <time>2020-05-31T09:55:50.000Z</time>
      </trkpt>
      <trkpt lat="42.9009" lon="0.77104">
        <ele>1828.13</ele>
        <time>2020-05-31T09:55:58.000Z</time>
      </trkpt>
      <trkpt lat="42.90096" lon="0.77094">
        <ele>1828.08</ele>
        <time>2020-05-31T09:56:06.000Z</time>
      </trkpt>
      <trkpt lat="42.90101" lon="0.77083">
        <ele>1827.72</ele>
        <time>2020-05-31T09:56:14.000Z</time>
      </trkpt>
      <trkpt lat="42.90106" lon="0.77072">
        <ele>1827.48</ele>
        <time>2020-05-31T09:56:23.000Z</time>
      </trkpt>
      <trkpt lat="42.9011" lon="0.7706">
        <ele>1827.32</ele>
        <time>2020-05-31T09:56:31.000Z</time>
      </trkpt>
      <trkpt lat="42.90114" lon="0.77048">
        <ele>1827.3</ele>
        <time>2020-05-31T09:56:38.000Z</time>
      </trkpt>
      <trkpt lat="42.90118" lon="0.77037">
        <ele>1827.44</ele>
        <time>2020-05-31T09:56:44.000Z</time>
      </trkpt>
      <trkpt lat="42.90121" lon="0.77026">
        <ele>1827.78</ele>
        <time>2020-05-31T09:56:52.000Z</time>
      </trkpt>
      <trkpt lat="42.90126" lon="0.77014">
        <ele>1827.96</ele>
        <time>2020-05-31T09:57:01.000Z</time>
      </trkpt>
      <trkpt lat="42.9013" lon="0.77003">
        <ele>1827.65</ele>
        <time>2020-05-31T09:57:09.000Z</time>
      </trkpt>
      <trkpt lat="42.90135" lon="0.76992">
        <ele>1827.55</ele>
        <time>2020-05-31T09:57:17.000Z</time>
      </trkpt>
      <trkpt lat="42.90141" lon="0.76981">
        <ele>1827.64</ele>
        <time>2020-05-31T09:57:25.000Z</time>
      </trkpt>
      <trkpt lat="42.90147" lon="0.76972">
        <ele>1827.83</ele>
        <time>2020-05-31T09:57:33.000Z</time>
      </trkpt>
      <trkpt lat="42.90151" lon="0.7696">
        <ele>1828.22</ele>
        <time>2020-05-31T09:57:43.000Z</time>
      </trkpt>
      <trkpt lat="42.90158" lon="0.7695">
        <ele>1829.1</ele>
        <time>2020-05-31T09:57:53.000Z</time>
      </trkpt>
      <trkpt lat="42.90163" lon="0.7694">
        <ele>1830.09</ele>
        <time>2020-05-31T09:58:00.000Z</time>
      </trkpt>
      <trkpt lat="42.90169" lon="0.76929">
        <ele>1831.13</ele>
        <time>2020-05-31T09:58:09.000Z</time>
      </trkpt>
      <trkpt lat="42.90174" lon="0.76919">
        <ele>1831.5</ele>
        <time>2020-05-31T09:58:17.000Z</time>
      </trkpt>
      <trkpt lat="42.90179" lon="0.76909">
        <ele>1831.57</ele>
        <time>2020-05-31T09:58:25.000Z</time>
      </trkpt>
      <trkpt lat="42.90184" lon="0.76898">
        <ele>1831.84</ele>
        <time>2020-05-31T09:58:32.000Z</time>
      </trkpt>
      <trkpt lat="42.90189" lon="0.76888">
        <ele>1832.26</ele>
        <time>2020-05-31T09:58:42.000Z</time>
      </trkpt>
      <trkpt lat="42.90195" lon="0.76877">
        <ele>1832.87</ele>
        <time>2020-05-31T09:58:53.000Z</time>
      </trkpt>
      <trkpt lat="42.902" lon="0.76866">
        <ele>1834.13</ele>
        <time>2020-05-31T09:59:03.000Z</time>
      </trkpt>
      <trkpt lat="42.90201" lon="0.76853">
        <ele>1835.64</ele>
        <time>2020-05-31T09:59:13.000Z</time>
      </trkpt>
      <trkpt lat="42.90208" lon="0.76845">
        <ele>1837.22</ele>
        <time>2020-05-31T09:59:24.000Z</time>
      </trkpt>
      <trkpt lat="42.90215" lon="0.76836">
        <ele>1838.62</ele>
        <time>2020-05-31T09:59:35.000Z</time>
      </trkpt>
      <trkpt lat="42.90221" lon="0.76825">
        <ele>1840.58</ele>
        <time>2020-05-31T09:59:49.000Z</time>
      </trkpt>
      <trkpt lat="42.90224" lon="0.76813">
        <ele>1842.33</ele>
        <time>2020-05-31T10:00:02.000Z</time>
      </trkpt>
      <trkpt lat="42.90225" lon="0.768">
        <ele>1844.26</ele>
        <time>2020-05-31T10:00:14.000Z</time>
      </trkpt>
      <trkpt lat="42.90228" lon="0.76788">
        <ele>1846.48</ele>
        <time>2020-05-31T10:00:26.000Z</time>
      </trkpt>
      <trkpt lat="42.90227" lon="0.76775">
        <ele>1847.8</ele>
        <time>2020-05-31T10:00:35.000Z</time>
      </trkpt>
      <trkpt lat="42.90226" lon="0.76762">
        <ele>1848.98</ele>
        <time>2020-05-31T10:00:45.000Z</time>
      </trkpt>
      <trkpt lat="42.90225" lon="0.76749">
        <ele>1849.77</ele>
        <time>2020-05-31T10:00:53.000Z</time>
      </trkpt>
      <trkpt lat="42.90225" lon="0.76737">
        <ele>1850.32</ele>
        <time>2020-05-31T10:01:03.000Z</time>
      </trkpt>
      <trkpt lat="42.90223" lon="0.76724">
        <ele>1850.66</ele>
        <time>2020-05-31T10:01:11.000Z</time>
      </trkpt>
      <trkpt lat="42.90222" lon="0.76712">
        <ele>1851.1</ele>
        <time>2020-05-31T10:01:24.000Z</time>
      </trkpt>
      <trkpt lat="42.90219" lon="0.76699">
        <ele>1850.85</ele>
        <time>2020-05-31T10:01:34.000Z</time>
      </trkpt>
      <trkpt lat="42.90216" lon="0.76687">
        <ele>1850.74</ele>
        <time>2020-05-31T10:01:44.000Z</time>
      </trkpt>
      <trkpt lat="42.90217" lon="0.76674">
        <ele>1851.22</ele>
        <time>2020-05-31T10:01:57.000Z</time>
      </trkpt>
      <trkpt lat="42.90218" lon="0.76661">
        <ele>1851.86</ele>
        <time>2020-05-31T10:02:08.000Z</time>
      </trkpt>
      <trkpt lat="42.90216" lon="0.76649">
        <ele>1852.09</ele>
        <time>2020-05-31T10:02:17.000Z</time>
      </trkpt>
      <trkpt lat="42.90215" lon="0.76636">
        <ele>1852.64</ele>
        <time>2020-05-31T10:02:26.000Z</time>
      </trkpt>
      <trkpt lat="42.90215" lon="0.76623">
        <ele>1853.8</ele>
        <time>2020-05-31T10:02:34.000Z</time>
      </trkpt>
      <trkpt lat="42.90214" lon="0.7661">
        <ele>1855.07</ele>
        <time>2020-05-31T10:02:43.000Z</time>
      </trkpt>
      <trkpt lat="42.9021" lon="0.76598">
        <ele>1855.85</ele>
        <time>2020-05-31T10:02:54.000Z</time>
      </trkpt>
      <trkpt lat="42.90205" lon="0.76587">
        <ele>1857.17</ele>
        <time>2020-05-31T10:03:08.000Z</time>
      </trkpt>
      <trkpt lat="42.90202" lon="0.76574">
        <ele>1857.35</ele>
        <time>2020-05-31T10:03:18.000Z</time>
      </trkpt>
      <trkpt lat="42.90202" lon="0.76561">
        <ele>1858.7</ele>
        <time>2020-05-31T10:03:34.000Z</time>
      </trkpt>
      <trkpt lat="42.90205" lon="0.76549">
        <ele>1859.76</ele>
        <time>2020-05-31T10:03:42.000Z</time>
      </trkpt>
      <trkpt lat="42.90201" lon="0.76538">
        <ele>1860.61</ele>
        <time>2020-05-31T10:03:53.000Z</time>
      </trkpt>
      <trkpt lat="42.90199" lon="0.76525">
        <ele>1861.52</ele>
        <time>2020-05-31T10:04:03.000Z</time>
      </trkpt>
      <trkpt lat="42.90202" lon="0.76514">
        <ele>1860.99</ele>
        <time>2020-05-31T10:04:23.000Z</time>
      </trkpt>
      <trkpt lat="42.90194" lon="0.76506">
        <ele>1859.61</ele>
        <time>2020-05-31T10:05:22.000Z</time>
      </trkpt>
      <trkpt lat="42.90193" lon="0.76493">
        <ele>1858.95</ele>
        <time>2020-05-31T10:05:35.000Z</time>
      </trkpt>
      <trkpt lat="42.90192" lon="0.7648">
        <ele>1858.19</ele>
        <time>2020-05-31T10:05:48.000Z</time>
      </trkpt>
      <trkpt lat="42.90191" lon="0.76467">
        <ele>1857.08</ele>
        <time>2020-05-31T10:05:59.000Z</time>
      </trkpt>
      <trkpt lat="42.90193" lon="0.76455">
        <ele>1855.57</ele>
        <time>2020-05-31T10:06:11.000Z</time>
      </trkpt>
      <trkpt lat="42.90195" lon="0.76443">
        <ele>1853.89</ele>
        <time>2020-05-31T10:06:22.000Z</time>
      </trkpt>
      <trkpt lat="42.9019" lon="0.76431">
        <ele>1851.92</ele>
        <time>2020-05-31T10:06:33.000Z</time>
      </trkpt>
      <trkpt lat="42.90187" lon="0.76419">
        <ele>1849.58</ele>
        <time>2020-05-31T10:06:44.000Z</time>
      </trkpt>
      <trkpt lat="42.90187" lon="0.76406">
        <ele>1846.14</ele>
        <time>2020-05-31T10:06:58.000Z</time>
      </trkpt>
      <trkpt lat="42.90185" lon="0.76394">
        <ele>1843.71</ele>
        <time>2020-05-31T10:07:08.000Z</time>
      </trkpt>
      <trkpt lat="42.90183" lon="0.76381">
        <ele>1840.36</ele>
        <time>2020-05-31T10:07:22.000Z</time>
      </trkpt>
      <trkpt lat="42.90181" lon="0.76369">
        <ele>1837.63</ele>
        <time>2020-05-31T10:07:33.000Z</time>
      </trkpt>
      <trkpt lat="42.90177" lon="0.76357">
        <ele>1835.41</ele>
        <time>2020-05-31T10:07:44.000Z</time>
      </trkpt>
      <trkpt lat="42.90175" lon="0.76344">
        <ele>1833.64</ele>
        <time>2020-05-31T10:07:53.000Z</time>
      </trkpt>
      <trkpt lat="42.90176" lon="0.76332">
        <ele>1831.67</ele>
        <time>2020-05-31T10:08:05.000Z</time>
      </trkpt>
      <trkpt lat="42.90175" lon="0.76319">
        <ele>1830.4</ele>
        <time>2020-05-31T10:08:13.000Z</time>
      </trkpt>
      <trkpt lat="42.90173" lon="0.76307">
        <ele>1829.33</ele>
        <time>2020-05-31T10:08:22.000Z</time>
      </trkpt>
      <trkpt lat="42.90171" lon="0.76294">
        <ele>1828.23</ele>
        <time>2020-05-31T10:08:32.000Z</time>
      </trkpt>
      <trkpt lat="42.90174" lon="0.76282">
        <ele>1827.08</ele>
        <time>2020-05-31T10:08:43.000Z</time>
      </trkpt>
      <trkpt lat="42.90173" lon="0.7627">
        <ele>1826.23</ele>
        <time>2020-05-31T10:08:55.000Z</time>
      </trkpt>
      <trkpt lat="42.9017" lon="0.76258">
        <ele>1825.77</ele>
        <time>2020-05-31T10:09:07.000Z</time>
      </trkpt>
      <trkpt lat="42.90167" lon="0.76245">
        <ele>1824.79</ele>
        <time>2020-05-31T10:09:17.000Z</time>
      </trkpt>
      <trkpt lat="42.90163" lon="0.76234">
        <ele>1823.32</ele>
        <time>2020-05-31T10:09:31.000Z</time>
      </trkpt>
      <trkpt lat="42.90161" lon="0.76221">
        <ele>1823.57</ele>
        <time>2020-05-31T10:09:42.000Z</time>
      </trkpt>
      <trkpt lat="42.90162" lon="0.76208">
        <ele>1825.02</ele>
        <time>2020-05-31T10:09:59.000Z</time>
      </trkpt>
      <trkpt lat="42.90162" lon="0.76195">
        <ele>1826.83</ele>
        <time>2020-05-31T10:10:11.000Z</time>
      </trkpt>
      <trkpt lat="42.90163" lon="0.76182">
        <ele>1829.99</ele>
        <time>2020-05-31T10:11:15.000Z</time>
      </trkpt>
      <trkpt lat="42.9016" lon="0.76169">
        <ele>1830.88</ele>
        <time>2020-05-31T10:11:24.000Z</time>
      </trkpt>
      <trkpt lat="42.90161" lon="0.76157">
        <ele>1831.87</ele>
        <time>2020-05-31T10:11:33.000Z</time>
      </trkpt>
      <trkpt lat="42.90156" lon="0.76144">
        <ele>1833.08</ele>
        <time>2020-05-31T10:12:39.000Z</time>
      </trkpt>
      <trkpt lat="42.90151" lon="0.76134">
        <ele>1829.82</ele>
        <time>2020-05-31T11:16:57.999Z</time>
      </trkpt>
      <trkpt lat="42.90142" lon="0.76136">
        <ele>1829.57</ele>
        <time>2020-05-31T11:17:09.999Z</time>
      </trkpt>
      <trkpt lat="42.90132" lon="0.76133">
        <ele>1829.61</ele>
        <time>2020-05-31T11:17:24.999Z</time>
      </trkpt>
      <trkpt lat="42.90126" lon="0.76122">
        <ele>1829.72</ele>
        <time>2020-05-31T11:17:35.999Z</time>
      </trkpt>
      <trkpt lat="42.90119" lon="0.76114">
        <ele>1829.5</ele>
        <time>2020-05-31T11:17:44.999Z</time>
      </trkpt>
      <trkpt lat="42.90112" lon="0.76104">
        <ele>1828.97</ele>
        <time>2020-05-31T11:17:53.999Z</time>
      </trkpt>
      <trkpt lat="42.90105" lon="0.76095">
        <ele>1827.89</ele>
        <time>2020-05-31T11:18:03.999Z</time>
      </trkpt>
      <trkpt lat="42.90098" lon="0.76085">
        <ele>1826.99</ele>
        <time>2020-05-31T11:18:12.999Z</time>
      </trkpt>
      <trkpt lat="42.90092" lon="0.76076">
        <ele>1826.43</ele>
        <time>2020-05-31T11:18:22.999Z</time>
      </trkpt>
      <trkpt lat="42.90088" lon="0.76065">
        <ele>1827.44</ele>
        <time>2020-05-31T11:18:34.999Z</time>
      </trkpt>
      <trkpt lat="42.90087" lon="0.76052">
        <ele>1828.55</ele>
        <time>2020-05-31T11:18:45.999Z</time>
      </trkpt>
      <trkpt lat="42.90086" lon="0.7604">
        <ele>1828.48</ele>
        <time>2020-05-31T11:18:59.999Z</time>
      </trkpt>
      <trkpt lat="42.90085" lon="0.76028">
        <ele>1827.84</ele>
        <time>2020-05-31T11:19:11.999Z</time>
      </trkpt>
      <trkpt lat="42.90085" lon="0.76014">
        <ele>1826.54</ele>
        <time>2020-05-31T11:19:25.999Z</time>
      </trkpt>
      <trkpt lat="42.90082" lon="0.76002">
        <ele>1823.66</ele>
        <time>2020-05-31T11:19:39.999Z</time>
      </trkpt>
      <trkpt lat="42.90078" lon="0.7599">
        <ele>1821.58</ele>
        <time>2020-05-31T11:19:51.999Z</time>
      </trkpt>
      <trkpt lat="42.90075" lon="0.75979">
        <ele>1819.29</ele>
        <time>2020-05-31T11:20:04.999Z</time>
      </trkpt>
      <trkpt lat="42.90071" lon="0.75968">
        <ele>1816.73</ele>
        <time>2020-05-31T11:20:18.999Z</time>
      </trkpt>
      <trkpt lat="42.90067" lon="0.75956">
        <ele>1812.93</ele>
        <time>2020-05-31T11:20:34.999Z</time>
      </trkpt>
      <trkpt lat="42.90063" lon="0.75944">
        <ele>1809.14</ele>
        <time>2020-05-31T11:20:49.999Z</time>
      </trkpt>
      <trkpt lat="42.90059" lon="0.75934">
        <ele>1806.19</ele>
        <time>2020-05-31T11:21:02.999Z</time>
      </trkpt>
      <trkpt lat="42.90054" lon="0.75923">
        <ele>1803.04</ele>
        <time>2020-05-31T11:21:15.999Z</time>
      </trkpt>
      <trkpt lat="42.90048" lon="0.75912">
        <ele>1800.06</ele>
        <time>2020-05-31T11:21:27.999Z</time>
      </trkpt>
      <trkpt lat="42.90042" lon="0.75903">
        <ele>1797.74</ele>
        <time>2020-05-31T11:21:37.999Z</time>
      </trkpt>
      <trkpt lat="42.90042" lon="0.75889">
        <ele>1794.32</ele>
        <time>2020-05-31T11:21:52.999Z</time>
      </trkpt>
      <trkpt lat="42.90039" lon="0.75878">
        <ele>1788.88</ele>
        <time>2020-05-31T11:22:32.999Z</time>
      </trkpt>
      <trkpt lat="42.90035" lon="0.75866">
        <ele>1786.04</ele>
        <time>2020-05-31T11:22:47.999Z</time>
      </trkpt>
      <trkpt lat="42.90029" lon="0.75855">
        <ele>1783.3</ele>
        <time>2020-05-31T11:22:58.999Z</time>
      </trkpt>
      <trkpt lat="42.90024" lon="0.75845">
        <ele>1779.19</ele>
        <time>2020-05-31T11:23:11.999Z</time>
      </trkpt>
      <trkpt lat="42.90018" lon="0.75835">
        <ele>1775.88</ele>
        <time>2020-05-31T11:23:23.999Z</time>
      </trkpt>
      <trkpt lat="42.90012" lon="0.75825">
        <ele>1770.81</ele>
        <time>2020-05-31T11:23:41.999Z</time>
      </trkpt>
      <trkpt lat="42.90007" lon="0.75814">
        <ele>1768.07</ele>
        <time>2020-05-31T11:23:53.999Z</time>
      </trkpt>
      <trkpt lat="42.90004" lon="0.75803">
        <ele>1766.28</ele>
        <time>2020-05-31T11:24:03.999Z</time>
      </trkpt>
      <trkpt lat="42.89997" lon="0.75794">
        <ele>1764.01</ele>
        <time>2020-05-31T11:24:18.999Z</time>
      </trkpt>
      <trkpt lat="42.89992" lon="0.75783">
        <ele>1760.57</ele>
        <time>2020-05-31T11:24:42.999Z</time>
      </trkpt>
      <trkpt lat="42.89985" lon="0.75775">
        <ele>1758.61</ele>
        <time>2020-05-31T11:24:55.999Z</time>
      </trkpt>
      <trkpt lat="42.89978" lon="0.75765">
        <ele>1757.19</ele>
        <time>2020-05-31T11:25:04.999Z</time>
      </trkpt>
      <trkpt lat="42.89973" lon="0.75755">
        <ele>1755.58</ele>
        <time>2020-05-31T11:25:13.999Z</time>
      </trkpt>
      <trkpt lat="42.89967" lon="0.75744">
        <ele>1754.08</ele>
        <time>2020-05-31T11:25:22.999Z</time>
      </trkpt>
      <trkpt lat="42.89961" lon="0.75734">
        <ele>1753.21</ele>
        <time>2020-05-31T11:25:29.999Z</time>
      </trkpt>
      <trkpt lat="42.89956" lon="0.75723">
        <ele>1752.14</ele>
        <time>2020-05-31T11:25:38.999Z</time>
      </trkpt>
      <trkpt lat="42.89951" lon="0.75712">
        <ele>1751.07</ele>
        <time>2020-05-31T11:25:47.999Z</time>
      </trkpt>
      <trkpt lat="42.89944" lon="0.75704">
        <ele>1750.37</ele>
        <time>2020-05-31T11:25:54.999Z</time>
      </trkpt>
      <trkpt lat="42.89938" lon="0.75694">
        <ele>1749.72</ele>
        <time>2020-05-31T11:26:02.999Z</time>
      </trkpt>
      <trkpt lat="42.89931" lon="0.75683">
        <ele>1749.11</ele>
        <time>2020-05-31T11:26:10.999Z</time>
      </trkpt>
      <trkpt lat="42.89925" lon="0.75674">
        <ele>1748.67</ele>
        <time>2020-05-31T11:26:18.999Z</time>
      </trkpt>
      <trkpt lat="42.8992" lon="0.75662">
        <ele>1748.32</ele>
        <time>2020-05-31T11:26:26.999Z</time>
      </trkpt>
      <trkpt lat="42.89916" lon="0.75651">
        <ele>1748.09</ele>
        <time>2020-05-31T11:26:35.999Z</time>
      </trkpt>
      <trkpt lat="42.89915" lon="0.75638">
        <ele>1748.22</ele>
        <time>2020-05-31T11:26:45.999Z</time>
      </trkpt>
      <trkpt lat="42.8991" lon="0.75626">
        <ele>1748.47</ele>
        <time>2020-05-31T11:26:53.999Z</time>
      </trkpt>
      <trkpt lat="42.89909" lon="0.75613">
        <ele>1748.66</ele>
        <time>2020-05-31T11:27:01.999Z</time>
      </trkpt>
      <trkpt lat="42.89906" lon="0.75601">
        <ele>1749.37</ele>
        <time>2020-05-31T11:27:10.999Z</time>
      </trkpt>
      <trkpt lat="42.899" lon="0.75591">
        <ele>1750.24</ele>
        <time>2020-05-31T11:27:21.999Z</time>
      </trkpt>
      <trkpt lat="42.89893" lon="0.75583">
        <ele>1750.87</ele>
        <time>2020-05-31T11:27:30.999Z</time>
      </trkpt>
      <trkpt lat="42.89887" lon="0.75573">
        <ele>1751.75</ele>
        <time>2020-05-31T11:27:39.999Z</time>
      </trkpt>
      <trkpt lat="42.89882" lon="0.75563">
        <ele>1753.51</ele>
        <time>2020-05-31T11:27:52.999Z</time>
      </trkpt>
      <trkpt lat="42.89874" lon="0.75554">
        <ele>1754.94</ele>
        <time>2020-05-31T11:28:02.999Z</time>
      </trkpt>
      <trkpt lat="42.89869" lon="0.75543">
        <ele>1756.29</ele>
        <time>2020-05-31T11:28:12.999Z</time>
      </trkpt>
      <trkpt lat="42.89862" lon="0.75533">
        <ele>1757.71</ele>
        <time>2020-05-31T11:28:22.999Z</time>
      </trkpt>
      <trkpt lat="42.89855" lon="0.75524">
        <ele>1758.78</ele>
        <time>2020-05-31T11:28:32.999Z</time>
      </trkpt>
      <trkpt lat="42.89853" lon="0.75512">
        <ele>1760.21</ele>
        <time>2020-05-31T11:28:45.999Z</time>
      </trkpt>
      <trkpt lat="42.89848" lon="0.75501">
        <ele>1761.29</ele>
        <time>2020-05-31T11:28:54.999Z</time>
      </trkpt>
      <trkpt lat="42.89843" lon="0.75491">
        <ele>1762.25</ele>
        <time>2020-05-31T11:29:07.999Z</time>
      </trkpt>
      <trkpt lat="42.89839" lon="0.75478">
        <ele>1763.64</ele>
        <time>2020-05-31T11:29:19.999Z</time>
      </trkpt>
      <trkpt lat="42.89833" lon="0.75469">
        <ele>1765.7</ele>
        <time>2020-05-31T11:29:33.999Z</time>
      </trkpt>
      <trkpt lat="42.89831" lon="0.75457">
        <ele>1766.64</ele>
        <time>2020-05-31T11:29:41.999Z</time>
      </trkpt>
      <trkpt lat="42.89833" lon="0.75444">
        <ele>1768.02</ele>
        <time>2020-05-31T11:29:50.999Z</time>
      </trkpt>
      <trkpt lat="42.89837" lon="0.75433">
        <ele>1770.48</ele>
        <time>2020-05-31T11:30:03.999Z</time>
      </trkpt>
      <trkpt lat="42.89838" lon="0.7542">
        <ele>1772.61</ele>
        <time>2020-05-31T11:30:15.999Z</time>
      </trkpt>
      <trkpt lat="42.8984" lon="0.75408">
        <ele>1773.71</ele>
        <time>2020-05-31T11:30:24.999Z</time>
      </trkpt>
      <trkpt lat="42.89847" lon="0.754">
        <ele>1777.69</ele>
        <time>2020-05-31T11:32:56.999Z</time>
      </trkpt>
      <trkpt lat="42.89854" lon="0.75391">
        <ele>1777.7</ele>
        <time>2020-05-31T11:33:05.999Z</time>
      </trkpt>
      <trkpt lat="42.8986" lon="0.7538">
        <ele>1777.48</ele>
        <time>2020-05-31T11:33:13.999Z</time>
      </trkpt>
      <trkpt lat="42.89864" lon="0.75369">
        <ele>1777</ele>
        <time>2020-05-31T11:33:22.999Z</time>
      </trkpt>
      <trkpt lat="42.8987" lon="0.75358">
        <ele>1776.34</ele>
        <time>2020-05-31T11:33:31.999Z</time>
      </trkpt>
      <trkpt lat="42.89876" lon="0.75348">
        <ele>1775.53</ele>
        <time>2020-05-31T11:33:41.999Z</time>
      </trkpt>
      <trkpt lat="42.89883" lon="0.75338">
        <ele>1774.7</ele>
        <time>2020-05-31T11:33:51.999Z</time>
      </trkpt>
      <trkpt lat="42.89888" lon="0.75328">
        <ele>1773.41</ele>
        <time>2020-05-31T11:34:02.999Z</time>
      </trkpt>
      <trkpt lat="42.89893" lon="0.75316">
        <ele>1772.08</ele>
        <time>2020-05-31T11:34:12.999Z</time>
      </trkpt>
      <trkpt lat="42.89897" lon="0.75305">
        <ele>1770.78</ele>
        <time>2020-05-31T11:34:20.999Z</time>
      </trkpt>
      <trkpt lat="42.899" lon="0.75293">
        <ele>1769.34</ele>
        <time>2020-05-31T11:34:28.999Z</time>
      </trkpt>
      <trkpt lat="42.89902" lon="0.7528">
        <ele>1767.24</ele>
        <time>2020-05-31T11:34:38.999Z</time>
      </trkpt>
      <trkpt lat="42.89906" lon="0.75268">
        <ele>1765.32</ele>
        <time>2020-05-31T11:34:47.999Z</time>
      </trkpt>
      <trkpt lat="42.8991" lon="0.75256">
        <ele>1763.38</ele>
        <time>2020-05-31T11:34:56.999Z</time>
      </trkpt>
      <trkpt lat="42.89914" lon="0.75244">
        <ele>1761.72</ele>
        <time>2020-05-31T11:35:04.999Z</time>
      </trkpt>
      <trkpt lat="42.89918" lon="0.75232">
        <ele>1759.77</ele>
        <time>2020-05-31T11:35:14.999Z</time>
      </trkpt>
      <trkpt lat="42.8992" lon="0.7522">
        <ele>1757.64</ele>
        <time>2020-05-31T11:35:24.999Z</time>
      </trkpt>
      <trkpt lat="42.89921" lon="0.75207">
        <ele>1753.95</ele>
        <time>2020-05-31T11:35:38.999Z</time>
      </trkpt>
      <trkpt lat="42.8992" lon="0.75193">
        <ele>1750.71</ele>
        <time>2020-05-31T11:35:49.999Z</time>
      </trkpt>
      <trkpt lat="42.89918" lon="0.75181">
        <ele>1747.75</ele>
        <time>2020-05-31T11:35:59.999Z</time>
      </trkpt>
      <trkpt lat="42.89917" lon="0.75168">
        <ele>1742.81</ele>
        <time>2020-05-31T11:36:14.999Z</time>
      </trkpt>
      <trkpt lat="42.89916" lon="0.75156">
        <ele>1738.94</ele>
        <time>2020-05-31T11:36:25.999Z</time>
      </trkpt>
      <trkpt lat="42.89917" lon="0.75142">
        <ele>1734.6</ele>
        <time>2020-05-31T11:36:38.999Z</time>
      </trkpt>
      <trkpt lat="42.89918" lon="0.75129">
        <ele>1730.72</ele>
        <time>2020-05-31T11:36:50.999Z</time>
      </trkpt>
      <trkpt lat="42.89919" lon="0.75117">
        <ele>1727.36</ele>
        <time>2020-05-31T11:37:02.999Z</time>
      </trkpt>
      <trkpt lat="42.89918" lon="0.75103">
        <ele>1724.66</ele>
        <time>2020-05-31T11:37:13.999Z</time>
      </trkpt>
      <trkpt lat="42.89921" lon="0.75091">
        <ele>1722.8</ele>
        <time>2020-05-31T11:37:22.999Z</time>
      </trkpt>
      <trkpt lat="42.89922" lon="0.75078">
        <ele>1720.84</ele>
        <time>2020-05-31T11:37:32.999Z</time>
      </trkpt>
      <trkpt lat="42.89925" lon="0.75066">
        <ele>1718.31</ele>
        <time>2020-05-31T11:37:44.999Z</time>
      </trkpt>
      <trkpt lat="42.89926" lon="0.75053">
        <ele>1716.55</ele>
        <time>2020-05-31T11:37:53.999Z</time>
      </trkpt>
      <trkpt lat="42.89928" lon="0.75041">
        <ele>1713.54</ele>
        <time>2020-05-31T11:38:09.999Z</time>
      </trkpt>
      <trkpt lat="42.89929" lon="0.75029">
        <ele>1711.28</ele>
        <time>2020-05-31T11:38:20.999Z</time>
      </trkpt>
      <trkpt lat="42.89928" lon="0.75016">
        <ele>1708.76</ele>
        <time>2020-05-31T11:38:32.999Z</time>
      </trkpt>
      <trkpt lat="42.89927" lon="0.75003">
        <ele>1706.29</ele>
        <time>2020-05-31T11:38:45.999Z</time>
      </trkpt>
      <trkpt lat="42.89927" lon="0.7499">
        <ele>1703.42</ele>
        <time>2020-05-31T11:39:04.999Z</time>
      </trkpt>
      <trkpt lat="42.89927" lon="0.74977">
        <ele>1699.77</ele>
        <time>2020-05-31T11:39:18.999Z</time>
      </trkpt>
      <trkpt lat="42.89925" lon="0.74965">
        <ele>1695.67</ele>
        <time>2020-05-31T11:39:36.999Z</time>
      </trkpt>
      <trkpt lat="42.89925" lon="0.74952">
        <ele>1691.09</ele>
        <time>2020-05-31T11:39:52.999Z</time>
      </trkpt>
      <trkpt lat="42.89926" lon="0.74939">
        <ele>1687.21</ele>
        <time>2020-05-31T11:40:05.999Z</time>
      </trkpt>
      <trkpt lat="42.89926" lon="0.74925">
        <ele>1684.5</ele>
        <time>2020-05-31T11:40:15.999Z</time>
      </trkpt>
      <trkpt lat="42.89926" lon="0.74913">
        <ele>1682.4</ele>
        <time>2020-05-31T11:40:23.999Z</time>
      </trkpt>
      <trkpt lat="42.89928" lon="0.749">
        <ele>1678.57</ele>
        <time>2020-05-31T11:40:36.999Z</time>
      </trkpt>
      <trkpt lat="42.89929" lon="0.74887">
        <ele>1675.41</ele>
        <time>2020-05-31T11:40:46.999Z</time>
      </trkpt>
      <trkpt lat="42.8993" lon="0.74874">
        <ele>1672.47</ele>
        <time>2020-05-31T11:40:57.999Z</time>
      </trkpt>
      <trkpt lat="42.89937" lon="0.74865">
        <ele>1667.57</ele>
        <time>2020-05-31T11:41:14.999Z</time>
      </trkpt>
      <trkpt lat="42.89939" lon="0.74852">
        <ele>1665.91</ele>
        <time>2020-05-31T11:41:21.999Z</time>
      </trkpt>
      <trkpt lat="42.89943" lon="0.74841">
        <ele>1662.45</ele>
        <time>2020-05-31T11:41:33.999Z</time>
      </trkpt>
      <trkpt lat="42.89947" lon="0.7483">
        <ele>1660.58</ele>
        <time>2020-05-31T11:41:43.999Z</time>
      </trkpt>
      <trkpt lat="42.89951" lon="0.74817">
        <ele>1658.18</ele>
        <time>2020-05-31T11:41:54.999Z</time>
      </trkpt>
      <trkpt lat="42.89954" lon="0.74805">
        <ele>1654.83</ele>
        <time>2020-05-31T11:42:06.999Z</time>
      </trkpt>
      <trkpt lat="42.89959" lon="0.74792">
        <ele>1651.79</ele>
        <time>2020-05-31T11:42:16.999Z</time>
      </trkpt>
      <trkpt lat="42.89959" lon="0.74779">
        <ele>1645.94</ele>
        <time>2020-05-31T11:42:33.999Z</time>
      </trkpt>
      <trkpt lat="42.89961" lon="0.74767">
        <ele>1643.38</ele>
        <time>2020-05-31T11:42:46.999Z</time>
      </trkpt>
      <trkpt lat="42.89962" lon="0.74754">
        <ele>1642.09</ele>
        <time>2020-05-31T11:42:52.999Z</time>
      </trkpt>
      <trkpt lat="42.89966" lon="0.74741">
        <ele>1640.74</ele>
        <time>2020-05-31T11:42:58.999Z</time>
      </trkpt>
      <trkpt lat="42.8997" lon="0.7473">
        <ele>1638.98</ele>
        <time>2020-05-31T11:43:05.999Z</time>
      </trkpt>
      <trkpt lat="42.89974" lon="0.74718">
        <ele>1637.24</ele>
        <time>2020-05-31T11:43:13.999Z</time>
      </trkpt>
      <trkpt lat="42.89972" lon="0.74706">
        <ele>1635.28</ele>
        <time>2020-05-31T11:45:02.999Z</time>
      </trkpt>
      <trkpt lat="42.89981" lon="0.74699">
        <ele>1632.39</ele>
        <time>2020-05-31T11:45:18.999Z</time>
      </trkpt>
      <trkpt lat="42.89984" lon="0.74687">
        <ele>1631.15</ele>
        <time>2020-05-31T11:45:27.999Z</time>
      </trkpt>
      <trkpt lat="42.89987" lon="0.74675">
        <ele>1629.87</ele>
        <time>2020-05-31T11:45:37.999Z</time>
      </trkpt>
      <trkpt lat="42.89993" lon="0.74664">
        <ele>1629.62</ele>
        <time>2020-05-31T11:45:48.999Z</time>
      </trkpt>
      <trkpt lat="42.89998" lon="0.74652">
        <ele>1629.97</ele>
        <time>2020-05-31T11:45:57.999Z</time>
      </trkpt>
      <trkpt lat="42.90004" lon="0.74643">
        <ele>1629.89</ele>
        <time>2020-05-31T11:46:05.999Z</time>
      </trkpt>
      <trkpt lat="42.90004" lon="0.74629">
        <ele>1629.01</ele>
        <time>2020-05-31T11:46:15.999Z</time>
      </trkpt>
      <trkpt lat="42.90006" lon="0.74615">
        <ele>1628.55</ele>
        <time>2020-05-31T11:46:20.999Z</time>
      </trkpt>
      <trkpt lat="42.9001" lon="0.74603">
        <ele>1628.25</ele>
        <time>2020-05-31T11:46:30.999Z</time>
      </trkpt>
      <trkpt lat="42.90015" lon="0.74593">
        <ele>1628.09</ele>
        <time>2020-05-31T11:46:39.999Z</time>
      </trkpt>
      <trkpt lat="42.90014" lon="0.7458">
        <ele>1626.45</ele>
        <time>2020-05-31T11:46:52.999Z</time>
      </trkpt>
      <trkpt lat="42.90015" lon="0.74567">
        <ele>1624.37</ele>
        <time>2020-05-31T11:47:09.999Z</time>
      </trkpt>
      <trkpt lat="42.90016" lon="0.74555">
        <ele>1621.23</ele>
        <time>2020-05-31T11:47:23.999Z</time>
      </trkpt>
      <trkpt lat="42.90016" lon="0.74541">
        <ele>1617.75</ele>
        <time>2020-05-31T11:47:36.999Z</time>
      </trkpt>
      <trkpt lat="42.9001" lon="0.74531">
        <ele>1615.87</ele>
        <time>2020-05-31T11:47:42.999Z</time>
      </trkpt>
      <trkpt lat="42.90007" lon="0.74519">
        <ele>1614.27</ele>
        <time>2020-05-31T11:47:49.999Z</time>
      </trkpt>
      <trkpt lat="42.90008" lon="0.74507">
        <ele>1612.54</ele>
        <time>2020-05-31T11:48:04.999Z</time>
      </trkpt>
      <trkpt lat="42.90011" lon="0.74494">
        <ele>1611.63</ele>
        <time>2020-05-31T11:48:17.999Z</time>
      </trkpt>
      <trkpt lat="42.9001" lon="0.7448">
        <ele>1611.23</ele>
        <time>2020-05-31T11:48:23.999Z</time>
      </trkpt>
      <trkpt lat="42.90009" lon="0.74468">
        <ele>1611.15</ele>
        <time>2020-05-31T11:48:30.999Z</time>
      </trkpt>
      <trkpt lat="42.90011" lon="0.74456">
        <ele>1610.88</ele>
        <time>2020-05-31T11:48:46.999Z</time>
      </trkpt>
      <trkpt lat="42.90015" lon="0.74444">
        <ele>1609.83</ele>
        <time>2020-05-31T11:48:59.999Z</time>
      </trkpt>
      <trkpt lat="42.90021" lon="0.74434">
        <ele>1608.46</ele>
        <time>2020-05-31T11:49:09.999Z</time>
      </trkpt>
      <trkpt lat="42.90021" lon="0.74421">
        <ele>1607.09</ele>
        <time>2020-05-31T11:49:23.999Z</time>
      </trkpt>
      <trkpt lat="42.90018" lon="0.74407">
        <ele>1604.55</ele>
        <time>2020-05-31T11:49:37.999Z</time>
      </trkpt>
      <trkpt lat="42.90013" lon="0.74397">
        <ele>1603.54</ele>
        <time>2020-05-31T11:49:46.999Z</time>
      </trkpt>
      <trkpt lat="42.9001" lon="0.74385">
        <ele>1601.01</ele>
        <time>2020-05-31T11:51:39.999Z</time>
      </trkpt>
      <trkpt lat="42.9001" lon="0.74373">
        <ele>1599.45</ele>
        <time>2020-05-31T11:51:48.999Z</time>
      </trkpt>
      <trkpt lat="42.90014" lon="0.74362">
        <ele>1597.77</ele>
        <time>2020-05-31T11:52:01.999Z</time>
      </trkpt>
      <trkpt lat="42.90014" lon="0.74348">
        <ele>1596.65</ele>
        <time>2020-05-31T11:52:11.999Z</time>
      </trkpt>
      <trkpt lat="42.90013" lon="0.74335">
        <ele>1595.71</ele>
        <time>2020-05-31T11:52:31.999Z</time>
      </trkpt>
      <trkpt lat="42.90014" lon="0.74322">
        <ele>1594.31</ele>
        <time>2020-05-31T11:52:39.999Z</time>
      </trkpt>
      <trkpt lat="42.90011" lon="0.7431">
        <ele>1592.63</ele>
        <time>2020-05-31T11:52:47.999Z</time>
      </trkpt>
      <trkpt lat="42.90009" lon="0.74297">
        <ele>1589.44</ele>
        <time>2020-05-31T11:53:07.999Z</time>
      </trkpt>
      <trkpt lat="42.90011" lon="0.74285">
        <ele>1587.39</ele>
        <time>2020-05-31T11:53:14.999Z</time>
      </trkpt>
      <trkpt lat="42.90013" lon="0.74271">
        <ele>1584.12</ele>
        <time>2020-05-31T11:53:29.999Z</time>
      </trkpt>
      <trkpt lat="42.90015" lon="0.74259">
        <ele>1582.84</ele>
        <time>2020-05-31T11:53:35.999Z</time>
      </trkpt>
      <trkpt lat="42.90013" lon="0.74245">
        <ele>1580.91</ele>
        <time>2020-05-31T11:53:48.999Z</time>
      </trkpt>
      <trkpt lat="42.90016" lon="0.74233">
        <ele>1578.81</ele>
        <time>2020-05-31T11:53:55.999Z</time>
      </trkpt>
      <trkpt lat="42.90018" lon="0.7422">
        <ele>1578.1</ele>
        <time>2020-05-31T11:54:05.999Z</time>
      </trkpt>
      <trkpt lat="42.9001" lon="0.74211">
        <ele>1577.18</ele>
        <time>2020-05-31T11:54:22.999Z</time>
      </trkpt>
      <trkpt lat="42.90004" lon="0.74202">
        <ele>1575.98</ele>
        <time>2020-05-31T11:54:29.999Z</time>
      </trkpt>
      <trkpt lat="42.9" lon="0.74189">
        <ele>1574.11</ele>
        <time>2020-05-31T11:54:39.999Z</time>
      </trkpt>
      <trkpt lat="42.89999" lon="0.74177">
        <ele>1573.61</ele>
        <time>2020-05-31T11:54:45.999Z</time>
      </trkpt>
      <trkpt lat="42.89993" lon="0.74166">
        <ele>1574.03</ele>
        <time>2020-05-31T11:54:52.999Z</time>
      </trkpt>
      <trkpt lat="42.89987" lon="0.74157">
        <ele>1574.92</ele>
        <time>2020-05-31T11:55:00.999Z</time>
      </trkpt>
      <trkpt lat="42.8998" lon="0.74148">
        <ele>1574.73</ele>
        <time>2020-05-31T11:55:10.999Z</time>
      </trkpt>
      <trkpt lat="42.89973" lon="0.74139">
        <ele>1574.25</ele>
        <time>2020-05-31T11:55:21.999Z</time>
      </trkpt>
      <trkpt lat="42.89967" lon="0.74129">
        <ele>1573.8</ele>
        <time>2020-05-31T11:55:30.999Z</time>
      </trkpt>
      <trkpt lat="42.89959" lon="0.74119">
        <ele>1573.58</ele>
        <time>2020-05-31T11:55:37.999Z</time>
      </trkpt>
      <trkpt lat="42.89954" lon="0.7411">
        <ele>1574.13</ele>
        <time>2020-05-31T11:55:44.999Z</time>
      </trkpt>
      <trkpt lat="42.8995" lon="0.74098">
        <ele>1575</ele>
        <time>2020-05-31T11:55:54.999Z</time>
      </trkpt>
      <trkpt lat="42.89944" lon="0.74089">
        <ele>1574.27</ele>
        <time>2020-05-31T11:56:04.999Z</time>
      </trkpt>
      <trkpt lat="42.89938" lon="0.74078">
        <ele>1572.9</ele>
        <time>2020-05-31T11:56:14.999Z</time>
      </trkpt>
      <trkpt lat="42.89932" lon="0.74068">
        <ele>1571.62</ele>
        <time>2020-05-31T11:56:25.999Z</time>
      </trkpt>
      <trkpt lat="42.89927" lon="0.74056">
        <ele>1569.28</ele>
        <time>2020-05-31T11:56:38.999Z</time>
      </trkpt>
      <trkpt lat="42.89924" lon="0.74043">
        <ele>1568.08</ele>
        <time>2020-05-31T11:56:48.999Z</time>
      </trkpt>
      <trkpt lat="42.89921" lon="0.74031">
        <ele>1566.92</ele>
        <time>2020-05-31T11:56:59.999Z</time>
      </trkpt>
      <trkpt lat="42.89918" lon="0.74019">
        <ele>1565.41</ele>
        <time>2020-05-31T11:57:13.999Z</time>
      </trkpt>
      <trkpt lat="42.89919" lon="0.74006">
        <ele>1563.55</ele>
        <time>2020-05-31T11:57:22.999Z</time>
      </trkpt>
      <trkpt lat="42.8992" lon="0.73994">
        <ele>1560.39</ele>
        <time>2020-05-31T11:57:32.999Z</time>
      </trkpt>
      <trkpt lat="42.89918" lon="0.73982">
        <ele>1556.06</ele>
        <time>2020-05-31T11:57:43.999Z</time>
      </trkpt>
      <trkpt lat="42.89915" lon="0.7397">
        <ele>1553.31</ele>
        <time>2020-05-31T11:57:50.999Z</time>
      </trkpt>
      <trkpt lat="42.89913" lon="0.73958">
        <ele>1551.47</ele>
        <time>2020-05-31T11:57:56.999Z</time>
      </trkpt>
      <trkpt lat="42.89911" lon="0.73945">
        <ele>1549.29</ele>
        <time>2020-05-31T11:58:07.999Z</time>
      </trkpt>
      <trkpt lat="42.89911" lon="0.73932">
        <ele>1547.47</ele>
        <time>2020-05-31T11:58:13.999Z</time>
      </trkpt>
      <trkpt lat="42.89911" lon="0.73919">
        <ele>1544.99</ele>
        <time>2020-05-31T11:58:21.999Z</time>
      </trkpt>
      <trkpt lat="42.8991" lon="0.73904">
        <ele>1542.56</ele>
        <time>2020-05-31T11:58:30.999Z</time>
      </trkpt>
      <trkpt lat="42.8991" lon="0.73891">
        <ele>1540.72</ele>
        <time>2020-05-31T11:58:38.999Z</time>
      </trkpt>
      <trkpt lat="42.89908" lon="0.73879">
        <ele>1538.35</ele>
        <time>2020-05-31T11:58:49.999Z</time>
      </trkpt>
      <trkpt lat="42.89907" lon="0.73866">
        <ele>1537</ele>
        <time>2020-05-31T11:58:57.999Z</time>
      </trkpt>
      <trkpt lat="42.89905" lon="0.73853">
        <ele>1535.59</ele>
        <time>2020-05-31T11:59:08.999Z</time>
      </trkpt>
      <trkpt lat="42.89902" lon="0.7384">
        <ele>1534.06</ele>
        <time>2020-05-31T11:59:16.999Z</time>
      </trkpt>
      <trkpt lat="42.89899" lon="0.73827">
        <ele>1532.23</ele>
        <time>2020-05-31T11:59:26.999Z</time>
      </trkpt>
      <trkpt lat="42.89898" lon="0.73814">
        <ele>1528.46</ele>
        <time>2020-05-31T11:59:37.999Z</time>
      </trkpt>
      <trkpt lat="42.89897" lon="0.738">
        <ele>1526.54</ele>
        <time>2020-05-31T11:59:44.999Z</time>
      </trkpt>
      <trkpt lat="42.89898" lon="0.73787">
        <ele>1524.15</ele>
        <time>2020-05-31T11:59:54.999Z</time>
      </trkpt>
      <trkpt lat="42.89896" lon="0.73774">
        <ele>1522.22</ele>
        <time>2020-05-31T12:00:06.999Z</time>
      </trkpt>
      <trkpt lat="42.89896" lon="0.73761">
        <ele>1519.48</ele>
        <time>2020-05-31T12:00:17.999Z</time>
      </trkpt>
      <trkpt lat="42.89892" lon="0.73749">
        <ele>1517.45</ele>
        <time>2020-05-31T12:00:25.999Z</time>
      </trkpt>
      <trkpt lat="42.89888" lon="0.73737">
        <ele>1515.74</ele>
        <time>2020-05-31T12:00:32.999Z</time>
      </trkpt>
      <trkpt lat="42.89887" lon="0.73724">
        <ele>1513.93</ele>
        <time>2020-05-31T12:00:39.999Z</time>
      </trkpt>
      <trkpt lat="42.89886" lon="0.7371">
        <ele>1511.43</ele>
        <time>2020-05-31T12:00:45.999Z</time>
      </trkpt>
      <trkpt lat="42.89883" lon="0.73696">
        <ele>1508.15</ele>
        <time>2020-05-31T12:00:54.999Z</time>
      </trkpt>
      <trkpt lat="42.89885" lon="0.73683">
        <ele>1505.06</ele>
        <time>2020-05-31T12:01:04.999Z</time>
      </trkpt>
      <trkpt lat="42.89883" lon="0.73671">
        <ele>1503.03</ele>
        <time>2020-05-31T12:01:10.999Z</time>
      </trkpt>
      <trkpt lat="42.89884" lon="0.73658">
        <ele>1501.49</ele>
        <time>2020-05-31T12:01:16.999Z</time>
      </trkpt>
      <trkpt lat="42.89887" lon="0.73646">
        <ele>1500.11</ele>
        <time>2020-05-31T12:01:24.999Z</time>
      </trkpt>
      <trkpt lat="42.8989" lon="0.73634">
        <ele>1498.42</ele>
        <time>2020-05-31T12:01:34.999Z</time>
      </trkpt>
      <trkpt lat="42.89892" lon="0.73621">
        <ele>1496.77</ele>
        <time>2020-05-31T12:01:42.999Z</time>
      </trkpt>
      <trkpt lat="42.89893" lon="0.73608">
        <ele>1494.54</ele>
        <time>2020-05-31T12:01:50.999Z</time>
      </trkpt>
      <trkpt lat="42.89892" lon="0.73595">
        <ele>1492.37</ele>
        <time>2020-05-31T12:01:58.999Z</time>
      </trkpt>
      <trkpt lat="42.89893" lon="0.73582">
        <ele>1490.17</ele>
        <time>2020-05-31T12:02:06.999Z</time>
      </trkpt>
      <trkpt lat="42.89893" lon="0.73569">
        <ele>1488.39</ele>
        <time>2020-05-31T12:02:13.999Z</time>
      </trkpt>
      <trkpt lat="42.89895" lon="0.73556">
        <ele>1485.84</ele>
        <time>2020-05-31T12:02:23.999Z</time>
      </trkpt>
      <trkpt lat="42.89894" lon="0.73543">
        <ele>1483.07</ele>
        <time>2020-05-31T12:02:33.999Z</time>
      </trkpt>
      <trkpt lat="42.89899" lon="0.7353">
        <ele>1479.42</ele>
        <time>2020-05-31T12:02:44.999Z</time>
      </trkpt>
      <trkpt lat="42.89902" lon="0.73518">
        <ele>1476.24</ele>
        <time>2020-05-31T12:02:52.999Z</time>
      </trkpt>
      <trkpt lat="42.89905" lon="0.73506">
        <ele>1472.43</ele>
        <time>2020-05-31T12:03:01.999Z</time>
      </trkpt>
      <trkpt lat="42.89906" lon="0.73494">
        <ele>1468.86</ele>
        <time>2020-05-31T12:03:11.999Z</time>
      </trkpt>
      <trkpt lat="42.89909" lon="0.73481">
        <ele>1465.65</ele>
        <time>2020-05-31T12:03:20.999Z</time>
      </trkpt>
      <trkpt lat="42.89912" lon="0.73467">
        <ele>1463.56</ele>
        <time>2020-05-31T12:03:27.999Z</time>
      </trkpt>
      <trkpt lat="42.89915" lon="0.73455">
        <ele>1461.53</ele>
        <time>2020-05-31T12:03:34.999Z</time>
      </trkpt>
      <trkpt lat="42.89917" lon="0.73443">
        <ele>1459.63</ele>
        <time>2020-05-31T12:03:41.999Z</time>
      </trkpt>
      <trkpt lat="42.89922" lon="0.7343">
        <ele>1457.93</ele>
        <time>2020-05-31T12:03:48.999Z</time>
      </trkpt>
      <trkpt lat="42.89924" lon="0.73418">
        <ele>1457.02</ele>
        <time>2020-05-31T12:03:56.999Z</time>
      </trkpt>
      <trkpt lat="42.89926" lon="0.73406">
        <ele>1456.2</ele>
        <time>2020-05-31T12:04:06.999Z</time>
      </trkpt>
      <trkpt lat="42.89929" lon="0.73393">
        <ele>1455.53</ele>
        <time>2020-05-31T12:04:14.999Z</time>
      </trkpt>
      <trkpt lat="42.89935" lon="0.73382">
        <ele>1455.23</ele>
        <time>2020-05-31T12:04:19.999Z</time>
      </trkpt>
      <trkpt lat="42.89943" lon="0.73375">
        <ele>1455.07</ele>
        <time>2020-05-31T12:04:26.999Z</time>
      </trkpt>
      <trkpt lat="42.89953" lon="0.73371">
        <ele>1454.65</ele>
        <time>2020-05-31T12:04:32.999Z</time>
      </trkpt>
      <trkpt lat="42.89961" lon="0.73364">
        <ele>1453.62</ele>
        <time>2020-05-31T12:04:41.999Z</time>
      </trkpt>
      <trkpt lat="42.89964" lon="0.73351">
        <ele>1451.97</ele>
        <time>2020-05-31T12:04:51.999Z</time>
      </trkpt>
      <trkpt lat="42.89964" lon="0.73338">
        <ele>1450.92</ele>
        <time>2020-05-31T12:04:57.999Z</time>
      </trkpt>
      <trkpt lat="42.89964" lon="0.73326">
        <ele>1449.64</ele>
        <time>2020-05-31T12:05:04.999Z</time>
      </trkpt>
      <trkpt lat="42.89969" lon="0.73315">
        <ele>1447.08</ele>
        <time>2020-05-31T12:05:16.999Z</time>
      </trkpt>
      <trkpt lat="42.8997" lon="0.73301">
        <ele>1444</ele>
        <time>2020-05-31T12:05:25.999Z</time>
      </trkpt>
      <trkpt lat="42.8997" lon="0.73288">
        <ele>1441.45</ele>
        <time>2020-05-31T12:05:32.999Z</time>
      </trkpt>
      <trkpt lat="42.89973" lon="0.73276">
        <ele>1438.99</ele>
        <time>2020-05-31T12:05:39.999Z</time>
      </trkpt>
      <trkpt lat="42.89976" lon="0.73263">
        <ele>1437.81</ele>
        <time>2020-05-31T12:05:44.999Z</time>
      </trkpt>
      <trkpt lat="42.89979" lon="0.73251">
        <ele>1436.34</ele>
        <time>2020-05-31T12:05:50.999Z</time>
      </trkpt>
      <trkpt lat="42.89984" lon="0.7324">
        <ele>1435.11</ele>
        <time>2020-05-31T12:05:57.999Z</time>
      </trkpt>
      <trkpt lat="42.89988" lon="0.73229">
        <ele>1434.43</ele>
        <time>2020-05-31T12:06:04.999Z</time>
      </trkpt>
      <trkpt lat="42.89993" lon="0.73218">
        <ele>1434.32</ele>
        <time>2020-05-31T12:06:12.999Z</time>
      </trkpt>
      <trkpt lat="42.89994" lon="0.73205">
        <ele>1434.09</ele>
        <time>2020-05-31T12:06:27.999Z</time>
      </trkpt>
      <trkpt lat="42.89993" lon="0.73193">
        <ele>1434.02</ele>
        <time>2020-05-31T12:06:35.999Z</time>
      </trkpt>
      <trkpt lat="42.89995" lon="0.7318">
        <ele>1433.28</ele>
        <time>2020-05-31T12:06:43.999Z</time>
      </trkpt>
      <trkpt lat="42.89999" lon="0.73168">
        <ele>1432.29</ele>
        <time>2020-05-31T12:06:49.999Z</time>
      </trkpt>
      <trkpt lat="42.90006" lon="0.73158">
        <ele>1431.32</ele>
        <time>2020-05-31T12:06:57.999Z</time>
      </trkpt>
      <trkpt lat="42.90015" lon="0.73155">
        <ele>1430.59</ele>
        <time>2020-05-31T12:07:03.999Z</time>
      </trkpt>
      <trkpt lat="42.90018" lon="0.73144">
        <ele>1428.81</ele>
        <time>2020-05-31T12:07:13.999Z</time>
      </trkpt>
      <trkpt lat="42.9002" lon="0.73131">
        <ele>1426.34</ele>
        <time>2020-05-31T12:07:21.999Z</time>
      </trkpt>
      <trkpt lat="42.90024" lon="0.7312">
        <ele>1424.8</ele>
        <time>2020-05-31T12:07:28.999Z</time>
      </trkpt>
      <trkpt lat="42.90025" lon="0.73106">
        <ele>1422.95</ele>
        <time>2020-05-31T12:07:39.999Z</time>
      </trkpt>
      <trkpt lat="42.90025" lon="0.73092">
        <ele>1421.29</ele>
        <time>2020-05-31T12:07:47.999Z</time>
      </trkpt>
      <trkpt lat="42.90029" lon="0.73079">
        <ele>1420.16</ele>
        <time>2020-05-31T12:07:56.999Z</time>
      </trkpt>
      <trkpt lat="42.90036" lon="0.73069">
        <ele>1419.54</ele>
        <time>2020-05-31T12:08:02.999Z</time>
      </trkpt>
      <trkpt lat="42.90038" lon="0.73055">
        <ele>1419.41</ele>
        <time>2020-05-31T12:08:08.999Z</time>
      </trkpt>
      <trkpt lat="42.9004" lon="0.73043">
        <ele>1419.57</ele>
        <time>2020-05-31T12:08:16.999Z</time>
      </trkpt>
      <trkpt lat="42.90042" lon="0.7303">
        <ele>1419.25</ele>
        <time>2020-05-31T12:08:24.999Z</time>
      </trkpt>
      <trkpt lat="42.90044" lon="0.73017">
        <ele>1418.56</ele>
        <time>2020-05-31T12:08:32.999Z</time>
      </trkpt>
      <trkpt lat="42.90047" lon="0.73005">
        <ele>1417.56</ele>
        <time>2020-05-31T12:08:41.999Z</time>
      </trkpt>
      <trkpt lat="42.90053" lon="0.72994">
        <ele>1416.44</ele>
        <time>2020-05-31T12:08:49.999Z</time>
      </trkpt>
      <trkpt lat="42.90062" lon="0.72989">
        <ele>1414.95</ele>
        <time>2020-05-31T12:08:57.999Z</time>
      </trkpt>
      <trkpt lat="42.90069" lon="0.72982">
        <ele>1413.01</ele>
        <time>2020-05-31T12:09:05.999Z</time>
      </trkpt>
      <trkpt lat="42.90072" lon="0.72969">
        <ele>1410.82</ele>
        <time>2020-05-31T12:09:16.999Z</time>
      </trkpt>
      <trkpt lat="42.90073" lon="0.72957">
        <ele>1409.8</ele>
        <time>2020-05-31T12:09:23.999Z</time>
      </trkpt>
      <trkpt lat="42.90077" lon="0.72945">
        <ele>1407.52</ele>
        <time>2020-05-31T12:09:42.999Z</time>
      </trkpt>
      <trkpt lat="42.90075" lon="0.72933">
        <ele>1404.29</ele>
        <time>2020-05-31T12:09:54.999Z</time>
      </trkpt>
      <trkpt lat="42.90075" lon="0.7292">
        <ele>1402.82</ele>
        <time>2020-05-31T12:10:03.999Z</time>
      </trkpt>
      <trkpt lat="42.90075" lon="0.72906">
        <ele>1402.03</ele>
        <time>2020-05-31T12:10:12.999Z</time>
      </trkpt>
      <trkpt lat="42.90075" lon="0.72893">
        <ele>1400.57</ele>
        <time>2020-05-31T12:10:21.999Z</time>
      </trkpt>
      <trkpt lat="42.9008" lon="0.72881">
        <ele>1399.92</ele>
        <time>2020-05-31T12:10:29.999Z</time>
      </trkpt>
      <trkpt lat="42.90088" lon="0.72873">
        <ele>1399.62</ele>
        <time>2020-05-31T12:10:36.999Z</time>
      </trkpt>
      <trkpt lat="42.90098" lon="0.72868">
        <ele>1399.31</ele>
        <time>2020-05-31T12:10:45.999Z</time>
      </trkpt>
      <trkpt lat="42.90104" lon="0.7286">
        <ele>1399.19</ele>
        <time>2020-05-31T12:10:52.999Z</time>
      </trkpt>
      <trkpt lat="42.90111" lon="0.72849">
        <ele>1398.57</ele>
        <time>2020-05-31T12:11:04.999Z</time>
      </trkpt>
      <trkpt lat="42.9012" lon="0.72845">
        <ele>1397.12</ele>
        <time>2020-05-31T12:11:14.999Z</time>
      </trkpt>
      <trkpt lat="42.90129" lon="0.72849">
        <ele>1394.06</ele>
        <time>2020-05-31T12:11:29.999Z</time>
      </trkpt>
      <trkpt lat="42.90136" lon="0.72861">
        <ele>1390.4</ele>
        <time>2020-05-31T12:11:38.999Z</time>
      </trkpt>
      <trkpt lat="42.90143" lon="0.7287">
        <ele>1388.55</ele>
        <time>2020-05-31T12:11:43.999Z</time>
      </trkpt>
      <trkpt lat="42.90145" lon="0.72884">
        <ele>1385.53</ele>
        <time>2020-05-31T12:11:52.999Z</time>
      </trkpt>
      <trkpt lat="42.90147" lon="0.72897">
        <ele>1384.03</ele>
        <time>2020-05-31T12:11:58.999Z</time>
      </trkpt>
      <trkpt lat="42.90149" lon="0.72909">
        <ele>1382.31</ele>
        <time>2020-05-31T12:12:08.999Z</time>
      </trkpt>
      <trkpt lat="42.90154" lon="0.72922">
        <ele>1381.48</ele>
        <time>2020-05-31T12:12:15.999Z</time>
      </trkpt>
      <trkpt lat="42.90156" lon="0.72935">
        <ele>1380.23</ele>
        <time>2020-05-31T12:12:30.999Z</time>
      </trkpt>
      <trkpt lat="42.90159" lon="0.72948">
        <ele>1379.9</ele>
        <time>2020-05-31T12:12:39.999Z</time>
      </trkpt>
      <trkpt lat="42.90166" lon="0.72958">
        <ele>1380.19</ele>
        <time>2020-05-31T12:12:45.999Z</time>
      </trkpt>
      <trkpt lat="42.90167" lon="0.7297">
        <ele>1381.22</ele>
        <time>2020-05-31T12:12:52.999Z</time>
      </trkpt>
      <trkpt lat="42.90168" lon="0.72982">
        <ele>1382.2</ele>
        <time>2020-05-31T12:13:03.999Z</time>
      </trkpt>
      <trkpt lat="42.9017" lon="0.72995">
        <ele>1382.37</ele>
        <time>2020-05-31T12:13:09.999Z</time>
      </trkpt>
      <trkpt lat="42.90173" lon="0.73006">
        <ele>1381.21</ele>
        <time>2020-05-31T12:13:22.999Z</time>
      </trkpt>
      <trkpt lat="42.90172" lon="0.73019">
        <ele>1381.07</ele>
        <time>2020-05-31T12:13:29.999Z</time>
      </trkpt>
      <trkpt lat="42.90172" lon="0.73032">
        <ele>1380.74</ele>
        <time>2020-05-31T12:13:39.999Z</time>
      </trkpt>
      <trkpt lat="42.90169" lon="0.73045">
        <ele>1379.57</ele>
        <time>2020-05-31T12:13:48.999Z</time>
      </trkpt>
      <trkpt lat="42.90163" lon="0.73055">
        <ele>1378.44</ele>
        <time>2020-05-31T12:13:56.999Z</time>
      </trkpt>
      <trkpt lat="42.90165" lon="0.73067">
        <ele>1378.27</ele>
        <time>2020-05-31T12:14:20.999Z</time>
      </trkpt>
      <trkpt lat="42.90163" lon="0.7308">
        <ele>1379.33</ele>
        <time>2020-05-31T12:14:30.999Z</time>
      </trkpt>
      <trkpt lat="42.90166" lon="0.73093">
        <ele>1379.33</ele>
        <time>2020-05-31T12:14:38.999Z</time>
      </trkpt>
      <trkpt lat="42.9017" lon="0.73106">
        <ele>1379.07</ele>
        <time>2020-05-31T12:14:47.999Z</time>
      </trkpt>
      <trkpt lat="42.9017" lon="0.73119">
        <ele>1379.13</ele>
        <time>2020-05-31T12:14:59.999Z</time>
      </trkpt>
      <trkpt lat="42.9017" lon="0.73132">
        <ele>1379.59</ele>
        <time>2020-05-31T12:15:07.999Z</time>
      </trkpt>
      <trkpt lat="42.90168" lon="0.73146">
        <ele>1379.58</ele>
        <time>2020-05-31T12:15:15.999Z</time>
      </trkpt>
      <trkpt lat="42.9017" lon="0.73159">
        <ele>1379.42</ele>
        <time>2020-05-31T12:15:23.999Z</time>
      </trkpt>
      <trkpt lat="42.90173" lon="0.73172">
        <ele>1379.37</ele>
        <time>2020-05-31T12:15:30.999Z</time>
      </trkpt>
      <trkpt lat="42.90171" lon="0.73185">
        <ele>1379.36</ele>
        <time>2020-05-31T12:15:41.999Z</time>
      </trkpt>
      <trkpt lat="42.90171" lon="0.73198">
        <ele>1379.33</ele>
        <time>2020-05-31T12:15:50.999Z</time>
      </trkpt>
      <trkpt lat="42.90171" lon="0.73212">
        <ele>1379.38</ele>
        <time>2020-05-31T12:15:57.999Z</time>
      </trkpt>
      <trkpt lat="42.90168" lon="0.73226">
        <ele>1379.45</ele>
        <time>2020-05-31T12:16:05.999Z</time>
      </trkpt>
      <trkpt lat="42.90169" lon="0.73238">
        <ele>1379.71</ele>
        <time>2020-05-31T12:16:12.999Z</time>
      </trkpt>
      <trkpt lat="42.90168" lon="0.73251">
        <ele>1379.79</ele>
        <time>2020-05-31T12:16:18.999Z</time>
      </trkpt>
      <trkpt lat="42.90169" lon="0.73264">
        <ele>1380.01</ele>
        <time>2020-05-31T12:16:24.999Z</time>
      </trkpt>
      <trkpt lat="42.90174" lon="0.73277">
        <ele>1380.14</ele>
        <time>2020-05-31T12:16:31.999Z</time>
      </trkpt>
      <trkpt lat="42.90177" lon="0.73291">
        <ele>1380.36</ele>
        <time>2020-05-31T12:16:38.999Z</time>
      </trkpt>
      <trkpt lat="42.90181" lon="0.73302">
        <ele>1380.92</ele>
        <time>2020-05-31T12:16:45.999Z</time>
      </trkpt>
      <trkpt lat="42.90185" lon="0.73314">
        <ele>1381.84</ele>
        <time>2020-05-31T12:16:54.999Z</time>
      </trkpt>
      <trkpt lat="42.90189" lon="0.73325">
        <ele>1382.32</ele>
        <time>2020-05-31T12:17:04.999Z</time>
      </trkpt>
      <trkpt lat="42.90191" lon="0.73337">
        <ele>1382.53</ele>
        <time>2020-05-31T12:17:14.999Z</time>
      </trkpt>
      <trkpt lat="42.90197" lon="0.73348">
        <ele>1382.39</ele>
        <time>2020-05-31T12:17:21.999Z</time>
      </trkpt>
      <trkpt lat="42.902" lon="0.7336">
        <ele>1382.28</ele>
        <time>2020-05-31T12:17:31.999Z</time>
      </trkpt>
      <trkpt lat="42.90207" lon="0.73372">
        <ele>1382.27</ele>
        <time>2020-05-31T12:17:37.999Z</time>
      </trkpt>
      <trkpt lat="42.90214" lon="0.73381">
        <ele>1382.44</ele>
        <time>2020-05-31T12:17:44.999Z</time>
      </trkpt>
      <trkpt lat="42.90221" lon="0.73388">
        <ele>1382.51</ele>
        <time>2020-05-31T12:17:53.999Z</time>
      </trkpt>
      <trkpt lat="42.90229" lon="0.73397">
        <ele>1382.75</ele>
        <time>2020-05-31T12:18:00.999Z</time>
      </trkpt>
      <trkpt lat="42.90236" lon="0.73405">
        <ele>1382.84</ele>
        <time>2020-05-31T12:18:09.999Z</time>
      </trkpt>
      <trkpt lat="42.90238" lon="0.73417">
        <ele>1382.83</ele>
        <time>2020-05-31T12:18:25.999Z</time>
      </trkpt>
      <trkpt lat="42.90243" lon="0.73427">
        <ele>1383.05</ele>
        <time>2020-05-31T12:18:39.999Z</time>
      </trkpt>
      <trkpt lat="42.90247" lon="0.73438">
        <ele>1382.53</ele>
        <time>2020-05-31T12:18:50.999Z</time>
      </trkpt>
      <trkpt lat="42.90257" lon="0.73443">
        <ele>1383.03</ele>
        <time>2020-05-31T12:18:56.999Z</time>
      </trkpt>
      <trkpt lat="42.9026" lon="0.73455">
        <ele>1383.7</ele>
        <time>2020-05-31T12:19:11.999Z</time>
      </trkpt>
      <trkpt lat="42.90266" lon="0.73464">
        <ele>1383.4</ele>
        <time>2020-05-31T12:19:18.999Z</time>
      </trkpt>
      <trkpt lat="42.90271" lon="0.73476">
        <ele>1382.06</ele>
        <time>2020-05-31T12:19:29.999Z</time>
      </trkpt>
      <trkpt lat="42.90277" lon="0.73486">
        <ele>1380</ele>
        <time>2020-05-31T12:19:38.999Z</time>
      </trkpt>
      <trkpt lat="42.90281" lon="0.73499">
        <ele>1377.08</ele>
        <time>2020-05-31T12:19:49.999Z</time>
      </trkpt>
      <trkpt lat="42.90282" lon="0.73511">
        <ele>1370.58</ele>
        <time>2020-05-31T12:20:04.999Z</time>
      </trkpt>
      <trkpt lat="42.9028" lon="0.73523">
        <ele>1367.13</ele>
        <time>2020-05-31T12:20:14.999Z</time>
      </trkpt>
      <trkpt lat="42.9028" lon="0.73535">
        <ele>1364.67</ele>
        <time>2020-05-31T12:20:22.999Z</time>
      </trkpt>
      <trkpt lat="42.9028" lon="0.73548">
        <ele>1361.91</ele>
        <time>2020-05-31T12:20:30.999Z</time>
      </trkpt>
      <trkpt lat="42.90281" lon="0.73561">
        <ele>1359.93</ele>
        <time>2020-05-31T12:20:37.999Z</time>
      </trkpt>
      <trkpt lat="42.90285" lon="0.73571">
        <ele>1358.59</ele>
        <time>2020-05-31T12:20:43.999Z</time>
      </trkpt>
      <trkpt lat="42.90295" lon="0.73577">
        <ele>1357.97</ele>
        <time>2020-05-31T12:20:48.999Z</time>
      </trkpt>
      <trkpt lat="42.90301" lon="0.73586">
        <ele>1357.68</ele>
        <time>2020-05-31T12:20:55.999Z</time>
      </trkpt>
      <trkpt lat="42.90304" lon="0.73598">
        <ele>1357.77</ele>
        <time>2020-05-31T12:21:01.999Z</time>
      </trkpt>
      <trkpt lat="42.90305" lon="0.73611">
        <ele>1358.15</ele>
        <time>2020-05-31T12:21:10.999Z</time>
      </trkpt>
      <trkpt lat="42.90303" lon="0.73623">
        <ele>1358.26</ele>
        <time>2020-05-31T12:21:15.999Z</time>
      </trkpt>
      <trkpt lat="42.90303" lon="0.73636">
        <ele>1358.94</ele>
        <time>2020-05-31T12:21:26.999Z</time>
      </trkpt>
      <trkpt lat="42.903" lon="0.73648">
        <ele>1359.47</ele>
        <time>2020-05-31T12:21:34.999Z</time>
      </trkpt>
      <trkpt lat="42.903" lon="0.73661">
        <ele>1360.36</ele>
        <time>2020-05-31T12:21:41.999Z</time>
      </trkpt>
      <trkpt lat="42.90299" lon="0.73674">
        <ele>1361.19</ele>
        <time>2020-05-31T12:21:48.999Z</time>
      </trkpt>
      <trkpt lat="42.90297" lon="0.73686">
        <ele>1361.86</ele>
        <time>2020-05-31T12:21:53.999Z</time>
      </trkpt>
      <trkpt lat="42.90295" lon="0.73699">
        <ele>1362.67</ele>
        <time>2020-05-31T12:22:01.999Z</time>
      </trkpt>
      <trkpt lat="42.90299" lon="0.7371">
        <ele>1362.93</ele>
        <time>2020-05-31T12:22:07.999Z</time>
      </trkpt>
      <trkpt lat="42.903" lon="0.73723">
        <ele>1363.59</ele>
        <time>2020-05-31T12:22:15.999Z</time>
      </trkpt>
      <trkpt lat="42.90301" lon="0.73736">
        <ele>1366.59</ele>
        <time>2020-05-31T12:22:30.999Z</time>
      </trkpt>
      <trkpt lat="42.90305" lon="0.73747">
        <ele>1368.16</ele>
        <time>2020-05-31T12:22:41.999Z</time>
      </trkpt>
      <trkpt lat="42.90305" lon="0.73759">
        <ele>1369.46</ele>
        <time>2020-05-31T12:22:47.999Z</time>
      </trkpt>
      <trkpt lat="42.90309" lon="0.73772">
        <ele>1371.85</ele>
        <time>2020-05-31T12:22:53.999Z</time>
      </trkpt>
      <trkpt lat="42.90311" lon="0.73786">
        <ele>1374.81</ele>
        <time>2020-05-31T12:23:00.999Z</time>
      </trkpt>
      <trkpt lat="42.9031" lon="0.738">
        <ele>1379.32</ele>
        <time>2020-05-31T12:23:12.999Z</time>
      </trkpt>
      <trkpt lat="42.90312" lon="0.73814">
        <ele>1381.12</ele>
        <time>2020-05-31T12:23:22.999Z</time>
      </trkpt>
      <trkpt lat="42.90312" lon="0.73826">
        <ele>1383.37</ele>
        <time>2020-05-31T12:23:29.999Z</time>
      </trkpt>
      <trkpt lat="42.90314" lon="0.73839">
        <ele>1386.02</ele>
        <time>2020-05-31T12:23:37.999Z</time>
      </trkpt>
      <trkpt lat="42.90313" lon="0.73852">
        <ele>1387.89</ele>
        <time>2020-05-31T12:23:43.999Z</time>
      </trkpt>
      <trkpt lat="42.90314" lon="0.73864">
        <ele>1389.78</ele>
        <time>2020-05-31T12:23:49.999Z</time>
      </trkpt>
      <trkpt lat="42.90316" lon="0.73877">
        <ele>1392.05</ele>
        <time>2020-05-31T12:23:57.999Z</time>
      </trkpt>
      <trkpt lat="42.90312" lon="0.73888">
        <ele>1394.09</ele>
        <time>2020-05-31T12:24:04.999Z</time>
      </trkpt>
      <trkpt lat="42.90307" lon="0.73899">
        <ele>1397.58</ele>
        <time>2020-05-31T12:24:15.999Z</time>
      </trkpt>
      <trkpt lat="42.90302" lon="0.7391">
        <ele>1399.17</ele>
        <time>2020-05-31T12:24:22.999Z</time>
      </trkpt>
      <trkpt lat="42.90296" lon="0.73921">
        <ele>1400.64</ele>
        <time>2020-05-31T12:24:30.999Z</time>
      </trkpt>
      <trkpt lat="42.90296" lon="0.73933">
        <ele>1401.6</ele>
        <time>2020-05-31T12:24:41.999Z</time>
      </trkpt>
      <trkpt lat="42.90292" lon="0.73945">
        <ele>1402.3</ele>
        <time>2020-05-31T12:24:52.999Z</time>
      </trkpt>
      <trkpt lat="42.90288" lon="0.73956">
        <ele>1402.15</ele>
        <time>2020-05-31T12:25:00.999Z</time>
      </trkpt>
      <trkpt lat="42.90283" lon="0.73967">
        <ele>1401.82</ele>
        <time>2020-05-31T12:25:06.999Z</time>
      </trkpt>
      <trkpt lat="42.9028" lon="0.7398">
        <ele>1401.46</ele>
        <time>2020-05-31T12:25:12.999Z</time>
      </trkpt>
      <trkpt lat="42.90279" lon="0.73992">
        <ele>1400.41</ele>
        <time>2020-05-31T12:25:21.999Z</time>
      </trkpt>
      <trkpt lat="42.90283" lon="0.74005">
        <ele>1399.84</ele>
        <time>2020-05-31T12:25:30.999Z</time>
      </trkpt>
      <trkpt lat="42.90284" lon="0.7402">
        <ele>1400.02</ele>
        <time>2020-05-31T12:25:34.999Z</time>
      </trkpt>
      <trkpt lat="42.90285" lon="0.74033">
        <ele>1400.8</ele>
        <time>2020-05-31T12:25:43.999Z</time>
      </trkpt>
      <trkpt lat="42.90286" lon="0.74046">
        <ele>1401.17</ele>
        <time>2020-05-31T12:25:51.999Z</time>
      </trkpt>
      <trkpt lat="42.90287" lon="0.74059">
        <ele>1401.15</ele>
        <time>2020-05-31T12:25:58.999Z</time>
      </trkpt>
      <trkpt lat="42.90284" lon="0.74071">
        <ele>1401</ele>
        <time>2020-05-31T12:26:10.999Z</time>
      </trkpt>
      <trkpt lat="42.90283" lon="0.74085">
        <ele>1400.43</ele>
        <time>2020-05-31T12:26:18.999Z</time>
      </trkpt>
      <trkpt lat="42.90284" lon="0.74098">
        <ele>1399.56</ele>
        <time>2020-05-31T12:26:25.999Z</time>
      </trkpt>
      <trkpt lat="42.90287" lon="0.7411">
        <ele>1399.03</ele>
        <time>2020-05-31T12:26:31.999Z</time>
      </trkpt>
      <trkpt lat="42.90289" lon="0.74124">
        <ele>1398.3</ele>
        <time>2020-05-31T12:26:38.999Z</time>
      </trkpt>
      <trkpt lat="42.90292" lon="0.74136">
        <ele>1398.03</ele>
        <time>2020-05-31T12:26:51.999Z</time>
      </trkpt>
      <trkpt lat="42.90294" lon="0.74148">
        <ele>1397.43</ele>
        <time>2020-05-31T12:27:04.999Z</time>
      </trkpt>
      <trkpt lat="42.90294" lon="0.74162">
        <ele>1397.06</ele>
        <time>2020-05-31T12:27:09.999Z</time>
      </trkpt>
      <trkpt lat="42.90298" lon="0.74176">
        <ele>1396.91</ele>
        <time>2020-05-31T12:27:15.999Z</time>
      </trkpt>
      <trkpt lat="42.90299" lon="0.74189">
        <ele>1396.76</ele>
        <time>2020-05-31T12:27:22.999Z</time>
      </trkpt>
      <trkpt lat="42.90299" lon="0.74202">
        <ele>1396.53</ele>
        <time>2020-05-31T12:27:30.999Z</time>
      </trkpt>
      <trkpt lat="42.90298" lon="0.74215">
        <ele>1396.43</ele>
        <time>2020-05-31T12:27:38.999Z</time>
      </trkpt>
      <trkpt lat="42.90299" lon="0.74227">
        <ele>1396.05</ele>
        <time>2020-05-31T12:27:46.999Z</time>
      </trkpt>
      <trkpt lat="42.90305" lon="0.74239">
        <ele>1395.76</ele>
        <time>2020-05-31T12:27:53.999Z</time>
      </trkpt>
      <trkpt lat="42.90311" lon="0.7425">
        <ele>1395.58</ele>
        <time>2020-05-31T12:27:59.999Z</time>
      </trkpt>
      <trkpt lat="42.90313" lon="0.74262">
        <ele>1395.62</ele>
        <time>2020-05-31T12:28:05.999Z</time>
      </trkpt>
      <trkpt lat="42.90318" lon="0.74273">
        <ele>1395.79</ele>
        <time>2020-05-31T12:28:11.999Z</time>
      </trkpt>
      <trkpt lat="42.90323" lon="0.74284">
        <ele>1396.3</ele>
        <time>2020-05-31T12:28:18.999Z</time>
      </trkpt>
      <trkpt lat="42.90328" lon="0.74294">
        <ele>1397.42</ele>
        <time>2020-05-31T12:28:24.999Z</time>
      </trkpt>
      <trkpt lat="42.90335" lon="0.74303">
        <ele>1398.35</ele>
        <time>2020-05-31T12:28:31.999Z</time>
      </trkpt>
      <trkpt lat="42.90341" lon="0.74313">
        <ele>1400.95</ele>
        <time>2020-05-31T12:28:39.999Z</time>
      </trkpt>
      <trkpt lat="42.90346" lon="0.74324">
        <ele>1403.03</ele>
        <time>2020-05-31T12:28:46.999Z</time>
      </trkpt>
      <trkpt lat="42.90349" lon="0.74337">
        <ele>1406.45</ele>
        <time>2020-05-31T12:28:55.999Z</time>
      </trkpt>
      <trkpt lat="42.90351" lon="0.7435">
        <ele>1408.15</ele>
        <time>2020-05-31T12:29:02.999Z</time>
      </trkpt>
      <trkpt lat="42.90359" lon="0.74358">
        <ele>1410.69</ele>
        <time>2020-05-31T12:29:11.999Z</time>
      </trkpt>
      <trkpt lat="42.90363" lon="0.74369">
        <ele>1413.12</ele>
        <time>2020-05-31T12:29:18.999Z</time>
      </trkpt>
      <trkpt lat="42.90363" lon="0.74383">
        <ele>1415.7</ele>
        <time>2020-05-31T12:29:26.999Z</time>
      </trkpt>
      <trkpt lat="42.90362" lon="0.74397">
        <ele>1417.81</ele>
        <time>2020-05-31T12:29:32.999Z</time>
      </trkpt>
      <trkpt lat="42.90362" lon="0.74411">
        <ele>1420.14</ele>
        <time>2020-05-31T12:29:43.999Z</time>
      </trkpt>
      <trkpt lat="42.90362" lon="0.74425">
        <ele>1421.38</ele>
        <time>2020-05-31T12:29:51.999Z</time>
      </trkpt>
      <trkpt lat="42.90364" lon="0.74437">
        <ele>1422.84</ele>
        <time>2020-05-31T12:30:02.999Z</time>
      </trkpt>
      <trkpt lat="42.90365" lon="0.7445">
        <ele>1423.45</ele>
        <time>2020-05-31T12:30:10.999Z</time>
      </trkpt>
      <trkpt lat="42.90364" lon="0.74463">
        <ele>1423.88</ele>
        <time>2020-05-31T12:30:18.999Z</time>
      </trkpt>
      <trkpt lat="42.9036" lon="0.74476">
        <ele>1424.14</ele>
        <time>2020-05-31T12:30:23.999Z</time>
      </trkpt>
      <trkpt lat="42.90357" lon="0.74489">
        <ele>1424.59</ele>
        <time>2020-05-31T12:30:28.999Z</time>
      </trkpt>
      <trkpt lat="42.90361" lon="0.745">
        <ele>1425.76</ele>
        <time>2020-05-31T12:30:35.999Z</time>
      </trkpt>
      <trkpt lat="42.90364" lon="0.74511">
        <ele>1427.7</ele>
        <time>2020-05-31T12:30:46.999Z</time>
      </trkpt>
      <trkpt lat="42.90364" lon="0.74526">
        <ele>1429.25</ele>
        <time>2020-05-31T12:30:53.999Z</time>
      </trkpt>
      <trkpt lat="42.90362" lon="0.74539">
        <ele>1430.9</ele>
        <time>2020-05-31T12:31:04.999Z</time>
      </trkpt>
      <trkpt lat="42.9036" lon="0.74552">
        <ele>1431.17</ele>
        <time>2020-05-31T12:31:10.999Z</time>
      </trkpt>
      <trkpt lat="42.90363" lon="0.74564">
        <ele>1431.75</ele>
        <time>2020-05-31T12:31:17.999Z</time>
      </trkpt>
      <trkpt lat="42.9037" lon="0.74575">
        <ele>1434.33</ele>
        <time>2020-05-31T12:31:25.999Z</time>
      </trkpt>
      <trkpt lat="42.90374" lon="0.74587">
        <ele>1436.94</ele>
        <time>2020-05-31T12:31:33.999Z</time>
      </trkpt>
      <trkpt lat="42.90377" lon="0.746">
        <ele>1439.4</ele>
        <time>2020-05-31T12:31:41.999Z</time>
      </trkpt>
      <trkpt lat="42.90375" lon="0.74612">
        <ele>1441.52</ele>
        <time>2020-05-31T12:31:53.999Z</time>
      </trkpt>
      <trkpt lat="42.90375" lon="0.74625">
        <ele>1442.44</ele>
        <time>2020-05-31T12:31:58.999Z</time>
      </trkpt>
      <trkpt lat="42.90376" lon="0.74638">
        <ele>1443.64</ele>
        <time>2020-05-31T12:32:03.999Z</time>
      </trkpt>
      <trkpt lat="42.90373" lon="0.74651">
        <ele>1446.66</ele>
        <time>2020-05-31T12:32:20.999Z</time>
      </trkpt>
      <trkpt lat="42.90376" lon="0.74664">
        <ele>1446.9</ele>
        <time>2020-05-31T12:32:31.999Z</time>
      </trkpt>
      <trkpt lat="42.90376" lon="0.74676">
        <ele>1446.6</ele>
        <time>2020-05-31T12:32:39.999Z</time>
      </trkpt>
      <trkpt lat="42.90375" lon="0.7469">
        <ele>1445.96</ele>
        <time>2020-05-31T12:32:47.999Z</time>
      </trkpt>
      <trkpt lat="42.90374" lon="0.74703">
        <ele>1446.18</ele>
        <time>2020-05-31T12:32:55.999Z</time>
      </trkpt>
      <trkpt lat="42.90371" lon="0.74715">
        <ele>1446.84</ele>
        <time>2020-05-31T12:33:06.999Z</time>
      </trkpt>
      <trkpt lat="42.90368" lon="0.74727">
        <ele>1448.46</ele>
        <time>2020-05-31T12:33:17.999Z</time>
      </trkpt>
      <trkpt lat="42.90363" lon="0.74741">
        <ele>1449.8</ele>
        <time>2020-05-31T12:33:32.999Z</time>
      </trkpt>
      <trkpt lat="42.90356" lon="0.74749">
        <ele>1450.33</ele>
        <time>2020-05-31T12:33:40.999Z</time>
      </trkpt>
      <trkpt lat="42.90347" lon="0.74756">
        <ele>1450.22</ele>
        <time>2020-05-31T12:33:49.999Z</time>
      </trkpt>
      <trkpt lat="42.90339" lon="0.74761">
        <ele>1449.74</ele>
        <time>2020-05-31T12:33:55.999Z</time>
      </trkpt>
      <trkpt lat="42.90331" lon="0.7477">
        <ele>1449.53</ele>
        <time>2020-05-31T12:34:01.999Z</time>
      </trkpt>
      <trkpt lat="42.90327" lon="0.74783">
        <ele>1449.43</ele>
        <time>2020-05-31T12:34:08.999Z</time>
      </trkpt>
      <trkpt lat="42.90322" lon="0.74795">
        <ele>1449.46</ele>
        <time>2020-05-31T12:34:14.999Z</time>
      </trkpt>
      <trkpt lat="42.90315" lon="0.74802">
        <ele>1449.71</ele>
        <time>2020-05-31T12:34:26.999Z</time>
      </trkpt>
      <trkpt lat="42.90307" lon="0.74809">
        <ele>1450.06</ele>
        <time>2020-05-31T12:34:34.999Z</time>
      </trkpt>
      <trkpt lat="42.903" lon="0.74818">
        <ele>1450.47</ele>
        <time>2020-05-31T12:34:43.999Z</time>
      </trkpt>
      <trkpt lat="42.90298" lon="0.7483">
        <ele>1450.24</ele>
        <time>2020-05-31T12:36:28.999Z</time>
      </trkpt>
      <trkpt lat="42.903" lon="0.74842">
        <ele>1450.57</ele>
        <time>2020-05-31T12:36:35.999Z</time>
      </trkpt>
      <trkpt lat="42.90299" lon="0.74858">
        <ele>1450.92</ele>
        <time>2020-05-31T12:36:41.999Z</time>
      </trkpt>
      <trkpt lat="42.903" lon="0.7487">
        <ele>1451.89</ele>
        <time>2020-05-31T12:36:48.999Z</time>
      </trkpt>
      <trkpt lat="42.903" lon="0.74885">
        <ele>1452.58</ele>
        <time>2020-05-31T12:36:58.999Z</time>
      </trkpt>
      <trkpt lat="42.90303" lon="0.74899">
        <ele>1453.03</ele>
        <time>2020-05-31T12:37:05.999Z</time>
      </trkpt>
      <trkpt lat="42.90305" lon="0.74912">
        <ele>1454.12</ele>
        <time>2020-05-31T12:37:13.999Z</time>
      </trkpt>
      <trkpt lat="42.90306" lon="0.74925">
        <ele>1455.29</ele>
        <time>2020-05-31T12:37:22.999Z</time>
      </trkpt>
      <trkpt lat="42.90309" lon="0.74937">
        <ele>1455.75</ele>
        <time>2020-05-31T12:37:31.999Z</time>
      </trkpt>
      <trkpt lat="42.90314" lon="0.74947">
        <ele>1456.08</ele>
        <time>2020-05-31T12:37:36.999Z</time>
      </trkpt>
      <trkpt lat="42.9032" lon="0.74957">
        <ele>1457.16</ele>
        <time>2020-05-31T12:37:44.999Z</time>
      </trkpt>
      <trkpt lat="42.90323" lon="0.7497">
        <ele>1457.17</ele>
        <time>2020-05-31T12:37:53.999Z</time>
      </trkpt>
      <trkpt lat="42.90328" lon="0.74981">
        <ele>1456.74</ele>
        <time>2020-05-31T12:38:00.999Z</time>
      </trkpt>
      <trkpt lat="42.90334" lon="0.7499">
        <ele>1456.49</ele>
        <time>2020-05-31T12:38:09.999Z</time>
      </trkpt>
      <trkpt lat="42.90339" lon="0.75002">
        <ele>1456.19</ele>
        <time>2020-05-31T12:38:16.999Z</time>
      </trkpt>
      <trkpt lat="42.90343" lon="0.75013">
        <ele>1455.99</ele>
        <time>2020-05-31T12:38:25.999Z</time>
      </trkpt>
      <trkpt lat="42.90345" lon="0.75026">
        <ele>1456.39</ele>
        <time>2020-05-31T12:38:33.999Z</time>
      </trkpt>
      <trkpt lat="42.90349" lon="0.75038">
        <ele>1455.99</ele>
        <time>2020-05-31T12:38:43.999Z</time>
      </trkpt>
      <trkpt lat="42.90353" lon="0.75052">
        <ele>1455.61</ele>
        <time>2020-05-31T12:38:48.999Z</time>
      </trkpt>
      <trkpt lat="42.9036" lon="0.75061">
        <ele>1456.09</ele>
        <time>2020-05-31T12:38:57.999Z</time>
      </trkpt>
      <trkpt lat="42.90366" lon="0.75072">
        <ele>1457.05</ele>
        <time>2020-05-31T12:39:03.999Z</time>
      </trkpt>
      <trkpt lat="42.90371" lon="0.75082">
        <ele>1458.62</ele>
        <time>2020-05-31T12:39:11.999Z</time>
      </trkpt>
      <trkpt lat="42.90375" lon="0.75094">
        <ele>1459.74</ele>
        <time>2020-05-31T12:39:18.999Z</time>
      </trkpt>
      <trkpt lat="42.90378" lon="0.75107">
        <ele>1460.83</ele>
        <time>2020-05-31T12:39:28.999Z</time>
      </trkpt>
      <trkpt lat="42.90376" lon="0.75119">
        <ele>1461.1</ele>
        <time>2020-05-31T12:39:40.999Z</time>
      </trkpt>
      <trkpt lat="42.90372" lon="0.75131">
        <ele>1460.99</ele>
        <time>2020-05-31T12:39:52.999Z</time>
      </trkpt>
      <trkpt lat="42.9037" lon="0.75145">
        <ele>1460.1</ele>
        <time>2020-05-31T12:40:07.999Z</time>
      </trkpt>
      <trkpt lat="42.90369" lon="0.75157">
        <ele>1459.4</ele>
        <time>2020-05-31T12:40:16.999Z</time>
      </trkpt>
      <trkpt lat="42.9037" lon="0.75172">
        <ele>1458.82</ele>
        <time>2020-05-31T12:40:26.999Z</time>
      </trkpt>
      <trkpt lat="42.90368" lon="0.75186">
        <ele>1458.77</ele>
        <time>2020-05-31T12:40:31.999Z</time>
      </trkpt>
      <trkpt lat="42.90368" lon="0.75199">
        <ele>1458.96</ele>
        <time>2020-05-31T12:40:36.999Z</time>
      </trkpt>
      <trkpt lat="42.90369" lon="0.75211">
        <ele>1459.17</ele>
        <time>2020-05-31T12:40:41.999Z</time>
      </trkpt>
      <trkpt lat="42.90362" lon="0.7522">
        <ele>1459.64</ele>
        <time>2020-05-31T12:40:51.999Z</time>
      </trkpt>
      <trkpt lat="42.90358" lon="0.75232">
        <ele>1460.13</ele>
        <time>2020-05-31T12:40:56.999Z</time>
      </trkpt>
      <trkpt lat="42.90355" lon="0.75244">
        <ele>1460.65</ele>
        <time>2020-05-31T12:41:03.999Z</time>
      </trkpt>
      <trkpt lat="42.90354" lon="0.75257">
        <ele>1461.06</ele>
        <time>2020-05-31T12:41:09.999Z</time>
      </trkpt>
      <trkpt lat="42.90355" lon="0.7527">
        <ele>1462</ele>
        <time>2020-05-31T12:41:20.999Z</time>
      </trkpt>
      <trkpt lat="42.90356" lon="0.75285">
        <ele>1462.09</ele>
        <time>2020-05-31T12:41:40.999Z</time>
      </trkpt>
      <trkpt lat="42.90352" lon="0.75297">
        <ele>1462.16</ele>
        <time>2020-05-31T12:41:45.999Z</time>
      </trkpt>
      <trkpt lat="42.9035" lon="0.75311">
        <ele>1462.39</ele>
        <time>2020-05-31T12:41:54.999Z</time>
      </trkpt>
      <trkpt lat="42.90349" lon="0.75323">
        <ele>1462.53</ele>
        <time>2020-05-31T12:41:59.999Z</time>
      </trkpt>
      <trkpt lat="42.90352" lon="0.75336">
        <ele>1462.77</ele>
        <time>2020-05-31T12:42:05.999Z</time>
      </trkpt>
      <trkpt lat="42.90355" lon="0.75348">
        <ele>1463.13</ele>
        <time>2020-05-31T12:42:09.999Z</time>
      </trkpt>
      <trkpt lat="42.90358" lon="0.7536">
        <ele>1464.04</ele>
        <time>2020-05-31T12:42:20.999Z</time>
      </trkpt>
      <trkpt lat="42.90364" lon="0.75371">
        <ele>1464.56</ele>
        <time>2020-05-31T12:42:29.999Z</time>
      </trkpt>
      <trkpt lat="42.90371" lon="0.7538">
        <ele>1465.81</ele>
        <time>2020-05-31T12:42:40.999Z</time>
      </trkpt>
      <trkpt lat="42.90377" lon="0.75392">
        <ele>1467.69</ele>
        <time>2020-05-31T12:42:51.999Z</time>
      </trkpt>
      <trkpt lat="42.90383" lon="0.75401">
        <ele>1468.72</ele>
        <time>2020-05-31T12:43:01.999Z</time>
      </trkpt>
      <trkpt lat="42.90391" lon="0.75409">
        <ele>1469.33</ele>
        <time>2020-05-31T12:43:10.999Z</time>
      </trkpt>
      <trkpt lat="42.90398" lon="0.75416">
        <ele>1469.89</ele>
        <time>2020-05-31T12:43:21.999Z</time>
      </trkpt>
      <trkpt lat="42.90407" lon="0.7542">
        <ele>1470.57</ele>
        <time>2020-05-31T12:43:27.999Z</time>
      </trkpt>
      <trkpt lat="42.90415" lon="0.75427">
        <ele>1471.86</ele>
        <time>2020-05-31T12:43:36.999Z</time>
      </trkpt>
      <trkpt lat="42.90423" lon="0.75435">
        <ele>1473.23</ele>
        <time>2020-05-31T12:43:50.999Z</time>
      </trkpt>
      <trkpt lat="42.90428" lon="0.75445">
        <ele>1473.35</ele>
        <time>2020-05-31T12:43:57.999Z</time>
      </trkpt>
      <trkpt lat="42.90435" lon="0.75454">
        <ele>1473.45</ele>
        <time>2020-05-31T12:44:09.999Z</time>
      </trkpt>
      <trkpt lat="42.90442" lon="0.75464">
        <ele>1472.8</ele>
        <time>2020-05-31T12:44:16.999Z</time>
      </trkpt>
      <trkpt lat="42.90447" lon="0.75474">
        <ele>1471.66</ele>
        <time>2020-05-31T12:44:24.999Z</time>
      </trkpt>
      <trkpt lat="42.90455" lon="0.75481">
        <ele>1471.51</ele>
        <time>2020-05-31T12:44:31.999Z</time>
      </trkpt>
      <trkpt lat="42.90464" lon="0.75487">
        <ele>1471.45</ele>
        <time>2020-05-31T12:44:39.999Z</time>
      </trkpt>
      <trkpt lat="42.90473" lon="0.75493">
        <ele>1471.7</ele>
        <time>2020-05-31T12:44:45.999Z</time>
      </trkpt>
      <trkpt lat="42.90481" lon="0.75499">
        <ele>1472.24</ele>
        <time>2020-05-31T12:44:56.999Z</time>
      </trkpt>
      <trkpt lat="42.90489" lon="0.75507">
        <ele>1472.46</ele>
        <time>2020-05-31T12:45:07.999Z</time>
      </trkpt>
      <trkpt lat="42.90494" lon="0.75518">
        <ele>1472.88</ele>
        <time>2020-05-31T12:45:15.999Z</time>
      </trkpt>
      <trkpt lat="42.905" lon="0.75528">
        <ele>1472.41</ele>
        <time>2020-05-31T12:45:23.999Z</time>
      </trkpt>
      <trkpt lat="42.90505" lon="0.75541">
        <ele>1471.45</ele>
        <time>2020-05-31T12:45:30.999Z</time>
      </trkpt>
      <trkpt lat="42.9051" lon="0.75552">
        <ele>1471.29</ele>
        <time>2020-05-31T12:45:36.999Z</time>
      </trkpt>
      <trkpt lat="42.90517" lon="0.75559">
        <ele>1470.93</ele>
        <time>2020-05-31T12:45:46.999Z</time>
      </trkpt>
      <trkpt lat="42.90523" lon="0.75571">
        <ele>1470.6</ele>
        <time>2020-05-31T12:45:56.999Z</time>
      </trkpt>
      <trkpt lat="42.90528" lon="0.75582">
        <ele>1470.17</ele>
        <time>2020-05-31T12:46:04.999Z</time>
      </trkpt>
      <trkpt lat="42.90537" lon="0.75588">
        <ele>1470.27</ele>
        <time>2020-05-31T12:46:11.999Z</time>
      </trkpt>
      <trkpt lat="42.90544" lon="0.75598">
        <ele>1469.94</ele>
        <time>2020-05-31T12:46:21.999Z</time>
      </trkpt>
      <trkpt lat="42.90551" lon="0.75607">
        <ele>1469.78</ele>
        <time>2020-05-31T12:46:28.999Z</time>
      </trkpt>
      <trkpt lat="42.90557" lon="0.75619">
        <ele>1468.97</ele>
        <time>2020-05-31T12:46:36.999Z</time>
      </trkpt>
      <trkpt lat="42.90564" lon="0.75629">
        <ele>1468.55</ele>
        <time>2020-05-31T12:46:43.999Z</time>
      </trkpt>
      <trkpt lat="42.90567" lon="0.75643">
        <ele>1467.88</ele>
        <time>2020-05-31T12:46:55.999Z</time>
      </trkpt>
      <trkpt lat="42.90573" lon="0.75654">
        <ele>1467</ele>
        <time>2020-05-31T12:47:04.999Z</time>
      </trkpt>
      <trkpt lat="42.90578" lon="0.75666">
        <ele>1466.3</ele>
        <time>2020-05-31T12:47:11.999Z</time>
      </trkpt>
      <trkpt lat="42.90581" lon="0.75678">
        <ele>1464.93</ele>
        <time>2020-05-31T12:47:19.999Z</time>
      </trkpt>
      <trkpt lat="42.90588" lon="0.75688">
        <ele>1462.87</ele>
        <time>2020-05-31T12:47:29.999Z</time>
      </trkpt>
      <trkpt lat="42.90596" lon="0.75696">
        <ele>1462.16</ele>
        <time>2020-05-31T12:47:35.999Z</time>
      </trkpt>
      <trkpt lat="42.90601" lon="0.75706">
        <ele>1461.67</ele>
        <time>2020-05-31T12:47:41.999Z</time>
      </trkpt>
      <trkpt lat="42.90609" lon="0.75714">
        <ele>1461.46</ele>
        <time>2020-05-31T12:47:48.999Z</time>
      </trkpt>
      <trkpt lat="42.90616" lon="0.75723">
        <ele>1462.14</ele>
        <time>2020-05-31T12:47:56.999Z</time>
      </trkpt>
      <trkpt lat="42.90624" lon="0.75733">
        <ele>1462.83</ele>
        <time>2020-05-31T12:48:06.999Z</time>
      </trkpt>
      <trkpt lat="42.90633" lon="0.75739">
        <ele>1463.58</ele>
        <time>2020-05-31T12:48:13.999Z</time>
      </trkpt>
      <trkpt lat="42.90642" lon="0.75738">
        <ele>1464.94</ele>
        <time>2020-05-31T12:48:18.999Z</time>
      </trkpt>
      <trkpt lat="42.90652" lon="0.75744">
        <ele>1467.44</ele>
        <time>2020-05-31T12:48:24.999Z</time>
      </trkpt>
      <trkpt lat="42.9066" lon="0.75748">
        <ele>1470.6</ele>
        <time>2020-05-31T12:48:30.999Z</time>
      </trkpt>
      <trkpt lat="42.90668" lon="0.75757">
        <ele>1474.65</ele>
        <time>2020-05-31T12:48:38.999Z</time>
      </trkpt>
      <trkpt lat="42.9067" lon="0.75771">
        <ele>1476.98</ele>
        <time>2020-05-31T12:48:50.999Z</time>
      </trkpt>
      <trkpt lat="42.90673" lon="0.75782">
        <ele>1478.91</ele>
        <time>2020-05-31T12:48:57.999Z</time>
      </trkpt>
      <trkpt lat="42.90677" lon="0.75794">
        <ele>1480.48</ele>
        <time>2020-05-31T12:49:05.999Z</time>
      </trkpt>
      <trkpt lat="42.90683" lon="0.75803">
        <ele>1481.04</ele>
        <time>2020-05-31T12:49:11.999Z</time>
      </trkpt>
      <trkpt lat="42.90689" lon="0.75813">
        <ele>1481.5</ele>
        <time>2020-05-31T12:49:19.999Z</time>
      </trkpt>
      <trkpt lat="42.90696" lon="0.75821">
        <ele>1481.97</ele>
        <time>2020-05-31T12:49:29.999Z</time>
      </trkpt>
      <trkpt lat="42.90703" lon="0.75832">
        <ele>1482.36</ele>
        <time>2020-05-31T12:49:36.999Z</time>
      </trkpt>
      <trkpt lat="42.90708" lon="0.75844">
        <ele>1481.86</ele>
        <time>2020-05-31T12:49:47.999Z</time>
      </trkpt>
      <trkpt lat="42.90716" lon="0.75852">
        <ele>1481.92</ele>
        <time>2020-05-31T12:49:54.999Z</time>
      </trkpt>
      <trkpt lat="42.90725" lon="0.75859">
        <ele>1482.54</ele>
        <time>2020-05-31T12:50:03.999Z</time>
      </trkpt>
      <trkpt lat="42.90733" lon="0.75866">
        <ele>1483.47</ele>
        <time>2020-05-31T12:50:12.999Z</time>
      </trkpt>
      <trkpt lat="42.9074" lon="0.75875">
        <ele>1484.71</ele>
        <time>2020-05-31T12:50:20.999Z</time>
      </trkpt>
      <trkpt lat="42.90748" lon="0.75883">
        <ele>1485.49</ele>
        <time>2020-05-31T12:50:28.999Z</time>
      </trkpt>
      <trkpt lat="42.90755" lon="0.75891">
        <ele>1485.72</ele>
        <time>2020-05-31T12:50:37.999Z</time>
      </trkpt>
      <trkpt lat="42.90759" lon="0.75902">
        <ele>1485.43</ele>
        <time>2020-05-31T12:50:44.999Z</time>
      </trkpt>
      <trkpt lat="42.90764" lon="0.75912">
        <ele>1485</ele>
        <time>2020-05-31T12:50:52.999Z</time>
      </trkpt>
      <trkpt lat="42.90769" lon="0.75924">
        <ele>1484.04</ele>
        <time>2020-05-31T12:51:05.999Z</time>
      </trkpt>
      <trkpt lat="42.90777" lon="0.75932">
        <ele>1483.05</ele>
        <time>2020-05-31T12:51:12.999Z</time>
      </trkpt>
      <trkpt lat="42.90784" lon="0.75941">
        <ele>1482.36</ele>
        <time>2020-05-31T12:51:20.999Z</time>
      </trkpt>
      <trkpt lat="42.90789" lon="0.75952">
        <ele>1481.76</ele>
        <time>2020-05-31T12:51:27.999Z</time>
      </trkpt>
      <trkpt lat="42.90793" lon="0.75964">
        <ele>1481.26</ele>
        <time>2020-05-31T12:51:34.999Z</time>
      </trkpt>
      <trkpt lat="42.908" lon="0.75972">
        <ele>1480.56</ele>
        <time>2020-05-31T12:51:43.999Z</time>
      </trkpt>
      <trkpt lat="42.90808" lon="0.7598">
        <ele>1479.86</ele>
        <time>2020-05-31T12:51:52.999Z</time>
      </trkpt>
      <trkpt lat="42.90818" lon="0.7598">
        <ele>1480.33</ele>
        <time>2020-05-31T12:51:58.999Z</time>
      </trkpt>
      <trkpt lat="42.90826" lon="0.75987">
        <ele>1481.32</ele>
        <time>2020-05-31T12:52:05.999Z</time>
      </trkpt>
      <trkpt lat="42.90833" lon="0.75995">
        <ele>1481.92</ele>
        <time>2020-05-31T12:52:13.999Z</time>
      </trkpt>
      <trkpt lat="42.90842" lon="0.76001">
        <ele>1482.82</ele>
        <time>2020-05-31T12:52:22.999Z</time>
      </trkpt>
      <trkpt lat="42.90845" lon="0.76017">
        <ele>1483.08</ele>
        <time>2020-05-31T12:52:30.999Z</time>
      </trkpt>
      <trkpt lat="42.90838" lon="0.76025">
        <ele>1487.22</ele>
        <time>2020-05-31T12:54:28.999Z</time>
      </trkpt>
      <trkpt lat="42.90843" lon="0.76035">
        <ele>1487.76</ele>
        <time>2020-05-31T12:54:37.999Z</time>
      </trkpt>
      <trkpt lat="42.90848" lon="0.76046">
        <ele>1488.15</ele>
        <time>2020-05-31T12:54:45.999Z</time>
      </trkpt>
      <trkpt lat="42.90855" lon="0.76056">
        <ele>1487.97</ele>
        <time>2020-05-31T12:54:55.999Z</time>
      </trkpt>
      <trkpt lat="42.9086" lon="0.76067">
        <ele>1487.52</ele>
        <time>2020-05-31T12:55:02.999Z</time>
      </trkpt>
      <trkpt lat="42.90863" lon="0.76079">
        <ele>1486.91</ele>
        <time>2020-05-31T12:55:12.999Z</time>
      </trkpt>
      <trkpt lat="42.90868" lon="0.76089">
        <ele>1486.08</ele>
        <time>2020-05-31T12:55:25.999Z</time>
      </trkpt>
      <trkpt lat="42.90871" lon="0.76101">
        <ele>1485.77</ele>
        <time>2020-05-31T12:55:33.999Z</time>
      </trkpt>
      <trkpt lat="42.90874" lon="0.76113">
        <ele>1485.58</ele>
        <time>2020-05-31T12:55:41.999Z</time>
      </trkpt>
      <trkpt lat="42.90874" lon="0.76126">
        <ele>1485.64</ele>
        <time>2020-05-31T12:55:46.999Z</time>
      </trkpt>
      <trkpt lat="42.90879" lon="0.76136">
        <ele>1486.29</ele>
        <time>2020-05-31T12:55:59.999Z</time>
      </trkpt>
      <trkpt lat="42.90882" lon="0.7615">
        <ele>1486.28</ele>
        <time>2020-05-31T12:56:08.999Z</time>
      </trkpt>
      <trkpt lat="42.90886" lon="0.76161">
        <ele>1486.09</ele>
        <time>2020-05-31T12:56:14.999Z</time>
      </trkpt>
      <trkpt lat="42.90888" lon="0.76174">
        <ele>1485.4</ele>
        <time>2020-05-31T12:56:22.999Z</time>
      </trkpt>
      <trkpt lat="42.9089" lon="0.76186">
        <ele>1484.16</ele>
        <time>2020-05-31T12:56:30.999Z</time>
      </trkpt>
      <trkpt lat="42.90891" lon="0.762">
        <ele>1482.95</ele>
        <time>2020-05-31T12:56:43.999Z</time>
      </trkpt>
      <trkpt lat="42.90892" lon="0.76212">
        <ele>1482.53</ele>
        <time>2020-05-31T12:56:50.999Z</time>
      </trkpt>
      <trkpt lat="42.90895" lon="0.76225">
        <ele>1482.13</ele>
        <time>2020-05-31T12:56:57.999Z</time>
      </trkpt>
      <trkpt lat="42.909" lon="0.76235">
        <ele>1481.89</ele>
        <time>2020-05-31T12:57:03.999Z</time>
      </trkpt>
      <trkpt lat="42.90902" lon="0.76249">
        <ele>1481.8</ele>
        <time>2020-05-31T12:57:11.999Z</time>
      </trkpt>
      <trkpt lat="42.90906" lon="0.76262">
        <ele>1481.57</ele>
        <time>2020-05-31T12:57:41.999Z</time>
      </trkpt>
      <trkpt lat="42.90908" lon="0.76274">
        <ele>1481.06</ele>
        <time>2020-05-31T12:57:50.999Z</time>
      </trkpt>
      <trkpt lat="42.90907" lon="0.76287">
        <ele>1480.59</ele>
        <time>2020-05-31T12:58:00.999Z</time>
      </trkpt>
      <trkpt lat="42.90903" lon="0.76298">
        <ele>1479.68</ele>
        <time>2020-05-31T12:58:11.999Z</time>
      </trkpt>
      <trkpt lat="42.90903" lon="0.7631">
        <ele>1478.36</ele>
        <time>2020-05-31T12:58:22.999Z</time>
      </trkpt>
      <trkpt lat="42.90902" lon="0.76324">
        <ele>1477.18</ele>
        <time>2020-05-31T12:58:29.999Z</time>
      </trkpt>
      <trkpt lat="42.90901" lon="0.76338">
        <ele>1476.37</ele>
        <time>2020-05-31T12:58:36.999Z</time>
      </trkpt>
      <trkpt lat="42.909" lon="0.76351">
        <ele>1475.37</ele>
        <time>2020-05-31T12:58:43.999Z</time>
      </trkpt>
      <trkpt lat="42.90902" lon="0.76363">
        <ele>1474.31</ele>
        <time>2020-05-31T12:58:53.999Z</time>
      </trkpt>
      <trkpt lat="42.90904" lon="0.76376">
        <ele>1474</ele>
        <time>2020-05-31T12:58:59.999Z</time>
      </trkpt>
      <trkpt lat="42.90909" lon="0.76387">
        <ele>1474.12</ele>
        <time>2020-05-31T12:59:07.999Z</time>
      </trkpt>
      <trkpt lat="42.90913" lon="0.76399">
        <ele>1473.71</ele>
        <time>2020-05-31T12:59:20.999Z</time>
      </trkpt>
      <trkpt lat="42.90917" lon="0.76411">
        <ele>1473.09</ele>
        <time>2020-05-31T12:59:29.999Z</time>
      </trkpt>
      <trkpt lat="42.9092" lon="0.76424">
        <ele>1473.21</ele>
        <time>2020-05-31T12:59:34.999Z</time>
      </trkpt>
      <trkpt lat="42.9092" lon="0.76437">
        <ele>1473.73</ele>
        <time>2020-05-31T12:59:43.999Z</time>
      </trkpt>
      <trkpt lat="42.90921" lon="0.7645">
        <ele>1473.8</ele>
        <time>2020-05-31T12:59:52.999Z</time>
      </trkpt>
      <trkpt lat="42.90928" lon="0.76461">
        <ele>1473.61</ele>
        <time>2020-05-31T13:00:05.999Z</time>
      </trkpt>
      <trkpt lat="42.90937" lon="0.76461">
        <ele>1474.09</ele>
        <time>2020-05-31T13:00:11.999Z</time>
      </trkpt>
      <trkpt lat="42.90944" lon="0.76471">
        <ele>1475.13</ele>
        <time>2020-05-31T13:00:18.999Z</time>
      </trkpt>
      <trkpt lat="42.90951" lon="0.76479">
        <ele>1476.59</ele>
        <time>2020-05-31T13:00:27.999Z</time>
      </trkpt>
      <trkpt lat="42.90959" lon="0.76487">
        <ele>1477.81</ele>
        <time>2020-05-31T13:00:35.999Z</time>
      </trkpt>
      <trkpt lat="42.90966" lon="0.76495">
        <ele>1479.23</ele>
        <time>2020-05-31T13:00:44.999Z</time>
      </trkpt>
      <trkpt lat="42.90973" lon="0.76503">
        <ele>1480.45</ele>
        <time>2020-05-31T13:00:55.999Z</time>
      </trkpt>
      <trkpt lat="42.90977" lon="0.76515">
        <ele>1481.1</ele>
        <time>2020-05-31T13:01:04.999Z</time>
      </trkpt>
      <trkpt lat="42.90982" lon="0.76526">
        <ele>1481.78</ele>
        <time>2020-05-31T13:01:11.999Z</time>
      </trkpt>
      <trkpt lat="42.90986" lon="0.76537">
        <ele>1482.55</ele>
        <time>2020-05-31T13:01:19.999Z</time>
      </trkpt>
      <trkpt lat="42.90993" lon="0.76545">
        <ele>1483.72</ele>
        <time>2020-05-31T13:01:28.999Z</time>
      </trkpt>
      <trkpt lat="42.91002" lon="0.7655">
        <ele>1484.96</ele>
        <time>2020-05-31T13:01:37.999Z</time>
      </trkpt>
      <trkpt lat="42.91012" lon="0.7655">
        <ele>1486.05</ele>
        <time>2020-05-31T13:01:45.999Z</time>
      </trkpt>
      <trkpt lat="42.91021" lon="0.7655">
        <ele>1487.15</ele>
        <time>2020-05-31T13:01:55.999Z</time>
      </trkpt>
      <trkpt lat="42.9103" lon="0.76549">
        <ele>1488.18</ele>
        <time>2020-05-31T13:02:05.999Z</time>
      </trkpt>
      <trkpt lat="42.9104" lon="0.7655">
        <ele>1488.97</ele>
        <time>2020-05-31T13:02:14.999Z</time>
      </trkpt>
      <trkpt lat="42.9105" lon="0.76551">
        <ele>1489.69</ele>
        <time>2020-05-31T13:02:22.999Z</time>
      </trkpt>
      <trkpt lat="42.91059" lon="0.76554">
        <ele>1490.05</ele>
        <time>2020-05-31T13:02:30.999Z</time>
      </trkpt>
      <trkpt lat="42.91069" lon="0.76555">
        <ele>1490.51</ele>
        <time>2020-05-31T13:02:38.999Z</time>
      </trkpt>
      <trkpt lat="42.91079" lon="0.76555">
        <ele>1491.27</ele>
        <time>2020-05-31T13:02:47.999Z</time>
      </trkpt>
      <trkpt lat="42.91089" lon="0.76555">
        <ele>1492.2</ele>
        <time>2020-05-31T13:02:56.999Z</time>
      </trkpt>
      <trkpt lat="42.91099" lon="0.76555">
        <ele>1493.49</ele>
        <time>2020-05-31T13:03:06.999Z</time>
      </trkpt>
      <trkpt lat="42.91108" lon="0.76556">
        <ele>1495.5</ele>
        <time>2020-05-31T13:03:19.999Z</time>
      </trkpt>
      <trkpt lat="42.91117" lon="0.76558">
        <ele>1497.82</ele>
        <time>2020-05-31T13:03:31.999Z</time>
      </trkpt>
      <trkpt lat="42.91127" lon="0.76556">
        <ele>1499.23</ele>
        <time>2020-05-31T13:03:39.999Z</time>
      </trkpt>
      <trkpt lat="42.91137" lon="0.76555">
        <ele>1500.56</ele>
        <time>2020-05-31T13:03:50.999Z</time>
      </trkpt>
      <trkpt lat="42.91146" lon="0.76556">
        <ele>1500.77</ele>
        <time>2020-05-31T13:03:59.999Z</time>
      </trkpt>
      <trkpt lat="42.91152" lon="0.76566">
        <ele>1500.44</ele>
        <time>2020-05-31T13:04:08.999Z</time>
      </trkpt>
      <trkpt lat="42.91158" lon="0.76575">
        <ele>1499.87</ele>
        <time>2020-05-31T13:04:15.999Z</time>
      </trkpt>
      <trkpt lat="42.91165" lon="0.76584">
        <ele>1499.26</ele>
        <time>2020-05-31T13:04:20.999Z</time>
      </trkpt>
      <trkpt lat="42.9117" lon="0.76596">
        <ele>1498.37</ele>
        <time>2020-05-31T13:04:29.999Z</time>
      </trkpt>
      <trkpt lat="42.91171" lon="0.76609">
        <ele>1497.89</ele>
        <time>2020-05-31T13:04:37.999Z</time>
      </trkpt>
      <trkpt lat="42.91167" lon="0.7662">
        <ele>1497.91</ele>
        <time>2020-05-31T13:04:47.999Z</time>
      </trkpt>
      <trkpt lat="42.91167" lon="0.76634">
        <ele>1498.01</ele>
        <time>2020-05-31T13:04:56.999Z</time>
      </trkpt>
      <trkpt lat="42.91167" lon="0.76647">
        <ele>1498.17</ele>
        <time>2020-05-31T13:05:05.999Z</time>
      </trkpt>
      <trkpt lat="42.91168" lon="0.76659">
        <ele>1498.42</ele>
        <time>2020-05-31T13:05:13.999Z</time>
      </trkpt>
      <trkpt lat="42.9117" lon="0.76673">
        <ele>1498.71</ele>
        <time>2020-05-31T13:05:21.999Z</time>
      </trkpt>
      <trkpt lat="42.91172" lon="0.76686">
        <ele>1499.04</ele>
        <time>2020-05-31T13:05:28.999Z</time>
      </trkpt>
      <trkpt lat="42.91176" lon="0.76698">
        <ele>1499.2</ele>
        <time>2020-05-31T13:05:38.999Z</time>
      </trkpt>
      <trkpt lat="42.9118" lon="0.76709">
        <ele>1498.87</ele>
        <time>2020-05-31T13:05:46.999Z</time>
      </trkpt>
      <trkpt lat="42.91183" lon="0.76722">
        <ele>1498.36</ele>
        <time>2020-05-31T13:05:56.999Z</time>
      </trkpt>
      <trkpt lat="42.91184" lon="0.76735">
        <ele>1497.57</ele>
        <time>2020-05-31T13:06:06.999Z</time>
      </trkpt>
      <trkpt lat="42.91186" lon="0.76749">
        <ele>1497.04</ele>
        <time>2020-05-31T13:06:13.999Z</time>
      </trkpt>
      <trkpt lat="42.9119" lon="0.76761">
        <ele>1496.45</ele>
        <time>2020-05-31T13:06:22.999Z</time>
      </trkpt>
      <trkpt lat="42.91196" lon="0.76772">
        <ele>1496.22</ele>
        <time>2020-05-31T13:06:29.999Z</time>
      </trkpt>
      <trkpt lat="42.91198" lon="0.76784">
        <ele>1496.68</ele>
        <time>2020-05-31T13:06:34.999Z</time>
      </trkpt>
      <trkpt lat="42.91202" lon="0.76796">
        <ele>1497.68</ele>
        <time>2020-05-31T13:06:41.999Z</time>
      </trkpt>
      <trkpt lat="42.91206" lon="0.76808">
        <ele>1499</ele>
        <time>2020-05-31T13:06:48.999Z</time>
      </trkpt>
      <trkpt lat="42.91211" lon="0.76821">
        <ele>1500.98</ele>
        <time>2020-05-31T13:06:57.999Z</time>
      </trkpt>
      <trkpt lat="42.91216" lon="0.76831">
        <ele>1502.51</ele>
        <time>2020-05-31T13:07:06.999Z</time>
      </trkpt>
      <trkpt lat="42.91221" lon="0.76842">
        <ele>1503.67</ele>
        <time>2020-05-31T13:07:17.999Z</time>
      </trkpt>
      <trkpt lat="42.91227" lon="0.76851">
        <ele>1503.67</ele>
        <time>2020-05-31T13:07:23.999Z</time>
      </trkpt>
      <trkpt lat="42.91232" lon="0.76862">
        <ele>1503.49</ele>
        <time>2020-05-31T13:07:31.999Z</time>
      </trkpt>
      <trkpt lat="42.91235" lon="0.76874">
        <ele>1503.18</ele>
        <time>2020-05-31T13:07:41.999Z</time>
      </trkpt>
      <trkpt lat="42.91238" lon="0.76885">
        <ele>1502.25</ele>
        <time>2020-05-31T13:07:50.999Z</time>
      </trkpt>
      <trkpt lat="42.9124" lon="0.76898">
        <ele>1501.24</ele>
        <time>2020-05-31T13:07:59.999Z</time>
      </trkpt>
      <trkpt lat="42.91241" lon="0.7691">
        <ele>1500.34</ele>
        <time>2020-05-31T13:08:07.999Z</time>
      </trkpt>
      <trkpt lat="42.9124" lon="0.76923">
        <ele>1498.9</ele>
        <time>2020-05-31T13:08:18.999Z</time>
      </trkpt>
      <trkpt lat="42.91238" lon="0.76936">
        <ele>1497.77</ele>
        <time>2020-05-31T13:08:26.999Z</time>
      </trkpt>
      <trkpt lat="42.91235" lon="0.76949">
        <ele>1496.97</ele>
        <time>2020-05-31T13:08:33.999Z</time>
      </trkpt>
      <trkpt lat="42.91236" lon="0.76961">
        <ele>1496.11</ele>
        <time>2020-05-31T13:08:41.999Z</time>
      </trkpt>
      <trkpt lat="42.91235" lon="0.76973">
        <ele>1495.18</ele>
        <time>2020-05-31T13:08:49.999Z</time>
      </trkpt>
      <trkpt lat="42.91233" lon="0.76985">
        <ele>1493.88</ele>
        <time>2020-05-31T13:08:58.999Z</time>
      </trkpt>
      <trkpt lat="42.91229" lon="0.76997">
        <ele>1492.82</ele>
        <time>2020-05-31T13:09:07.999Z</time>
      </trkpt>
      <trkpt lat="42.91228" lon="0.7701">
        <ele>1491.96</ele>
        <time>2020-05-31T13:09:16.999Z</time>
      </trkpt>
      <trkpt lat="42.91227" lon="0.77023">
        <ele>1491.45</ele>
        <time>2020-05-31T13:09:24.999Z</time>
      </trkpt>
      <trkpt lat="42.91229" lon="0.77036">
        <ele>1490.97</ele>
        <time>2020-05-31T13:09:34.999Z</time>
      </trkpt>
      <trkpt lat="42.9123" lon="0.77049">
        <ele>1490.48</ele>
        <time>2020-05-31T13:09:45.999Z</time>
      </trkpt>
      <trkpt lat="42.91234" lon="0.77061">
        <ele>1489.8</ele>
        <time>2020-05-31T13:09:54.999Z</time>
      </trkpt>
      <trkpt lat="42.91239" lon="0.77072">
        <ele>1488.98</ele>
        <time>2020-05-31T13:10:03.999Z</time>
      </trkpt>
      <trkpt lat="42.91247" lon="0.77076">
        <ele>1487.55</ele>
        <time>2020-05-31T13:10:16.999Z</time>
      </trkpt>
      <trkpt lat="42.91252" lon="0.77088">
        <ele>1486.05</ele>
        <time>2020-05-31T13:10:26.999Z</time>
      </trkpt>
      <trkpt lat="42.91255" lon="0.77101">
        <ele>1484.99</ele>
        <time>2020-05-31T13:10:34.999Z</time>
      </trkpt>
      <trkpt lat="42.91256" lon="0.77089">
        <ele>1482.06</ele>
        <time>2020-05-31T13:11:13.999Z</time>
      </trkpt>
      <trkpt lat="42.91258" lon="0.77102">
        <ele>1481.39</ele>
        <time>2020-05-31T13:11:38.999Z</time>
      </trkpt>
      <trkpt lat="42.91265" lon="0.77112">
        <ele>1481.34</ele>
        <time>2020-05-31T13:11:43.999Z</time>
      </trkpt>
      <trkpt lat="42.9127" lon="0.77123">
        <ele>1481.43</ele>
        <time>2020-05-31T13:11:48.999Z</time>
      </trkpt>
      <trkpt lat="42.91275" lon="0.77136">
        <ele>1481.39</ele>
        <time>2020-05-31T13:11:54.999Z</time>
      </trkpt>
      <trkpt lat="42.91278" lon="0.77147">
        <ele>1481.07</ele>
        <time>2020-05-31T13:12:00.999Z</time>
      </trkpt>
      <trkpt lat="42.91282" lon="0.77159">
        <ele>1480.61</ele>
        <time>2020-05-31T13:12:10.999Z</time>
      </trkpt>
      <trkpt lat="42.91286" lon="0.77172">
        <ele>1480.23</ele>
        <time>2020-05-31T13:12:17.999Z</time>
      </trkpt>
      <trkpt lat="42.91291" lon="0.77184">
        <ele>1479.9</ele>
        <time>2020-05-31T13:12:24.999Z</time>
      </trkpt>
      <trkpt lat="42.91295" lon="0.77196">
        <ele>1479.61</ele>
        <time>2020-05-31T13:12:31.999Z</time>
      </trkpt>
    </trkseg>
  </trk>
</gpx>